Provisional Data: Catatonk Creek near Spencer, NY


Please select a monitoring station.
Please select start date.
Please select start date.

Toggle Unit: C/F Toggle Unit: C/F
Sample Time Temperature (C) Temperature (F) Specific Conductivity (mS/cm) pH   Turbidity (NTU+) DO (mg/L)
5/17/2022 12:00:00 AM 16.11 60.998 0.381 7.68 5.2 6.63
5/17/2022 12:15:00 AM 16.05 60.89 0.376 7.7 5.21 6.75
5/17/2022 12:30:00 AM 16.08 60.944 0.376 7.68 5.03 6.74
5/17/2022 12:45:00 AM 15.9 60.62 0.382 7.68 5.1 6.62
5/17/2022 1:00:00 AM 15.95 60.71 0.372 7.69 5.47 6.8
5/17/2022 1:15:00 AM 15.76 60.368 0.378 7.68 5.54 6.65
5/17/2022 1:30:00 AM 15.72 60.296 0.378 7.65 5.21 6.67
5/17/2022 1:45:00 AM 15.66 60.188 0.375 7.69 5.46 6.82
5/17/2022 2:00:00 AM 15.46 59.828 0.38 7.66 5.36 6.78
5/17/2022 2:15:00 AM 15.41 59.738 0.374 7.65 5.5 6.76
5/17/2022 2:30:00 AM 15.58 60.044 0.366 7.67 5.41 6.93
5/17/2022 2:45:00 AM 15.32 59.576 0.376 7.66 5.36 6.86
5/17/2022 3:00:00 AM 15.24 59.432 0.374 7.66 5.5 6.93
5/17/2022 3:15:00 AM 15.15 59.27 0.369 7.67 5.95 6.94
5/17/2022 3:30:00 AM 15.02 59.036 0.38 7.66 5.93 6.98
5/17/2022 3:45:00 AM 14.96 58.928 0.378 7.63 6.02 6.95
5/17/2022 4:00:00 AM 15.1 59.18 0.366 7.66 5.89 6.93
5/17/2022 4:15:00 AM 14.94 58.892 0.368 7.66 5.81 6.98
5/17/2022 4:30:00 AM 14.93 58.874 0.364 7.65 5.84 6.86
5/17/2022 4:45:00 AM 14.86 58.748 0.367 7.64 5.63 6.92
5/17/2022 5:00:00 AM 14.75 58.55 0.366 7.66 5.83 7.07
5/17/2022 5:15:00 AM 14.84 58.712 0.36 7.66 5.85 7.08
5/17/2022 5:30:00 AM 14.62 58.316 0.374 7.66 6.16 6.99
5/17/2022 5:45:00 AM 14.48 58.064 0.373 7.63 5.79 6.94
5/17/2022 6:00:00 AM 14.64 58.352 0.364 7.65 5.67 6.85
5/17/2022 6:15:00 AM 14.53 58.154 0.367 7.66 5.53 7.12
5/17/2022 6:30:00 AM 14.55 58.19 0.361 7.66 5.56 7.21
5/17/2022 6:45:00 AM 14.29 57.722 0.384 7.65 5.07 7.24
5/17/2022 7:00:00 AM 14.43 57.974 0.359 7.66 5.08 7.32
5/17/2022 7:15:00 AM 14.25 57.65 0.364 7.66 5 7.43
5/17/2022 7:30:00 AM 14.27 57.686 0.363 7.67 4.58 7.61
5/17/2022 7:45:00 AM 14.11 57.398 0.362 7.67 4.93 7.59
5/17/2022 8:00:00 AM 14.11 57.398 0.37 7.68 5.13 7.7
5/17/2022 8:15:00 AM 14.1 57.38 0.368 7.69 4.48 7.91
5/17/2022 8:30:00 AM 14.13 57.434 0.368 7.7 4.4 8.08
5/17/2022 8:45:00 AM 14.1 57.38 0.366 7.71 4.18 8.1
5/17/2022 9:00:00 AM 13.97 57.146 0.38 7.73 4.33 8.29
5/17/2022 9:15:00 AM 14.14 57.452 0.376 7.73 4.18 8.32
5/17/2022 9:30:00 AM 14.18 57.524 0.37 7.76 4.12 8.63
5/17/2022 9:45:00 AM 14.13 57.434 0.38 7.76 4.03 8.79
5/17/2022 10:00:00 AM 14.42 57.956 0.363 7.78 3.95 8.67
5/17/2022 10:15:00 AM 14.38 57.884 0.369 7.8 4.01 8.92
5/17/2022 10:30:00 AM 14.51 58.118 0.369 7.82 4.23 9
5/17/2022 10:45:00 AM 14.58 58.244 0.371 7.81 4.03 8.59
5/17/2022 11:00:00 AM 14.7 58.46 0.369 7.82 4 9.13
5/17/2022 11:15:00 AM 14.73 58.514 0.371 7.83 4.11 9.21
5/17/2022 11:30:00 AM 15.09 59.162 0.364 7.88 4.19 9.47
5/17/2022 11:45:00 AM 15.03 59.054 0.37 7.86 4.14 9.44
5/17/2022 12:00:00 PM 15.17 59.306 0.369 7.88 4.08 9.42
5/17/2022 12:15:00 PM 15.39 59.702 0.372 7.89 3.95 9.51
5/17/2022 12:30:00 PM 15.34 59.612 0.371 7.91 4 9.72
5/17/2022 12:45:00 PM 15.62 60.116 0.369 7.92 3.87 9.71
5/17/2022 1:00:00 PM 15.77 60.386 0.369 7.94 3.87 9.88
5/17/2022 1:15:00 PM 15.86 60.548 0.369 7.95 3.78 9.86
5/17/2022 1:30:00 PM 15.84 60.512 0.377 7.96 3.76 9.9
5/17/2022 1:45:00 PM 16.08 60.944 0.371 7.97 3.68 10.11
5/17/2022 2:00:00 PM 16.03 60.854 0.377 7.97 3.84 9.97
5/17/2022 2:15:00 PM 16.27 61.286 0.367 7.96 3.7 9.86
5/17/2022 2:30:00 PM 16.46 61.628 0.364 7.99 3.72 9.84
5/17/2022 2:45:00 PM 16.48 61.664 0.369 8.02 3.81 10.13
5/17/2022 3:00:00 PM 16.74 62.132 0.361 8.03 3.62 10.1
5/17/2022 3:15:00 PM 16.53 61.754 0.366 8.01 3.66 9.8
5/17/2022 3:30:00 PM 16.44 61.592 0.375 8 3.64 9.27
5/17/2022 3:45:00 PM 16.61 61.898 0.372 8.03 3.68 9.97
5/17/2022 4:00:00 PM 16.22 61.196 0.375 8.04 3.88 9.96
5/17/2022 4:15:00 PM 16.51 61.718 0.368 8.03 3.62 9.09
5/17/2022 4:30:00 PM 16.18 61.124 0.371 7.99 3.68 9.42
5/17/2022 4:45:00 PM 16.54 61.772 0.366 8.01 3.82 9.64
5/17/2022 5:00:00 PM 16.38 61.484 0.37 7.98 3.49 9.41
5/17/2022 5:15:00 PM 16.64 61.952 0.367 8.04 3.66 9.64
5/17/2022 5:30:00 PM 16.02 60.836 0.384 7.8 3.19 8.49
5/17/2022 5:45:00 PM 16.58 61.844 0.368 8.03 3.43 9.61
5/17/2022 6:00:00 PM 16.6 61.88 0.366 8.01 3.45 9.27
5/17/2022 6:15:00 PM 16.42 61.556 0.373 8.02 3.59 9.4
5/17/2022 6:30:00 PM 16.23 61.214 0.381 7.95 3.55 9.03
5/17/2022 6:45:00 PM 15.7 60.26 0.398 7.85 3.48 8.46
5/17/2022 7:00:00 PM 16.41 61.538 0.371 7.92 3.8 8.69
5/17/2022 7:15:00 PM 16.5 61.7 0.371 7.96 3.67 8.91
5/17/2022 7:30:00 PM 16.32 61.376 0.371 7.93 3.67 8.43
5/17/2022 7:45:00 PM 15.94 60.692 0.381 7.93 3.69 8.56
5/17/2022 8:00:00 PM 16.23 61.214 0.37 7.91 4.06 8.57
5/17/2022 8:15:00 PM 15.98 60.764 0.376 7.86 3.82 7.97
5/17/2022 8:30:00 PM 16.1 60.98 0.37 7.85 3.76 7.85
5/17/2022 8:45:00 PM 16.07 60.926 0.374 7.85 4.05 8.08
5/17/2022 9:00:00 PM 15.89 60.602 0.375 7.82 4.02 7.79
5/17/2022 9:15:00 PM 15.79 60.422 0.378 7.81 4.27 7.8
5/17/2022 9:30:00 PM 15.71 60.278 0.376 7.79 4.34 7.51
5/17/2022 9:45:00 PM 15.28 59.504 0.385 7.73 4.11 6.93
5/17/2022 10:00:00 PM 15.33 59.594 0.378 7.76 4.61 7.31
5/17/2022 10:15:00 PM 15.48 59.864 0.378 7.74 4.44 7.3
5/17/2022 10:30:00 PM 15.11 59.198 0.386 7.69 4.51 6.98
5/17/2022 10:45:00 PM 15.27 59.486 0.382 7.75 4.64 7.05
5/17/2022 11:00:00 PM 15.37 59.666 0.377 7.72 4.54 7.1
5/17/2022 11:15:00 PM 15.19 59.342 0.381 7.73 4.56 7.18
5/17/2022 11:30:00 PM 15.15 59.27 0.379 7.7 4.95 7.12
5/17/2022 11:45:00 PM 15.01 59.018 0.378 7.71 4.74 7.07
5/18/2022 12:00:00 AM 14.78 58.604 0.387 7.68 4.42 6.87
5/18/2022 12:15:00 AM 14.99 58.982 0.382 7.72 4.75 7.29
5/18/2022 12:30:00 AM 14.88 58.784 0.383 7.72 4.92 7.14
5/18/2022 12:45:00 AM 14.53 58.154 0.39 7.69 4.68 6.83
5/18/2022 1:00:00 AM 14.7 58.46 0.382 7.69 4.76 7.02
5/18/2022 1:15:00 AM 14.57 58.226 0.382 7.69 4.81 7.01
5/18/2022 1:30:00 AM 14.69 58.442 0.378 7.7 4.46 7.21
5/18/2022 1:45:00 AM 14.62 58.316 0.374 7.71 5.4 7.2
5/18/2022 2:00:00 AM 14.42 57.956 0.381 7.69 5.01 7.03
5/18/2022 2:15:00 AM 14.38 57.884 0.382 7.68 4.95 7.02
5/18/2022 2:30:00 AM 14.37 57.866 0.381 7.68 5.14 7.14
5/18/2022 2:45:00 AM 14.24 57.632 0.381 7.68 4.98 6.96
5/18/2022 3:00:00 AM 14.02 57.236 0.387 7.65 4.86 7.07
5/18/2022 3:15:00 AM 14.14 57.452 0.385 7.66 4.78 7.04
5/18/2022 3:30:00 AM 13.92 57.056 0.391 7.62 4.89 6.92
5/18/2022 3:45:00 AM 14.05 57.29 0.39 7.67 4.74 7.02
5/18/2022 4:00:00 AM 13.82 56.876 0.391 7.66 4.84 7
5/18/2022 4:15:00 AM 13.89 57.002 0.385 7.67 5.07 7.23
5/18/2022 4:30:00 AM 13.61 56.498 0.394 7.64 5.17 7
5/18/2022 4:45:00 AM 13.75 56.75 0.387 7.66 5.19 7.27
5/18/2022 5:00:00 AM 13.74 56.732 0.38 7.67 4.95 7.18
5/18/2022 5:15:00 AM 13.45 56.21 0.396 7.66 5.17 7.3
5/18/2022 5:30:00 AM 13.53 56.354 0.381 7.65 4.93 7.36
5/18/2022 5:45:00 AM 13.29 55.922 0.395 7.66 4.66 7.41
5/18/2022 6:00:00 AM 13.21 55.778 0.387 7.65 4.81 7.28
5/18/2022 6:15:00 AM 13.06 55.508 0.391 7.67 4.58 7.23
5/18/2022 6:30:00 AM 12.97 55.346 0.396 7.66 4.96 7.35
5/18/2022 6:45:00 AM 13.07 55.526 0.392 7.66 4.7 7.53
5/18/2022 7:00:00 AM 12.86 55.148 0.398 7.66 4.66 7.45
5/18/2022 7:15:00 AM 13.02 55.436 0.381 7.68 4.88 7.69
5/18/2022 7:30:00 AM 12.85 55.13 0.402 7.65 4.73 7.62
5/18/2022 7:45:00 AM 12.9 55.22 0.382 7.67 4.36 7.7
5/18/2022 8:00:00 AM 12.76 54.968 0.397 7.65 4.38 7.63
5/18/2022 8:15:00 AM 12.84 55.112 0.387 7.69 4.13 7.82
5/18/2022 8:30:00 AM 12.82 55.076 0.393 7.67 4.21 7.89
5/18/2022 8:45:00 AM 12.97 55.346 0.394 7.71 4.16 8.37
5/18/2022 9:00:00 AM 12.86 55.148 0.392 7.66 4.1 7.81
5/18/2022 9:15:00 AM 13 55.4 0.388 7.73 4.21 8.54
5/18/2022 9:30:00 AM 13.09 55.562 0.4 7.72 3.89 8.4
5/18/2022 9:45:00 AM 13.31 55.958 0.384 7.74 3.96 8.64
5/18/2022 10:00:00 AM 13.16 55.688 0.393 7.74 3.89 8.63
5/18/2022 10:15:00 AM 12.89 55.202 0.407 7.61 3.68 6.96
5/18/2022 10:30:00 AM 13.48 56.264 0.391 7.79 3.93 9.05
5/18/2022 10:45:00 AM 13.71 56.678 0.394 7.81 3.75 9.12
5/18/2022 11:00:00 AM 13.94 57.092 0.391 7.81 3.82 9.21
5/18/2022 11:15:00 AM 13.86 56.948 0.398 7.78 3.81 8.9
5/18/2022 11:30:00 AM 13.98 57.164 0.399 7.75 3.81 9.15
5/18/2022 11:45:00 AM 14.13 57.434 0.397 7.8 3.87 9.16
5/18/2022 12:00:00 PM 14.46 58.028 0.384 7.87 3.69 9.7
5/18/2022 12:15:00 PM 14.82 58.676 0.382 7.87 3.61 9.61
5/18/2022 12:30:00 PM 14.95 58.91 0.389 7.9 3.5 9.97
5/18/2022 12:45:00 PM 15.06 59.108 0.393 7.86 3.49 9.91
5/18/2022 1:00:00 PM 15.43 59.774 0.385 7.89 3.81 9.98
5/18/2022 1:15:00 PM 15.44 59.792 0.389 7.88 3.51 9.77
5/18/2022 1:30:00 PM 15.69 60.242 0.395 7.91 3.37 9.86
5/18/2022 1:45:00 PM 15.38 59.684 0.409 7.82 3.28 9.36
5/18/2022 2:00:00 PM 15.91 60.638 0.403 7.94 3.48 10.02
5/18/2022 2:15:00 PM 15.86 60.548 0.409 7.9 3.46 9.58
5/18/2022 2:30:00 PM 16.43 61.574 0.388 7.98 3.4 10.33
5/18/2022 2:45:00 PM 16.7 62.06 0.387 7.99 3.37 10.25
5/18/2022 3:00:00 PM 15.97 60.746 0.414 7.9 2.98 10.07
5/18/2022 3:15:00 PM 16.49 61.682 0.404 8 3.33 10.12
5/18/2022 3:30:00 PM 16.71 62.078 0.401 8.01 3.23 10.22
5/18/2022 3:45:00 PM 16.6 61.88 0.409 7.97 3.14 10.01
5/18/2022 4:00:00 PM 16.81 62.258 0.407 7.98 3.26 10.18
5/18/2022 4:15:00 PM 16.07 60.926 0.419 7.96 3.3 8.73
5/18/2022 4:30:00 PM 16.51 61.718 0.416 7.97 3.19 9.91
5/18/2022 4:45:00 PM 16.48 61.664 0.408 7.96 3.25 9.57
5/18/2022 5:00:00 PM 16.61 61.898 0.405 7.99 3.25 9.53
5/18/2022 5:15:00 PM 16.1 60.98 0.413 7.87 3.34 8.61
5/18/2022 5:30:00 PM 16.05 60.89 0.413 7.9 3.32 8.49
5/18/2022 5:45:00 PM 16.48 61.664 0.4 7.92 3.18 8.69
5/18/2022 6:00:00 PM 16.41 61.538 0.408 7.89 3.25 8.71
5/18/2022 6:15:00 PM 16.37 61.466 0.409 7.87 3.32 8.42
5/18/2022 6:30:00 PM 16.39 61.502 0.402 7.88 3.55 8.45
5/18/2022 6:45:00 PM 16.48 61.664 0.396 7.85 3.35 8.31
5/18/2022 7:00:00 PM 16.43 61.574 0.394 7.87 3.57 8.22
5/18/2022 7:15:00 PM 15.99 60.782 0.406 7.83 3.25 7.74
5/18/2022 7:30:00 PM 15.87 60.566 0.403 7.81 3.26 7.93
5/18/2022 7:45:00 PM 15.9 60.62 0.403 7.76 3.41 7.44
5/18/2022 8:00:00 PM 16.02 60.836 0.398 7.82 3.31 7.54
5/18/2022 8:15:00 PM 15.84 60.512 0.399 7.78 3.33 7.43
5/18/2022 8:30:00 PM 15.89 60.602 0.398 7.78 3.66 7.46
5/18/2022 8:45:00 PM 15.83 60.494 0.397 7.75 3.64 7.12
5/18/2022 9:00:00 PM 15.7 60.26 0.397 7.79 3.79 7.41
5/18/2022 9:15:00 PM 15.69 60.242 0.398 7.75 3.74 7.2
5/18/2022 9:30:00 PM 15.89 60.602 0.388 7.74 3.88 7.09
5/18/2022 9:45:00 PM 15.28 59.504 0.406 7.69 3.71 6.65
5/18/2022 10:00:00 PM 14.87 58.766 0.415 7.68 3.99 6.96
5/18/2022 10:15:00 PM 15.41 59.738 0.404 7.72 4.05 7.03
5/18/2022 10:30:00 PM 15.33 59.594 0.393 7.7 5.14 6.94
5/18/2022 10:45:00 PM 14.95 58.91 0.401 7.67 4.33 6.46
5/18/2022 11:00:00 PM 14.52 58.136 0.412 7.64 4.28 5.95
5/18/2022 11:15:00 PM 14.96 58.928 0.404 7.67 4.41 6.78
5/18/2022 11:30:00 PM 14.73 58.514 0.405 7.66 4.23 6.6
5/18/2022 11:45:00 PM 14.94 58.892 0.389 7.65 4.62 6.56
5/19/2022 12:00:00 AM 14.69 58.442 0.401 7.68 4.61 6.72
5/19/2022 12:15:00 AM 14.91 58.838 0.393 7.7 4.41 6.91
5/19/2022 12:30:00 AM 14.92 58.856 0.393 7.69 4.51 6.89
5/19/2022 12:45:00 AM 14.82 58.676 0.386 7.68 5.11 6.9
5/19/2022 1:00:00 AM 14.87 58.766 0.386 7.68 4.57 7.02
5/19/2022 1:15:00 AM 14.62 58.316 0.39 7.64 4.3 6.74
5/19/2022 1:30:00 AM 14.62 58.316 0.391 7.67 4.58 6.9
5/19/2022 1:45:00 AM 14.62 58.316 0.391 7.69 4.28 6.9
5/19/2022 2:00:00 AM 14.61 58.298 0.39 7.64 4.39 6.9
5/19/2022 2:15:00 AM 14.56 58.208 0.393 7.65 4.47 6.84
5/19/2022 2:30:00 AM 14.5 58.1 0.395 7.65 4.42 6.66
5/19/2022 2:45:00 AM 14.47 58.046 0.403 7.64 4.44 6.77
5/19/2022 3:00:00 AM 14.55 58.19 0.388 7.66 4.6 6.77
5/19/2022 3:15:00 AM 14.56 58.208 0.389 7.66 4.85 6.97
5/19/2022 3:30:00 AM 14.5 58.1 0.391 7.66 4.77 6.9
5/19/2022 3:45:00 AM 14.39 57.902 0.392 7.66 4.38 6.96
5/19/2022 4:00:00 AM 14.43 57.974 0.398 7.63 4.74 6.77
5/19/2022 4:15:00 AM 14.31 57.758 0.393 7.63 4.65 6.57
5/19/2022 4:30:00 AM 14.45 58.01 0.383 7.65 4.77 6.95
5/19/2022 4:45:00 AM 14.47 58.046 0.383 7.65 4.72 6.96
5/19/2022 5:00:00 AM 14.46 58.028 0.382 7.64 4.77 6.95
5/19/2022 5:15:00 AM 14.35 57.83 0.384 7.64 4.66 6.92
5/19/2022 5:30:00 AM 14.26 57.668 0.388 7.64 4.69 6.96
5/19/2022 5:45:00 AM 14.19 57.542 0.39 7.63 4.64 6.99
5/19/2022 6:00:00 AM 14.12 57.416 0.385 7.62 5.07 6.7
5/19/2022 6:15:00 AM 14.01 57.218 0.389 7.6 4.56 6.78
5/19/2022 6:30:00 AM 14.24 57.632 0.385 7.64 4.89 6.99
5/19/2022 6:45:00 AM 14.17 57.506 0.386 7.63 4.37 6.97
5/19/2022 7:00:00 AM 14.03 57.254 0.387 7.63 3.93 6.88
5/19/2022 7:15:00 AM 13.89 57.002 0.391 7.63 3.89 7.13
5/19/2022 7:30:00 AM 14.02 57.236 0.387 7.64 3.77 7.07
5/19/2022 7:45:00 AM 13.88 56.984 0.396 7.61 3.92 6.78
5/19/2022 8:00:00 AM 13.96 57.128 0.387 7.64 3.85 7.22
5/19/2022 8:15:00 AM 14.1 57.38 0.382 7.66 3.82 7.23
5/19/2022 8:30:00 AM 14.13 57.434 0.381 7.67 3.56 7.51
5/19/2022 8:45:00 AM 14.06 57.308 0.386 7.67 3.59 7.38
5/19/2022 9:00:00 AM 13.7 56.66 0.392 7.62 3.55 7.1
5/19/2022 9:15:00 AM 13.99 57.182 0.381 7.66 3.79 7.45
5/19/2022 9:30:00 AM 13.47 56.246 0.413 7.62 3.35 7.25
5/19/2022 9:45:00 AM 14.03 57.254 0.388 7.69 3.7 7.61
5/19/2022 10:00:00 AM 14.11 57.398 0.381 7.7 3.62 8.04
5/19/2022 10:15:00 AM 14.14 57.452 0.379 7.7 3.53 8.04
5/19/2022 10:30:00 AM 14.21 57.578 0.376 7.72 3.41 8.21
5/19/2022 10:45:00 AM 13.89 57.002 0.396 7.7 3.48 8.09
5/19/2022 11:00:00 AM 14.11 57.398 0.385 7.73 3.5 8.12
5/19/2022 11:15:00 AM 14.41 57.938 0.377 7.76 3.55 8.6
5/19/2022 11:30:00 AM 14.23 57.614 0.387 7.78 3.33 8.67
5/19/2022 11:45:00 AM 14.3 57.74 0.378 7.74 3.93 8.43
5/19/2022 12:00:00 PM 14.36 57.848 0.385 7.78 3.75 8.75
5/19/2022 12:15:00 PM 14.33 57.794 0.38 7.78 3.54 8.87
5/19/2022 12:30:00 PM 14.25 57.65 0.384 7.74 3.89 8.51
5/19/2022 12:45:00 PM 14.17 57.506 0.385 7.77 3.89 8.78
5/19/2022 1:00:00 PM 14.57 58.226 0.375 7.8 3.8 8.7
5/19/2022 1:15:00 PM 14.5 58.1 0.381 7.81 3.63 9.2
5/19/2022 1:30:00 PM 14.56 58.208 0.381 7.79 3.54 9.06
5/19/2022 1:45:00 PM 14.52 58.136 0.383 7.8 4.37 8.9
5/19/2022 2:00:00 PM 14.82 58.676 0.378 7.86 3.47 9.44
5/19/2022 2:15:00 PM 14.71 58.478 0.386 7.86 3.8 9.21
5/19/2022 2:30:00 PM 15.28 59.504 0.374 7.88 3.61 9.47
5/19/2022 2:45:00 PM 15.38 59.684 0.378 7.9 3.33 9.54
5/19/2022 3:00:00 PM 15.08 59.144 0.4 7.87 3.24 9.52
5/19/2022 3:15:00 PM 15.47 59.846 0.391 7.9 3.56 9.75
5/19/2022 3:30:00 PM 15.64 60.152 0.397 7.9 3.48 9.77
5/19/2022 3:45:00 PM 15.67 60.206 0.391 7.9 3.53 9.66
5/19/2022 4:00:00 PM 16.07 60.926 0.386 7.92 3.4 10.03
5/19/2022 4:15:00 PM 16.15 61.07 0.389 7.94 3.28 9.8
5/19/2022 4:30:00 PM 16.12 61.016 0.391 7.92 3.46 9.66
5/19/2022 4:45:00 PM 16.19 61.142 0.381 7.96 3.46 10.18
5/19/2022 5:00:00 PM 16.28 61.304 0.41 7.94 3.21 9.55
5/19/2022 5:15:00 PM 16.45 61.61 0.4 7.96 3.33 9.57
5/19/2022 5:30:00 PM 16.42 61.556 0.396 7.94 3.61 9.06
5/19/2022 5:45:00 PM 16.56 61.808 0.397 7.97 3.25 9.38
5/19/2022 6:00:00 PM 16.4 61.52 0.4 7.93 3.44 9.13
5/19/2022 6:15:00 PM 16.35 61.43 0.404 7.96 3.41 9.68
5/19/2022 6:30:00 PM 16.6 61.88 0.391 7.95 3.58 9.41
5/19/2022 6:45:00 PM 16.34 61.412 0.397 7.92 3.39 8.91
5/19/2022 7:00:00 PM 16.14 61.052 0.403 7.88 3.31 8.74
5/19/2022 7:15:00 PM 16.13 61.034 0.403 7.88 3.79 8.74
5/19/2022 7:30:00 PM 16.21 61.178 0.393 7.87 3.34 8.44
5/19/2022 7:45:00 PM 16.12 61.016 0.396 7.83 3.49 7.95
5/19/2022 8:00:00 PM 15.83 60.494 0.41 7.81 3.54 7.99
5/19/2022 8:15:00 PM 16.5 61.7 0.388 7.88 3.58 8.3
5/19/2022 8:30:00 PM 15.92 60.656 0.405 7.84 3.49 7.88
5/19/2022 8:45:00 PM 15.88 60.584 0.398 7.8 3.69 7.81
5/19/2022 9:00:00 PM 15.98 60.764 0.391 7.81 4.06 7.82
5/19/2022 9:15:00 PM 15.95 60.71 0.387 7.78 4.29 7.62
5/19/2022 9:30:00 PM 15.88 60.584 0.393 7.76 4.26 7.6
5/19/2022 9:45:00 PM 15.92 60.656 0.393 7.76 4.16 7.32
5/19/2022 10:00:00 PM 15.58 60.044 0.387 7.73 4.21 7.24
5/19/2022 10:15:00 PM 15.7 60.26 0.401 7.71 4.21 7.06
5/19/2022 10:30:00 PM 15.22 59.396 0.402 7.69 4.19 7.17
5/19/2022 10:45:00 PM 15.69 60.242 0.388 7.73 4.39 7.2
5/19/2022 11:00:00 PM 15.63 60.134 0.391 7.74 4.11 7.18
5/19/2022 11:15:00 PM 15.17 59.306 0.398 7.7 4.45 6.97
5/19/2022 11:30:00 PM 14.72 58.496 0.414 7.64 4.3 5.95
5/19/2022 11:45:00 PM 15.01 59.018 0.398 7.68 3.86 6.76
5/20/2022 12:00:00 AM 15.48 59.864 0.39 7.71 4.39 7.14
5/20/2022 12:15:00 AM 15.04 59.072 0.394 7.67 4.45 6.59
5/20/2022 12:30:00 AM 15 59 0.389 7.7 4.35 6.98
5/20/2022 12:45:00 AM 14.98 58.964 0.39 7.68 4.24 6.96
5/20/2022 1:00:00 AM 14.85 58.73 0.387 7.66 4.64 6.8
5/20/2022 1:15:00 AM 14.88 58.784 0.392 7.66 4.41 6.77
5/20/2022 1:30:00 AM 14.97 58.946 0.382 7.67 4.54 7.06
5/20/2022 1:45:00 AM 14.64 58.352 0.383 7.65 4.28 6.73
5/20/2022 2:00:00 AM 14.42 57.956 0.391 7.65 4.62 6.67
5/20/2022 2:15:00 AM 14.84 58.712 0.38 7.69 4.66 7.13
5/20/2022 2:30:00 AM 14.37 57.866 0.392 7.65 4.71 6.91
5/20/2022 2:45:00 AM 14.42 57.956 0.386 7.65 4.58 6.9
5/20/2022 3:00:00 AM 14.5 58.1 0.379 7.65 4.64 7.03
5/20/2022 3:15:00 AM 14.2 57.56 0.392 7.63 4.34 6.85
5/20/2022 3:30:00 AM 14.12 57.416 0.389 7.64 4.36 6.65
5/20/2022 3:45:00 AM 13.97 57.146 0.393 7.62 4.84 6.85
5/20/2022 4:00:00 AM 14.06 57.308 0.388 7.66 6.09 7.15
5/20/2022 4:15:00 AM 14.07 57.326 0.384 7.64 4.76 7.01
5/20/2022 4:30:00 AM 14.01 57.218 0.378 7.63 4.91 6.94
5/20/2022 4:45:00 AM 13.48 56.264 0.399 7.59 4.55 6.26
5/20/2022 5:00:00 AM 13.87 56.966 0.381 7.62 5.11 7.09
5/20/2022 5:15:00 AM 13.79 56.822 0.373 7.6 4.99 7.03
5/20/2022 5:30:00 AM 13.44 56.192 0.392 7.56 5.21 6.32
5/20/2022 5:45:00 AM 13.3 55.94 0.398 7.58 5.41 6.48
5/20/2022 6:00:00 AM 13.62 56.516 0.388 7.61 9.46 7.04
5/20/2022 6:15:00 AM 13.63 56.534 0.377 7.63 5.75 7.35
5/20/2022 6:30:00 AM 13.14 55.652 0.411 7.63 5.44 7.16
5/20/2022 6:45:00 AM 13.28 55.904 0.396 7.57 6.15 6.9
5/20/2022 7:00:00 AM 13.25 55.85 0.407 7.6 4.56 7.03
5/20/2022 7:15:00 AM 13.12 55.616 0.399 7.59 4.54 6.87
5/20/2022 7:30:00 AM 13.46 56.228 0.382 7.63 5.28 7.47
5/20/2022 7:45:00 AM 13.44 56.192 0.387 7.64 4.43 7.53
5/20/2022 8:00:00 AM 13.28 55.904 0.4 7.63 6.32 7.52
5/20/2022 8:15:00 AM 13.37 56.066 0.39 7.65 4.65 7.47
5/20/2022 8:30:00 AM 13.3 55.94 0.39 7.65 3.82 7.35
5/20/2022 8:45:00 AM 13.39 56.102 0.391 7.65 5.7 7.67
5/20/2022 9:00:00 AM 13.44 56.192 0.407 7.64 3.97 7.69
5/20/2022 9:15:00 AM 13.74 56.732 0.385 7.67 3.74 7.89
5/20/2022 9:30:00 AM 13.56 56.408 0.402 7.68 3.72 7.83
5/20/2022 9:45:00 AM 13.86 56.948 0.396 7.71 3.52 8.37
5/20/2022 10:00:00 AM 13.88 56.984 0.39 7.74 3.54 8.09
5/20/2022 10:15:00 AM 13.61 56.498 0.403 7.69 3.76 7.76
5/20/2022 10:30:00 AM 14.05 57.29 0.387 7.74 3.64 8.44
5/20/2022 10:45:00 AM 14.2 57.56 0.383 7.76 3.47 8.7
5/20/2022 11:00:00 AM 14.21 57.578 0.391 7.76 3.44 8.88
5/20/2022 11:15:00 AM 14.61 58.298 0.376 7.8 3.48 8.95
5/20/2022 11:30:00 AM 14.49 58.082 0.386 7.79 3.46 9.03
5/20/2022 11:45:00 AM 14.74 58.532 0.382 7.83 3.59 9.13
5/20/2022 12:00:00 PM 14.62 58.316 0.384 7.78 3.5 9.2
5/20/2022 12:15:00 PM 14.59 58.262 0.385 7.8 3.56 8.97
5/20/2022 12:30:00 PM 14.59 58.262 0.389 7.81 3.49 8.94
5/20/2022 12:45:00 PM 14.9 58.82 0.383 7.84 3.68 9.42
5/20/2022 1:00:00 PM 14.95 58.91 0.38 7.83 3.52 9.31
5/20/2022 1:15:00 PM 15.09 59.162 0.384 7.87 3.53 9.4
5/20/2022 1:30:00 PM 15.68 60.224 0.376 7.89 3.62 9.67
5/20/2022 1:45:00 PM 15.71 60.278 0.382 7.86 3.33 9.37
5/20/2022 2:00:00 PM 15.87 60.566 0.383 7.86 3.56 8.98
5/20/2022 2:15:00 PM 15.92 60.656 0.383 7.86 3.62 9.22
5/20/2022 2:30:00 PM 16.01 60.818 0.377 7.86 3.36 9.04
5/20/2022 2:45:00 PM 15.83 60.494 0.391 7.76 3.21 8.4
5/20/2022 3:00:00 PM 16.18 61.124 0.386 7.88 3.34 9.33
5/20/2022 3:15:00 PM 16.48 61.664 0.384 7.92 3.31 10.02
5/20/2022 3:30:00 PM 16.8 62.24 0.38 7.91 3.59 9.35
5/20/2022 3:45:00 PM 16.94 62.492 0.382 7.91 3.42 9.45
5/20/2022 4:00:00 PM 16.78 62.204 0.384 7.87 3.48 8.96
5/20/2022 4:15:00 PM 16.79 62.222 0.394 7.89 3.29 9.61
5/20/2022 4:30:00 PM 17.07 62.726 0.384 7.88 3.43 9.2
5/20/2022 4:45:00 PM 16.95 62.51 0.386 7.91 3.41 9.17
5/20/2022 5:00:00 PM 17.22 62.996 0.386 7.95 3.24 9.43
5/20/2022 5:15:00 PM 17.07 62.726 0.393 7.85 3.04 8.54
5/20/2022 5:30:00 PM 17.12 62.816 0.387 7.87 3.14 8.23
5/20/2022 5:45:00 PM 17.23 63.014 0.384 7.9 3.21 8.8
5/20/2022 6:00:00 PM 17.06 62.708 0.394 7.89 3.54 8.3
5/20/2022 6:15:00 PM 17.37 63.266 0.388 7.81 3.32 8
5/20/2022 6:30:00 PM 17.27 63.086 0.389 7.9 3.16 8.41
5/20/2022 6:45:00 PM 17.31 63.158 0.383 7.89 3.34 8.53
5/20/2022 7:00:00 PM 17.53 63.554 0.384 7.87 3.37 8.34
5/20/2022 7:15:00 PM 17.4 63.32 0.385 7.85 3.53 8.12
5/20/2022 7:30:00 PM 17.23 63.014 0.392 7.83 3.17 8.04
5/20/2022 7:45:00 PM 17.11 62.798 0.393 7.83 3.47 7.77
5/20/2022 8:00:00 PM 17.38 63.284 0.39 7.82 3.41 7.98
5/20/2022 8:15:00 PM 17.36 63.248 0.386 7.81 3.57 7.51
5/20/2022 8:30:00 PM 17.06 62.708 0.396 7.78 3.61 7.35
5/20/2022 8:45:00 PM 17.14 62.852 0.393 7.76 3.71 7.14
5/20/2022 9:00:00 PM 17.37 63.266 0.387 7.76 3.74 7.24
5/20/2022 9:15:00 PM 16.91 62.438 0.398 7.75 3.85 7.03
5/20/2022 9:30:00 PM 17.34 63.212 0.389 7.74 3.85 6.96
5/20/2022 9:45:00 PM 17.17 62.906 0.392 7.74 3.99 7.06
5/20/2022 10:00:00 PM 17.11 62.798 0.391 7.73 3.86 6.96
5/20/2022 10:15:00 PM 17.15 62.87 0.393 7.74 3.91 7.03
5/20/2022 10:30:00 PM 17.26 63.068 0.387 7.71 3.94 6.73
5/20/2022 10:45:00 PM 17.13 62.834 0.389 7.68 3.9 6.67
5/20/2022 11:00:00 PM 16.75 62.15 0.399 7.67 3.92 6.34
5/20/2022 11:15:00 PM 16.71 62.078 0.401 7.67 4.17 6.23
5/20/2022 11:30:00 PM 16.2 61.16 0.404 7.63 3.87 6.39
5/20/2022 11:45:00 PM 16.43 61.574 0.403 7.66 4.03 6.29
5/21/2022 12:00:00 AM 16.36 61.448 0.399 7.63 3.95 5.89
5/21/2022 12:15:00 AM 16.17 61.106 0.409 7.66 3.89 6.1
5/21/2022 12:30:00 AM 16.49 61.682 0.401 7.65 3.95 6.36
5/21/2022 12:45:00 AM 16.74 62.132 0.392 7.67 3.99 6.39
5/21/2022 1:00:00 AM 16.06 60.908 0.407 7.59 4.63 5.97
5/21/2022 1:15:00 AM 16.23 61.214 0.401 7.63 4.1 6.09
5/21/2022 1:30:00 AM 15.97 60.746 0.409 7.63 4.34 5.78
5/21/2022 1:45:00 AM 16.17 61.106 0.399 7.66 4.05 6.41
5/21/2022 2:00:00 AM 15.96 60.728 0.406 7.63 4.19 6.01
5/21/2022 2:15:00 AM 15.64 60.152 0.407 7.55 3.82 5.8
5/21/2022 2:30:00 AM 16.39 61.502 0.392 7.65 4.16 6.45
5/21/2022 2:45:00 AM 16.17 61.106 0.395 7.65 4.32 6.43
5/21/2022 3:00:00 AM 16.14 61.052 0.393 7.63 4.04 6.07
5/21/2022 3:15:00 AM 16.1 60.98 0.393 7.61 4.12 6.09
5/21/2022 3:30:00 AM 16.25 61.25 0.39 7.63 4.97 6.49
5/21/2022 3:45:00 AM 16.02 60.836 0.394 7.63 4.3 6.34
5/21/2022 4:00:00 AM 15.82 60.476 0.399 7.63 4.65 6.19
5/21/2022 4:15:00 AM 16.04 60.872 0.391 7.64 3.96 6.46
5/21/2022 4:30:00 AM 15.36 59.648 0.409 7.57 4.37 5.72
5/21/2022 4:45:00 AM 15.64 60.152 0.398 7.6 4.53 6.02
5/21/2022 5:00:00 AM 15.59 60.062 0.398 7.6 4.55 6.15
5/21/2022 5:15:00 AM 15.51 59.918 0.402 7.61 4.46 6.35
5/21/2022 5:30:00 AM 15.52 59.936 0.397 7.61 4.31 6.37
5/21/2022 5:45:00 AM 15.64 60.152 0.392 7.6 4.58 6.35
5/21/2022 6:00:00 AM 15.69 60.242 0.394 7.61 4.46 6.58
5/21/2022 6:15:00 AM 15.18 59.324 0.404 7.56 4.37 6.02
5/21/2022 6:30:00 AM 15.6 60.08 0.395 7.61 4.19 6.38
5/21/2022 6:45:00 AM 15.56 60.008 0.395 7.61 4.2 6.49
5/21/2022 7:00:00 AM 15.45 59.81 0.395 7.61 4.21 6.47
5/21/2022 7:15:00 AM 15.53 59.954 0.398 7.6 3.67 6.62
5/21/2022 7:30:00 AM 15.65 60.17 0.39 7.63 4.05 6.75
5/21/2022 7:45:00 AM 15.55 59.99 0.391 7.63 4.17 6.97
5/21/2022 8:00:00 AM 15.54 59.972 0.394 7.65 4.05 7.13
5/21/2022 8:15:00 AM 15.64 60.152 0.389 7.64 3.92 6.97
5/21/2022 8:30:00 AM 15.68 60.224 0.389 7.64 3.63 7.03
5/21/2022 8:45:00 AM 15.67 60.206 0.393 7.68 3.81 7.44
5/21/2022 9:00:00 AM 15.73 60.314 0.398 7.67 3.73 7.39
5/21/2022 9:15:00 AM 16.08 60.944 0.385 7.68 3.63 7.76
5/21/2022 9:30:00 AM 15.79 60.422 0.393 7.66 3.96 7.07
5/21/2022 9:45:00 AM 15.91 60.638 0.399 7.72 3.8 7.77
5/21/2022 10:00:00 AM 15.54 59.972 0.417 7.7 3.5 7.73
5/21/2022 10:15:00 AM 16.46 61.628 0.39 7.7 3.59 7.5
5/21/2022 10:30:00 AM 16.55 61.79 0.394 7.74 4.34 8.27
5/21/2022 10:45:00 AM 16.67 62.006 0.394 7.7 6.4 7.94
5/21/2022 11:00:00 AM 16.84 62.312 0.39 7.73 5.56 7.8
5/21/2022 11:15:00 AM 16.97 62.546 0.395 7.77 3.47 8.64
5/21/2022 11:30:00 AM 17.26 63.068 0.395 7.78 3.15 8.58
5/21/2022 11:45:00 AM 17.42 63.356 0.394 7.77 3.18 8.33
5/21/2022 12:00:00 PM 17.65 63.77 0.394 7.8 3.18 8.78
5/21/2022 12:15:00 PM 17.82 64.076 0.391 7.77 3.11 8.63
5/21/2022 12:30:00 PM 18.17 64.706 0.387 7.79 3.53 8.41
5/21/2022 12:45:00 PM 18.27 64.886 0.393 7.78 3.63 8.66
5/21/2022 1:00:00 PM 18.81 65.858 0.388 7.83 8.74 9.31
5/21/2022 1:15:00 PM 19.05 66.29 0.385 7.86 3.4 9.13
5/21/2022 1:30:00 PM 19.22 66.596 0.387 7.88 4.51 9.4
5/21/2022 1:45:00 PM 19.22 66.596 0.388 7.86 3.55 8.79
5/21/2022 2:00:00 PM 19.03 66.254 0.394 7.86 4.47 9.01
5/21/2022 2:15:00 PM 19.69 67.442 0.388 7.9 3.6 9.38
5/21/2022 2:30:00 PM 19.73 67.514 0.391 7.91 4.08 9.79
5/21/2022 2:45:00 PM 20.19 68.342 0.385 7.94 4.35 9.84
5/21/2022 3:00:00 PM 20.1 68.18 0.401 7.95 4.28 9.57
5/21/2022 3:15:00 PM 20.28 68.504 0.404 7.87 3.74 8.72
5/21/2022 3:30:00 PM 19.98 67.964 0.412 7.96 3.99 9.89
5/21/2022 3:45:00 PM 20.61 69.098 0.397 7.94 5.47 9.04
5/21/2022 4:00:00 PM 20.72 69.296 0.399 7.92 5.43 8.84
5/21/2022 4:15:00 PM 20.75 69.35 0.399 7.93 4.57 9.06
5/21/2022 4:30:00 PM 20.31 68.558 0.408 7.89 3.22 8.36
5/21/2022 4:45:00 PM 20.67 69.206 0.4 7.94 3.06 9.01
5/21/2022 5:00:00 PM 20.96 69.728 0.401 7.91 3.32 8.56
5/21/2022 5:15:00 PM 20.95 69.71 0.399 7.92 3.18 8.79
5/21/2022 5:30:00 PM 20.9 69.62 0.4 7.89 3.33 8.39
5/21/2022 5:45:00 PM 20.91 69.638 0.403 7.89 3.24 8.46
5/21/2022 6:00:00 PM 20.81 69.458 0.405 7.88 3.42 8.22
5/21/2022 6:15:00 PM 20.92 69.656 0.4 7.86 3.69 7.91
5/21/2022 6:30:00 PM 21 69.8 0.396 7.86 3.37 8.16
5/21/2022 6:45:00 PM 20.55 68.99 0.405 7.82 3.34 7.38
5/21/2022 7:00:00 PM 20.88 69.584 0.402 7.83 3.31 7.69
5/21/2022 7:15:00 PM 20.6 69.08 0.402 7.79 3.33 7.33
5/21/2022 7:30:00 PM 20.7 69.26 0.402 7.77 4.01 7.01
5/21/2022 7:45:00 PM 20.95 69.71 0.397 7.81 3.34 7.4
5/21/2022 8:00:00 PM 20.07 68.126 0.412 7.76 3.67 6.63
5/21/2022 8:15:00 PM 20.61 69.098 0.401 7.76 3.66 6.78
5/21/2022 8:30:00 PM 20.74 69.332 0.398 7.74 3.77 6.87
5/21/2022 8:45:00 PM 20.31 68.558 0.403 7.73 3.81 6.3
5/21/2022 9:00:00 PM 20.36 68.648 0.402 7.69 3.71 6.18
5/21/2022 9:15:00 PM 20.49 68.882 0.4 7.71 3.91 6.37
5/21/2022 9:30:00 PM 20.18 68.324 0.401 7.72 4.27 6.24
5/21/2022 9:45:00 PM 19.89 67.802 0.403 7.69 4.03 6.15
5/21/2022 10:00:00 PM 19.81 67.658 0.405 7.67 4.06 5.93
5/21/2022 10:15:00 PM 19.69 67.442 0.405 7.65 4.5 5.81
5/21/2022 10:30:00 PM 19.86 67.748 0.404 7.66 4.24 5.99
5/21/2022 10:45:00 PM 19.45 67.01 0.406 7.63 4.41 5.5
5/21/2022 11:00:00 PM 19.4 66.92 0.4 7.64 4.72 5.88
5/21/2022 11:15:00 PM 19.36 66.848 0.4 7.63 4.48 5.58
5/21/2022 11:30:00 PM 19.17 66.506 0.402 7.64 4.4 5.79
5/21/2022 11:45:00 PM 19.1 66.38 0.397 7.62 4.5 5.6
5/22/2022 12:00:00 AM 18.92 66.056 0.399 7.63 4.4 5.69
5/22/2022 12:15:00 AM 19.1 66.38 0.401 7.65 4.4 5.76
5/22/2022 12:30:00 AM 18.6 65.48 0.406 7.61 4.27 5.73
5/22/2022 12:45:00 AM 18.96 66.128 0.401 7.61 4.38 5.51
5/22/2022 1:00:00 AM 19.02 66.236 0.395 7.63 4.51 5.67
5/22/2022 1:15:00 AM 18.84 65.912 0.398 7.64 4.46 5.79
5/22/2022 1:30:00 AM 18.54 65.372 0.4 7.63 4.56 5.67
5/22/2022 1:45:00 AM 18.88 65.984 0.394 7.58 4.77 5.54
5/22/2022 2:00:00 AM 18.52 65.336 0.399 7.63 4.98 5.71
5/22/2022 2:15:00 AM 18.25 64.85 0.404 7.62 4.48 5.76
5/22/2022 2:30:00 AM 18.39 65.102 0.4 7.6 4.42 5.47
5/22/2022 2:45:00 AM 18.37 65.066 0.399 7.6 4.48 5.65
5/22/2022 3:00:00 AM 18.15 64.67 0.405 7.61 4.65 5.47
5/22/2022 3:15:00 AM 18.32 64.976 0.394 7.6 4.77 5.7
5/22/2022 3:30:00 AM 18.52 65.336 0.389 7.61 4.76 5.76
5/22/2022 3:45:00 AM 17.69 63.842 0.403 7.57 5.37 5.14
5/22/2022 4:00:00 AM 17.98 64.364 0.397 7.56 4.77 5.67
5/22/2022 4:15:00 AM 17.94 64.292 0.393 7.61 4.69 5.88
5/22/2022 4:30:00 AM 17.64 63.752 0.403 7.59 4.57 5.67
5/22/2022 4:45:00 AM 17.64 63.752 0.396 7.58 5.69 5.29
5/22/2022 5:00:00 AM 17.56 63.608 0.395 7.6 4.59 5.81
5/22/2022 5:15:00 AM 17.48 63.464 0.402 7.6 4.94 5.9
5/22/2022 5:30:00 AM 16.96 62.528 0.408 7.56 4.87 5.27
5/22/2022 5:45:00 AM 17.4 63.32 0.395 7.56 7.97 5.67
5/22/2022 6:00:00 AM 17 62.6 0.402 7.56 6.87 5.4
5/22/2022 6:15:00 AM 16.93 62.474 0.409 7.56 4.9 5.7
5/22/2022 6:30:00 AM 17.17 62.906 0.461 7.58 5.2 6.06
5/22/2022 6:45:00 AM 17.14 62.852 0.375 7.59 4.88 5.81
5/22/2022 7:00:00 AM 17.33 63.194 0.434 7.6 4.61 6.16
5/22/2022 7:15:00 AM 17.16 62.888 0.508 7.61 4.31 6.14
5/22/2022 7:30:00 AM 17.23 63.014 0.453 7.62 4.88 6.46
5/22/2022 7:45:00 AM 16.83 62.294 0.406 7.47 6.13 6.05
5/22/2022 8:00:00 AM 17.37 63.266 0.389 7.42 5.17 6.15
5/22/2022 8:15:00 AM 16.51 61.718 0.355 7.59 4.29 6.19
5/22/2022 8:30:00 AM 17.1 62.78 0.391 7.56 5.02 6.12
5/22/2022 8:45:00 AM 17.05 62.69 0.397 7.53 4.96 6.1
5/22/2022 9:00:00 AM 16.86 62.348 0.403 7.52 6.77 6.2
5/22/2022 9:15:00 AM 17.23 63.014 0.39 7.58 6.26 7.09
5/22/2022 9:30:00 AM 17.2 62.96 0.39 7.64 4.67 6.95
5/22/2022 9:45:00 AM 16.91 62.438 0.393 7.61 3.96 6.76
5/22/2022 10:00:00 AM 17.31 63.158 0.388 7.67 3.86 7.47
5/22/2022 10:15:00 AM 17.1 62.78 0.396 7.66 3.81 7.1
5/22/2022 10:30:00 AM 17.21 62.978 0.394 7.67 3.55 7.11
5/22/2022 10:45:00 AM 17.69 63.842 0.386 7.71 3.88 7.47
5/22/2022 11:00:00 AM 17.23 63.014 0.4 7.71 3.56 7.55
5/22/2022 11:15:00 AM 17.52 63.536 0.392 7.71 3.51 7.85
5/22/2022 11:30:00 AM 17.84 64.112 0.386 7.73 3.61 8.08
5/22/2022 11:45:00 AM 17.81 64.058 0.4 7.73 3.62 8.04
5/22/2022 12:00:00 PM 18.32 64.976 0.384 7.73 3.76 8.1
5/22/2022 12:15:00 PM 18.25 64.85 0.397 7.76 3.63 8.44
5/22/2022 12:30:00 PM 18.52 65.336 0.39 7.76 3.56 8.33
5/22/2022 12:45:00 PM 18.58 65.444 0.394 7.76 3.6 8.28
5/22/2022 1:00:00 PM 18.81 65.858 0.387 7.76 3.86 8.48
5/22/2022 1:15:00 PM 18.96 66.128 0.388 7.76 3.62 8.33
5/22/2022 1:30:00 PM 19.2 66.56 0.386 7.81 3.62 8.89
5/22/2022 1:45:00 PM 19.2 66.56 0.39 7.87 3.43 8.94
5/22/2022 2:00:00 PM 19.47 67.046 0.388 7.84 3.45 8.78
5/22/2022 2:15:00 PM 19.48 67.064 0.391 7.82 3.6 8.44
5/22/2022 2:30:00 PM 19.19 66.542 0.402 7.8 3.36 8.43
5/22/2022 2:45:00 PM 19.75 67.55 0.388 7.85 4.28 8.54
5/22/2022 3:00:00 PM 19.04 66.272 0.4 7.76 3.75 8.14
5/22/2022 3:15:00 PM 19.36 66.848 0.393 7.76 3.86 7.97
5/22/2022 3:30:00 PM 19.39 66.902 0.4 7.77 3.72 7.85
5/22/2022 3:45:00 PM 19.91 67.838 0.391 7.85 3.82 8.58
5/22/2022 4:00:00 PM 20.04 68.07201 0.392 7.84 3.79 8.39
5/22/2022 4:15:00 PM 20.02 68.036 0.395 7.8 3.42 8.2
5/22/2022 4:30:00 PM 20.27 68.486 0.391 7.85 3.61 8.45
5/22/2022 4:45:00 PM 19.44 66.992 0.404 7.76 3.72 7.66
5/22/2022 5:00:00 PM 19.87 67.766 0.391 7.79 4.53 7.79
5/22/2022 5:15:00 PM 19.53 67.154 0.394 7.76 4.94 7.49
5/22/2022 5:30:00 PM 19.06 66.308 0.396 7.71 5.24 7.16
5/22/2022 5:45:00 PM 19.26 66.668 0.398 7.7 4.4 7.11
5/22/2022 6:00:00 PM 19.41 66.938 0.395 7.75 4.8 7.38
5/22/2022 6:15:00 PM 19.25 66.65 0.4 7.73 3.67 6.96
5/22/2022 6:30:00 PM 19.18 66.524 0.401 7.72 4.2 6.81
5/22/2022 6:45:00 PM 19.08 66.344 0.397 7.69 4.03 6.67
5/22/2022 7:00:00 PM 19.18 66.524 0.396 7.72 4.09 6.74
5/22/2022 7:15:00 PM 18.5 65.3 0.405 7.66 3.79 6.5
5/22/2022 7:30:00 PM 18.92 66.056 0.403 7.71 3.79 6.62
5/22/2022 7:45:00 PM 18.58 65.444 0.405 7.63 3.83 6.28
5/22/2022 8:00:00 PM 18.16 64.688 0.407 7.64 3.91 6.06
5/22/2022 8:15:00 PM 18.38 65.084 0.402 7.63 3.95 6.03
5/22/2022 8:30:00 PM 18.67 65.606 0.397 7.65 4.19 6.23
5/22/2022 8:45:00 PM 17.87 64.166 0.407 7.61 3.87 6.06
5/22/2022 9:00:00 PM 17.85 64.13 0.413 7.62 4.16 5.79
5/22/2022 9:15:00 PM 17.96 64.328 0.403 7.63 4.54 5.91
5/22/2022 9:30:00 PM 17.91 64.238 0.405 7.58 4.51 5.65
5/22/2022 9:45:00 PM 17.77 63.986 0.408 7.63 4.63 5.93
5/22/2022 10:00:00 PM 18.12 64.616 0.4 7.64 4.52 6.15
5/22/2022 10:15:00 PM 17.72 63.896 0.408 7.59 4.76 5.64
5/22/2022 10:30:00 PM 17.57 63.626 0.405 7.57 4.31 5.29
5/22/2022 10:45:00 PM 18 64.4 0.396 7.64 4.52 6.14
5/22/2022 11:00:00 PM 17.24 63.032 0.409 7.58 4.64 5.5
5/22/2022 11:15:00 PM 17.16 62.888 0.409 7.58 4.77 5.53
5/22/2022 11:30:00 PM 17.11 62.798 0.412 7.58 4.95 5.62
5/22/2022 11:45:00 PM 16.82 62.276 0.415 7.58 4.97 5.84
5/23/2022 12:00:00 AM 16.99 62.582 0.406 7.59 4.73 5.95
5/23/2022 12:15:00 AM 17.1 62.78 0.402 7.6 4.84 5.91
5/23/2022 12:30:00 AM 16.8 62.24 0.408 7.61 5.04 6.08
5/23/2022 12:45:00 AM 16.39 61.502 0.412 7.57 4.66 5.47
5/23/2022 1:00:00 AM 16.2 61.16 0.417 7.55 4.85 5.04
5/23/2022 1:15:00 AM 16.21 61.178 0.426 7.59 4.68 5.85
5/23/2022 1:30:00 AM 16.45 61.61 0.4 7.59 5.48 5.87
5/23/2022 1:45:00 AM 16.26 61.268 0.405 7.6 5.3 6
5/23/2022 2:00:00 AM 15.82 60.476 0.412 7.56 4.45 5.64
5/23/2022 2:15:00 AM 15.98 60.764 0.408 7.55 4.55 5.73
5/23/2022 2:30:00 AM 15.9 60.62 0.409 7.59 4.9 5.89
5/23/2022 2:45:00 AM 16.22 61.196 0.4 7.62 4.99 6.33
5/23/2022 3:00:00 AM 15.86 60.548 0.406 7.59 4.63 6.01
5/23/2022 3:15:00 AM 15.64 60.152 0.408 7.61 4.98 6.12
5/23/2022 3:30:00 AM 15.22 59.396 0.426 7.59 4.58 6.35
5/23/2022 3:45:00 AM 15.29 59.522 0.408 7.59 5.08 5.94
5/23/2022 4:00:00 AM 15.35 59.63 0.407 7.57 4.9 6.06
5/23/2022 4:15:00 AM 14.97 58.946 0.416 7.56 5.61 5.71
5/23/2022 4:30:00 AM 14.92 58.856 0.416 7.57 5.69 5.88
5/23/2022 4:45:00 AM 14.66 58.388 0.414 7.51 5.24 5.36
5/23/2022 5:00:00 AM 15.29 59.522 0.399 7.62 7.15 6.49
5/23/2022 5:15:00 AM 15.02 59.036 0.409 7.57 5.57 5.93
5/23/2022 5:30:00 AM 15.02 59.036 0.399 7.57 5.66 6.19
5/23/2022 5:45:00 AM 14.24 57.632 0.425 7.57 6.77 6.47
5/23/2022 6:00:00 AM 14.59 58.262 0.415 7.59 5.77 6.44
5/23/2022 6:15:00 AM 14.24 57.632 0.419 7.52 4.94 5.8
5/23/2022 6:30:00 AM 14.64 58.352 0.402 7.61 7.71 6.5
5/23/2022 6:45:00 AM 14.07 57.326 0.413 7.53 5.51 6.1
5/23/2022 7:00:00 AM 14.45 58.01 0.405 7.58 5.36 6.41
5/23/2022 7:15:00 AM 14.38 57.884 0.405 7.6 4.77 6.52
5/23/2022 7:30:00 AM 14.13 57.434 0.414 7.53 5.45 5.72
5/23/2022 7:45:00 AM 13.52 56.336 0.446 7.51 4.75 6.48
5/23/2022 8:00:00 AM 13.98 57.164 0.416 7.55 4.52 6.09
5/23/2022 8:15:00 AM 14.01 57.218 0.405 7.52 3.8 6.13
5/23/2022 8:30:00 AM 14.27 57.686 0.397 7.53 4.38 6.29
5/23/2022 8:45:00 AM 13.81 56.858 0.42 7.52 4.05 6.26
5/23/2022 9:00:00 AM 14.13 57.434 0.409 7.57 3.56 6
5/23/2022 9:15:00 AM 13.97 57.146 0.427 7.59 3.98 7.01
5/23/2022 9:30:00 AM 13.75 56.75 0.409 7.47 3.76 5.85
5/23/2022 9:45:00 AM 14.29 57.722 0.425 7.62 3.92 7.09
5/23/2022 10:00:00 AM 14.25 57.65 0.406 7.53 3.82 6.76
5/23/2022 10:15:00 AM 14.02 57.236 0.425 7.59 3.85 7.25
5/23/2022 10:30:00 AM 14.08 57.344 0.417 7.59 3.8 6.9
5/23/2022 10:45:00 AM 14.27 57.686 0.418 7.63 3.7 7.17
5/23/2022 11:00:00 AM 14.58 58.244 0.416 7.63 3.7 7.51
5/23/2022 11:15:00 AM 14.81 58.658 0.411 7.7 3.79 8.32
5/23/2022 11:30:00 AM 15.1 59.18 0.412 7.69 3.76 8.3
5/23/2022 11:45:00 AM 15.16 59.288 0.412 7.75 4.51 8.57
5/23/2022 12:00:00 PM 15.06 59.108 0.414 7.69 3.51 8.05
5/23/2022 12:15:00 PM 15.92 60.656 0.404 7.77 3.85 8.93
5/23/2022 12:30:00 PM 16 60.8 0.401 7.73 3.77 8.28
5/23/2022 12:45:00 PM 15.88 60.584 0.412 7.74 3.31 8.75
5/23/2022 1:00:00 PM 16.06 60.908 0.409 7.77 3.7 8.74
5/23/2022 1:15:00 PM 15.97 60.746 0.409 7.7 3.35 8.49
5/23/2022 1:30:00 PM 16.24 61.232 0.405 7.71 3.41 8.75
5/23/2022 1:45:00 PM 16.2 61.16 0.412 7.77 3.25 8.15
5/23/2022 2:00:00 PM 16.56 61.808 0.404 7.68 3.24 8.33
5/23/2022 2:15:00 PM 16.21 61.178 0.414 7.78 3.35 8.12
5/23/2022 2:30:00 PM 16.35 61.43 0.416 7.76 3.49 8.93
5/23/2022 2:45:00 PM 16.53 61.754 0.408 7.73 3.52 8.55
5/23/2022 3:00:00 PM 16.28 61.304 0.415 7.72 3.09 8.38
5/23/2022 3:15:00 PM 16.4 61.52 0.418 7.78 3.47 8.32
5/23/2022 3:30:00 PM 16.55 61.79 0.407 7.77 3.45 8.53
5/23/2022 3:45:00 PM 16.29 61.322 0.416 7.71 3.12 7.98
5/23/2022 4:00:00 PM 16.12 61.016 0.425 7.68 3 7.95
5/23/2022 4:15:00 PM 16.73 62.114 0.408 7.87 3.64 9.29
5/23/2022 4:30:00 PM 16.37 61.466 0.417 7.67 3.39 7.77
5/23/2022 4:45:00 PM 16.47 61.646 0.408 7.69 3.72 7.92
5/23/2022 5:00:00 PM 16.19 61.142 0.417 7.77 3.27 8.26
5/23/2022 5:15:00 PM 16.15 61.07 0.419 7.77 3.28 8.21
5/23/2022 5:30:00 PM 16.73 62.114 0.404 7.8 3.36 8.21
5/23/2022 5:45:00 PM 16.79 62.222 0.401 7.81 3.45 8.37
5/23/2022 6:00:00 PM 16.45 61.61 0.421 7.84 3.49 8.06
5/23/2022 6:15:00 PM 16.02 60.836 0.419 7.74 3.45 7.44
5/23/2022 6:30:00 PM 16.53 61.754 0.412 7.79 3.34 8.18
5/23/2022 6:45:00 PM 16.65 61.97 0.407 7.86 3.56 8.35
5/23/2022 7:00:00 PM 16.25 61.25 0.417 7.72 3.47 7.51
5/23/2022 7:15:00 PM 16.07 60.926 0.417 7.71 3.49 7.54
5/23/2022 7:30:00 PM 16.59 61.862 0.406 7.76 3.68 7.67
5/23/2022 7:45:00 PM 16.4 61.52 0.402 7.73 3.66 7.18
5/23/2022 8:00:00 PM 16.41 61.538 0.404 7.74 3.66 6.99
5/23/2022 8:15:00 PM 16.26 61.268 0.409 7.71 3.71 7.22
5/23/2022 8:30:00 PM 16.5 61.7 0.406 7.73 4.04 7.33
5/23/2022 8:45:00 PM 15.86 60.548 0.413 7.66 3.77 6.68
5/23/2022 9:00:00 PM 16.26 61.268 0.409 7.76 3.85 7.22
5/23/2022 9:15:00 PM 16.02 60.836 0.411 7.7 4.22 6.96
5/23/2022 9:30:00 PM 15.92 60.656 0.41 7.71 4.49 6.91
5/23/2022 9:45:00 PM 16.21 61.178 0.402 7.69 4.38 6.68
5/23/2022 10:00:00 PM 15.75 60.35 0.412 7.66 4.32 6.61
5/23/2022 10:15:00 PM 15.45 59.81 0.417 7.71 4.46 6.76
5/23/2022 10:30:00 PM 15.7 60.26 0.408 7.67 4.69 6.79
5/23/2022 10:45:00 PM 15.29 59.522 0.422 7.64 5.04 6.37
5/23/2022 11:00:00 PM 14.99 58.982 0.419 7.58 4.42 5.59
5/23/2022 11:15:00 PM 15.36 59.648 0.413 7.66 4.61 6.56
5/23/2022 11:30:00 PM 15.12 59.216 0.413 7.66 4.55 6.55
5/23/2022 11:45:00 PM 14.56 58.208 0.425 7.59 4.23 6.27
5/24/2022 12:00:00 AM 14.65 58.37 0.429 7.6 4.36 6.08
5/24/2022 12:15:00 AM 14.93 58.874 0.411 7.62 4.69 6.41
5/24/2022 12:30:00 AM 14.68 58.424 0.417 7.6 4.68 6.21
5/24/2022 12:45:00 AM 14.76 58.568 0.411 7.58 4.32 6.19
5/24/2022 1:00:00 AM 14.63 58.334 0.414 7.61 4.59 6.09
5/24/2022 1:15:00 AM 14.26 57.668 0.417 7.58 4.33 6.21
5/24/2022 1:30:00 AM 14.08 57.344 0.433 7.57 4.57 5.99
5/24/2022 1:45:00 AM 14.58 58.244 0.406 7.64 4.44 6.63
5/24/2022 2:00:00 AM 14.41 57.938 0.408 7.64 4.62 6.68
5/24/2022 2:15:00 AM 14.16 57.488 0.427 7.59 4.68 6.18
5/24/2022 2:30:00 AM 14.26 57.668 0.415 7.64 4.35 6.68
5/24/2022 2:45:00 AM 13.76 56.768 0.43 7.56 4.74 6.25
5/24/2022 3:00:00 AM 13.55 56.39 0.424 7.58 4.63 6.39
5/24/2022 3:15:00 AM 13.87 56.966 0.423 7.62 4.41 6.62
5/24/2022 3:30:00 AM 13.9 57.02 0.416 7.59 4.21 6.31
5/24/2022 3:45:00 AM 13.45 56.21 0.431 7.6 4.35 6.58
5/24/2022 4:00:00 AM 13.5 56.3 0.421 7.56 4.53 6.1
5/24/2022 4:15:00 AM 13.76 56.768 0.41 7.64 4.85 6.86
5/24/2022 4:30:00 AM 13.73 56.714 0.407 7.62 5.4 6.65
5/24/2022 4:45:00 AM 13.69 56.642 0.409 7.61 4.82 6.51
5/24/2022 5:00:00 AM 13.62 56.516 0.41 7.63 4.93 6.75
5/24/2022 5:15:00 AM 13.09 55.562 0.431 7.55 4.75 5.94
5/24/2022 5:30:00 AM 13.13 55.634 0.428 7.58 4.55 6.39
5/24/2022 5:45:00 AM 13.46 56.228 0.407 7.63 4.98 6.86
5/24/2022 6:00:00 AM 13.21 55.778 0.416 7.57 4.19 6.18
5/24/2022 6:15:00 AM 13.17 55.706 0.414 7.6 5.07 6.33
5/24/2022 6:30:00 AM 13.25 55.85 0.411 7.6 5.27 6.41
5/24/2022 6:45:00 AM 13.14 55.652 0.413 7.6 4.77 6.52
5/24/2022 7:00:00 AM 13.04 55.472 0.411 7.6 4.47 6.64
5/24/2022 7:15:00 AM 13.07 55.526 0.421 7.59 4.64 6.73
5/24/2022 7:30:00 AM 13.15 55.67 0.407 7.64 4.52 7.04
5/24/2022 7:45:00 AM 12.99 55.382 0.418 7.62 4.79 6.8
5/24/2022 8:00:00 AM 13.12 55.616 0.411 7.61 4.39 7.06
5/24/2022 8:15:00 AM 13.02 55.436 0.409 7.63 4.21 7.13
5/24/2022 8:30:00 AM 13.21 55.778 0.407 7.66 4.07 7.48
5/24/2022 8:45:00 AM 13.18 55.724 0.409 7.62 3.69 7.17
5/24/2022 9:00:00 AM 13.09 55.562 0.413 7.61 3.56 6.89
5/24/2022 9:15:00 AM 13.36 56.048 0.408 7.63 3.75 7.4
5/24/2022 9:30:00 AM 13.51 56.318 0.407 7.68 3.89 7.79
5/24/2022 9:45:00 AM 13.72 56.696 0.402 7.68 3.94 7.91
5/24/2022 10:00:00 AM 13.52 56.336 0.412 7.63 4.57 7.75
5/24/2022 10:15:00 AM 13.6 56.48 0.417 7.7 3.85 7.78
5/24/2022 10:30:00 AM 13.66 56.588 0.422 7.67 3.33 7.69
5/24/2022 10:45:00 AM 13.82 56.876 0.411 7.72 3.66 8.13
5/24/2022 11:00:00 AM 13.85 56.93 0.427 7.7 3.61 8.16
5/24/2022 11:15:00 AM 14.49 58.082 0.394 7.74 3.88 8.54
5/24/2022 11:30:00 AM 14.12 57.416 0.414 7.72 4.35 8.61
5/24/2022 11:45:00 AM 14.57 58.226 0.402 7.78 3.66 9.07
5/24/2022 12:00:00 PM 14.18 57.524 0.413 7.7 3.6 8.24
5/24/2022 12:15:00 PM 14.42 57.956 0.416 7.62 3.4 8.02
5/24/2022 12:30:00 PM 14.9 58.82 0.403 7.76 3.72 8.87
5/24/2022 12:45:00 PM 14.81 58.658 0.41 7.73 3.87 8.37
5/24/2022 1:00:00 PM 15.35 59.63 0.398 7.77 4.71 9.24
5/24/2022 1:15:00 PM 15.36 59.648 0.402 7.76 3.45 8.73
5/24/2022 1:30:00 PM 15.61 60.098 0.394 7.79 3.43 9.06
5/24/2022 1:45:00 PM 15.72 60.296 0.397 7.86 3.71 9.58
5/24/2022 2:00:00 PM 15.91 60.638 0.393 7.86 3.63 9.5
5/24/2022 2:15:00 PM 15.77 60.386 0.398 7.81 3.36 9.21
5/24/2022 2:30:00 PM 15.89 60.602 0.393 7.77 3.5 9.1
5/24/2022 2:45:00 PM 16.35 61.43 0.39 7.89 3.73 9.67
5/24/2022 3:00:00 PM 16 60.8 0.403 7.83 3.24 8.82
5/24/2022 3:15:00 PM 15.7 60.26 0.409 7.74 3.28 8.64
5/24/2022 3:30:00 PM 16.52 61.736 0.392 7.85 3.39 8.75
5/24/2022 3:45:00 PM 16.32 61.376 0.395 7.78 3.43 8.66
5/24/2022 4:00:00 PM 16.05 60.89 0.405 7.74 3.41 8.7
5/24/2022 4:15:00 PM 16.09 60.962 0.402 7.78 3.47 7.92
5/24/2022 4:30:00 PM 16.23 61.214 0.405 7.82 3.79 8.97
5/24/2022 4:45:00 PM 16.4 61.52 0.396 7.83 3.73 8.95
5/24/2022 5:00:00 PM 16.45 61.61 0.4 7.84 3.76 8.88
5/24/2022 5:15:00 PM 16.2 61.16 0.407 7.83 3.57 8.89
5/24/2022 5:30:00 PM 16.38 61.484 0.403 7.82 3.64 8.82
5/24/2022 5:45:00 PM 16.7 62.06 0.398 7.84 4.99 8.92
5/24/2022 6:00:00 PM 16.46 61.628 0.4 7.84 3.45 8.56
5/24/2022 6:15:00 PM 16.3 61.34 0.407 7.77 3.59 7.73
5/24/2022 6:30:00 PM 16.74 62.132 0.399 7.86 3.31 8.62
5/24/2022 6:45:00 PM 16.55 61.79 0.401 7.83 3.7 8.47
5/24/2022 7:00:00 PM 16.34 61.412 0.407 7.74 3.79 7.78
5/24/2022 7:15:00 PM 16.25 61.25 0.41 7.75 3.76 7.8
5/24/2022 7:30:00 PM 16.28 61.304 0.406 7.8 3.79 8
5/24/2022 7:45:00 PM 16.17 61.106 0.405 7.76 3.92 7.66
5/24/2022 8:00:00 PM 16.37 61.466 0.405 7.77 4.16 7.55
5/24/2022 8:15:00 PM 16.35 61.43 0.402 7.76 3.88 7.62
5/24/2022 8:30:00 PM 16.07 60.926 0.407 7.67 3.91 6.82
5/24/2022 8:45:00 PM 16.03 60.854 0.412 7.74 4.43 7.05
5/24/2022 9:00:00 PM 16.17 61.106 0.406 7.72 4.18 7.2
5/24/2022 9:15:00 PM 15.76 60.368 0.415 7.66 4.42 6.61
5/24/2022 9:30:00 PM 16.07 60.926 0.405 7.72 4.87 6.96
5/24/2022 9:45:00 PM 15.88 60.584 0.407 7.67 4.8 6.69
5/24/2022 10:00:00 PM 15.6 60.08 0.417 7.61 4.73 6.39
5/24/2022 10:15:00 PM 15.72 60.296 0.406 7.65 4.94 6.38
5/24/2022 10:30:00 PM 15.96 60.728 0.401 7.66 4.71 6.62
5/24/2022 10:45:00 PM 16.05 60.89 0.402 7.68 4.65 6.76
5/24/2022 11:00:00 PM 15.74 60.332 0.41 7.64 3.95 6.53
5/24/2022 11:15:00 PM 15.34 59.612 0.423 7.56 3.92 6.01
5/24/2022 11:30:00 PM 15.41 59.738 0.412 7.61 4.31 6.28
5/24/2022 11:45:00 PM 15.27 59.486 0.416 7.59 4.68 6.28
5/25/2022 12:00:00 AM 15.47 59.846 0.41 7.66 4.65 6.72
5/25/2022 12:15:00 AM 15.41 59.738 0.412 7.63 4.54 6.55
5/25/2022 12:30:00 AM 15.36 59.648 0.41 7.63 4.42 6.4
5/25/2022 12:45:00 AM 14.84 58.712 0.421 7.58 4.13 6.09
5/25/2022 1:00:00 AM 15.11 59.198 0.422 7.57 4.4 6.19
5/25/2022 1:15:00 AM 14.72 58.496 0.427 7.53 4.36 5.61
5/25/2022 1:30:00 AM 14.81 58.658 0.424 7.57 4.12 6.01
5/25/2022 1:45:00 AM 14.99 58.982 0.414 7.61 4.52 6.33
5/25/2022 2:00:00 AM 14.58 58.244 0.422 7.56 4.26 5.8
5/25/2022 2:15:00 AM 15.07 59.126 0.41 7.61 4.21 6.32
5/25/2022 2:30:00 AM 14.92 58.856 0.414 7.58 4.61 6.25
5/25/2022 2:45:00 AM 14.8 58.64 0.413 7.61 4.6 6.3
5/25/2022 3:00:00 AM 14.82 58.676 0.414 7.58 4.36 6.24
5/25/2022 3:15:00 AM 14.2 57.56 0.431 7.54 4.42 6.01
5/25/2022 3:30:00 AM 14.92 58.856 0.406 7.62 4.28 6.58
5/25/2022 3:45:00 AM 14.53 58.154 0.418 7.57 4.68 5.97
5/25/2022 4:00:00 AM 14.59 58.262 0.417 7.57 4.3 6.06
5/25/2022 4:15:00 AM 14.44 57.992 0.417 7.57 4.38 6.34
5/25/2022 4:30:00 AM 14.64 58.352 0.409 7.59 4.84 6.32
5/25/2022 4:45:00 AM 14.68 58.424 0.407 7.61 5.01 6.31
5/25/2022 5:00:00 AM 14.73 58.514 0.403 7.59 5.4 6.36
5/25/2022 5:15:00 AM 14.28 57.704 0.42 7.58 5.23 6.25
5/25/2022 5:30:00 AM 14.28 57.704 0.418 7.56 5.05 6.04
5/25/2022 5:45:00 AM 13.98 57.164 0.424 7.53 6.17 5.65
5/25/2022 6:00:00 AM 14.13 57.434 0.418 7.57 5.88 5.85
5/25/2022 6:15:00 AM 13.83 56.894 0.43 7.56 5.66 6.22
5/25/2022 6:30:00 AM 14.24 57.632 0.406 7.56 5.21 6.27
5/25/2022 6:45:00 AM 14.49 58.082 0.402 7.63 4.73 6.85
5/25/2022 7:00:00 AM 14.3 57.74 0.415 7.56 4.59 6.34
5/25/2022 7:15:00 AM 14.09 57.362 0.417 7.52 4.2 5.64
5/25/2022 7:30:00 AM 14.44 57.992 0.403 7.61 4.99 6.7
5/25/2022 7:45:00 AM 14.22 57.596 0.401 7.55 4.94 6.49
5/25/2022 8:00:00 AM 14.23 57.614 0.407 7.55 4.51 6.44
5/25/2022 8:15:00 AM 14.02 57.236 0.414 7.53 4.79 6.24
5/25/2022 8:30:00 AM 14 57.2 0.427 7.52 4.1 6.1
5/25/2022 8:45:00 AM 13.94 57.092 0.418 7.54 4.18 6.18
5/25/2022 9:00:00 AM 14.54 58.172 0.404 7.6 4.45 6.53
5/25/2022 9:15:00 AM 14.25 57.65 0.414 7.6 3.89 6.92
5/25/2022 9:30:00 AM 14.22 57.596 0.412 7.61 3.89 7.12
5/25/2022 9:45:00 AM 14.59 58.262 0.407 7.59 3.94 7.23
5/25/2022 10:00:00 AM 14.52 58.136 0.401 7.64 3.74 7.51
5/25/2022 10:15:00 AM 14.87 58.766 0.406 7.62 3.69 7.53
5/25/2022 10:30:00 AM 15.01 59.018 0.413 7.67 3.54 7.88
5/25/2022 10:45:00 AM 15.45 59.81 0.394 7.73 3.88 8.53
5/25/2022 11:00:00 AM 15.19 59.342 0.402 7.66 3.48 7.78
5/25/2022 11:15:00 AM 15.27 59.486 0.409 7.67 3.58 7.99
5/25/2022 11:30:00 AM 15.96 60.728 0.395 7.78 3.76 8.92
5/25/2022 11:45:00 AM 15.98 60.764 0.397 7.72 3.68 8.16
5/25/2022 12:00:00 PM 16.17 61.106 0.399 7.75 3.58 8.71
5/25/2022 12:15:00 PM 16.04 60.872 0.406 7.72 3.49 8.36
5/25/2022 12:30:00 PM 16.46 61.628 0.402 7.78 3.68 8.59
5/25/2022 12:45:00 PM 16.79 62.222 0.395 7.78 3.61 8.77
5/25/2022 1:00:00 PM 16.98 62.564 0.399 7.76 4.01 8.66
5/25/2022 1:15:00 PM 17.03 62.654 0.401 7.75 3.62 8.6
5/25/2022 1:30:00 PM 17.39 63.302 0.398 7.78 3.47 9.08
5/25/2022 1:45:00 PM 17.5 63.5 0.401 7.84 3.42 9.4
5/25/2022 2:00:00 PM 17.96 64.328 0.396 7.89 3.3 9.66
5/25/2022 2:15:00 PM 17.84 64.112 0.398 7.85 3.8 9.21
5/25/2022 2:30:00 PM 18.02 64.436 0.399 7.83 3.33 9.38
5/25/2022 2:45:00 PM 18.33 64.994 0.393 7.9 3.58 9.85
5/25/2022 3:00:00 PM 18.21 64.778 0.397 7.88 3.7 9.37
5/25/2022 3:15:00 PM 18.44 65.192 0.394 7.9 3.67 9.54
5/25/2022 3:30:00 PM 18.09 64.562 0.404 7.82 3.6 8.54
5/25/2022 3:45:00 PM 18.51 65.318 0.399 7.86 3.48 9.24
5/25/2022 4:00:00 PM 18.91 66.038 0.395 7.9 3.62 9.47
5/25/2022 4:15:00 PM 18.59 65.462 0.402 7.82 3.44 8.86
5/25/2022 4:30:00 PM 18.89 66.002 0.402 7.87 3.73 8.93
5/25/2022 4:45:00 PM 18.9 66.02 0.399 7.87 3.99 9.36
5/25/2022 5:00:00 PM 18.91 66.038 0.401 7.88 3.45 9
5/25/2022 5:15:00 PM 19.03 66.254 0.395 7.89 3.67 8.77
5/25/2022 5:30:00 PM 18.81 65.858 0.405 7.88 3.69 8.81
5/25/2022 5:45:00 PM 18.92 66.056 0.399 7.87 3.78 8.94
5/25/2022 6:00:00 PM 19.13 66.434 0.396 7.89 3.81 8.99
5/25/2022 6:15:00 PM 19.06 66.308 0.396 7.91 3.69 8.82
5/25/2022 6:30:00 PM 18.62 65.516 0.403 7.8 3.82 8.27
5/25/2022 6:45:00 PM 18.8 65.84 0.399 7.82 3.64 8.41
5/25/2022 7:00:00 PM 18.66 65.588 0.399 7.8 3.82 7.6
5/25/2022 7:15:00 PM 18.63 65.534 0.401 7.85 3.55 7.92
5/25/2022 7:30:00 PM 18.8 65.84 0.397 7.82 3.77 7.95
5/25/2022 7:45:00 PM 18.6 65.48 0.403 7.8 3.6 7.75
5/25/2022 8:00:00 PM 18.46 65.228 0.401 7.82 3.78 7.65
5/25/2022 8:15:00 PM 18.74 65.732 0.397 7.82 3.52 7.73
5/25/2022 8:30:00 PM 18.63 65.534 0.399 7.79 3.68 7.58
5/25/2022 8:45:00 PM 18.2 64.76 0.404 7.73 3.83 7.04
5/25/2022 9:00:00 PM 18.17 64.706 0.404 7.72 3.97 6.9
5/25/2022 9:15:00 PM 17.65 63.77 0.414 7.68 4.05 6.57
5/25/2022 9:30:00 PM 17.96 64.328 0.405 7.71 3.86 6.72
5/25/2022 9:45:00 PM 17.95 64.31 0.406 7.68 4.45 6.64
5/25/2022 10:00:00 PM 17.59 63.662 0.413 7.7 4.22 6.54
5/25/2022 10:15:00 PM 17.48 63.464 0.41 7.67 4.38 6.33
5/25/2022 10:30:00 PM 17.68 63.824 0.411 7.68 4.05 6.38
5/25/2022 10:45:00 PM 17.38 63.284 0.411 7.61 4.01 5.99
5/25/2022 11:00:00 PM 17.57 63.626 0.408 7.67 4.2 6.41
5/25/2022 11:15:00 PM 17.45 63.41 0.409 7.66 4.2 6.27
5/25/2022 11:30:00 PM 17.38 63.284 0.408 7.63 3.91 6.28
5/25/2022 11:45:00 PM 17.19 62.942 0.414 7.61 4.59 5.85
5/26/2022 12:00:00 AM 16.96 62.528 0.414 7.6 4.47 5.84
5/26/2022 12:15:00 AM 16.86 62.348 0.413 7.6 4.29 6.01
5/26/2022 12:30:00 AM 16.67 62.006 0.421 7.62 4.66 6.08
5/26/2022 12:45:00 AM 16.59 61.862 0.414 7.61 4.67 5.87
5/26/2022 1:00:00 AM 16.84 62.312 0.412 7.62 4.48 6.05
5/26/2022 1:15:00 AM 16.56 61.808 0.418 7.63 5.1 5.91
5/26/2022 1:30:00 AM 16.57 61.826 0.415 7.63 4.55 6.08
5/26/2022 1:45:00 AM 16.33 61.394 0.422 7.6 4.63 5.71
5/26/2022 2:00:00 AM 16.48 61.664 0.412 7.63 4.63 5.99
5/26/2022 2:15:00 AM 16.14 61.052 0.42 7.58 4.49 5.68
5/26/2022 2:30:00 AM 16.2 61.16 0.42 7.6 4.64 5.87
5/26/2022 2:45:00 AM 16.12 61.016 0.415 7.57 4.71 5.8
5/26/2022 3:00:00 AM 16.07 60.926 0.421 7.62 4.68 6.12
5/26/2022 3:15:00 AM 16.15 61.07 0.416 7.62 4.87 6.09
5/26/2022 3:30:00 AM 16.2 61.16 0.414 7.62 4.82 6.18
5/26/2022 3:45:00 AM 15.98 60.764 0.414 7.59 4.6 5.9
5/26/2022 4:00:00 AM 16.06 60.908 0.414 7.62 4.79 6.31
5/26/2022 4:15:00 AM 15.84 60.512 0.414 7.59 4.8 5.96
5/26/2022 4:30:00 AM 15.71 60.278 0.419 7.61 4.7 5.86
5/26/2022 4:45:00 AM 15.76 60.368 0.415 7.6 4.91 6.04
5/26/2022 5:00:00 AM 15.49 59.882 0.418 7.59 5.2 6.06
5/26/2022 5:15:00 AM 15.59 60.062 0.414 7.6 5.18 6.08
5/26/2022 5:30:00 AM 15.41 59.738 0.42 7.62 5.52 6.29
5/26/2022 5:45:00 AM 15.29 59.522 0.415 7.6 5.64 6.03
5/26/2022 6:00:00 AM 15.21 59.378 0.414 7.58 5.53 5.87
5/26/2022 6:15:00 AM 15.15 59.27 0.415 7.58 5.19 6.12
5/26/2022 6:30:00 AM 15.15 59.27 0.417 7.59 4.82 6.15
5/26/2022 6:45:00 AM 15.13 59.234 0.409 7.58 5.6 6.14
5/26/2022 7:00:00 AM 14.88 58.784 0.421 7.58 6.68 5.99
5/26/2022 7:15:00 AM 15.03 59.054 0.41 7.61 4.81 6.42
5/26/2022 7:30:00 AM 14.89 58.802 0.411 7.6 4.69 6.37
5/26/2022 7:45:00 AM 14.8 58.64 0.408 7.57 4.88 6.25
5/26/2022 8:00:00 AM 14.94 58.892 0.407 7.61 5.11 6.45
5/26/2022 8:15:00 AM 14.88 58.784 0.405 7.61 4.59 6.62
5/26/2022 8:30:00 AM 14.8 58.64 0.41 7.55 4.24 6
5/26/2022 8:45:00 AM 14.87 58.766 0.407 7.58 4.21 6.68
5/26/2022 9:00:00 AM 14.99 58.982 0.405 7.61 4.68 7.06
5/26/2022 9:15:00 AM 15.08 59.144 0.401 7.62 4.12 7.13
5/26/2022 9:30:00 AM 15.38 59.684 0.398 7.65 3.93 7.3
5/26/2022 9:45:00 AM 15.17 59.306 0.402 7.61 4.03 7.41
5/26/2022 10:00:00 AM 15.35 59.63 0.399 7.66 4.15 7.53
5/26/2022 10:15:00 AM 15.51 59.918 0.401 7.71 6.86 7.77
5/26/2022 10:30:00 AM 15.38 59.684 0.403 7.63 3.77 7.01
5/26/2022 10:45:00 AM 15.68 60.224 0.398 7.66 6.23 7.9
5/26/2022 11:00:00 AM 15.93 60.674 0.395 7.68 3.95 8.02
5/26/2022 11:15:00 AM 15.87 60.566 0.402 7.68 3.45 7.81
5/26/2022 11:30:00 AM 15.99 60.782 0.404 7.71 3.68 7.81
5/26/2022 11:45:00 AM 16.07 60.926 0.404 7.69 3.34 8.04
5/26/2022 12:00:00 PM 16.25 61.25 0.403 7.72 3.95 8.27
5/26/2022 12:15:00 PM 16.43 61.574 0.4 7.75 3.61 8
5/26/2022 12:30:00 PM 16.33 61.394 0.407 7.7 3.36 8.11
5/26/2022 12:45:00 PM 16.52 61.736 0.405 7.71 3.83 8.09
5/26/2022 1:00:00 PM 16.66 61.988 0.407 7.74 3.38 8.86
5/26/2022 1:15:00 PM 16.91 62.438 0.405 7.75 3.79 8.54
5/26/2022 1:30:00 PM 16.94 62.492 0.405 7.75 3.44 8.41
5/26/2022 1:45:00 PM 17.32 63.176 0.404 7.76 4.09 8.76
5/26/2022 2:00:00 PM 17.31 63.158 0.407 7.74 3.56 8.21
5/26/2022 2:15:00 PM 17.41 63.338 0.408 7.74 3.79 8.3
5/26/2022 2:30:00 PM 17.7 63.86 0.403 7.71 3.74 8.08
5/26/2022 2:45:00 PM 17.98 64.364 0.406 7.78 3.74 8.39
5/26/2022 3:00:00 PM 18.13 64.634 0.406 7.8 3.2 8.79
5/26/2022 3:15:00 PM 17.99 64.382 0.403 7.75 3.6 8.45
5/26/2022 3:30:00 PM 18.27 64.886 0.408 7.85 3.45 9.44
5/26/2022 3:45:00 PM 18.59 65.462 0.404 7.82 3.41 8.42
5/26/2022 4:00:00 PM 18.6 65.48 0.405 7.77 3.63 8.54
5/26/2022 4:15:00 PM 18.58 65.444 0.405 7.77 3.31 8.85
5/26/2022 4:30:00 PM 18.73 65.714 0.404 7.85 3.75 8.95
5/26/2022 4:45:00 PM 19.03 66.254 0.399 7.88 3.77 8.99
5/26/2022 5:00:00 PM 18.72 65.696 0.404 7.82 3.49 8.36
5/26/2022 5:15:00 PM 18.51 65.318 0.409 7.8 3.57 8.32
5/26/2022 5:30:00 PM 18.62 65.516 0.406 7.84 3.48 8.24
5/26/2022 5:45:00 PM 18.65 65.57 0.411 7.8 3.59 7.96
5/26/2022 6:00:00 PM 18.39 65.102 0.415 7.78 3.57 7.86
5/26/2022 6:15:00 PM 18.54 65.372 0.408 7.77 3.47 7.74
5/26/2022 6:30:00 PM 18.4 65.12 0.415 7.77 3.55 7.76
5/26/2022 6:45:00 PM 18.45 65.21 0.412 7.81 3.33 7.7
5/26/2022 7:00:00 PM 18.54 65.372 0.411 7.76 3.36 7.4
5/26/2022 7:15:00 PM 18.23 64.814 0.415 7.75 3.36 7.19
5/26/2022 7:30:00 PM 18.19 64.742 0.418 7.78 4.04 7.36
5/26/2022 7:45:00 PM 18.47 65.246 0.41 7.77 3.6 7.37
5/26/2022 8:00:00 PM 17.88 64.184 0.419 7.73 5.35 6.79
5/26/2022 8:15:00 PM 18.13 64.634 0.419 7.72 3.69 6.46
5/26/2022 8:30:00 PM 18.05 64.49 0.419 7.73 3.92 6.81
5/26/2022 8:45:00 PM 17.87 64.166 0.424 7.69 4.06 6.59
5/26/2022 9:00:00 PM 18.08 64.544 0.416 7.7 4.25 6.42
5/26/2022 9:15:00 PM 17.9 64.22 0.419 7.7 4.32 6.34
5/26/2022 9:30:00 PM 17.78 64.004 0.423 7.67 3.78 6.18
5/26/2022 9:45:00 PM 17.84 64.112 0.418 7.67 4.12 6.03
5/26/2022 10:00:00 PM 17.88 64.184 0.42 7.66 4.12 6.13
5/26/2022 10:15:00 PM 17.47 63.446 0.426 7.63 4.3 5.66
5/26/2022 10:30:00 PM 17.58 63.644 0.427 7.63 4.32 5.51
5/26/2022 10:45:00 PM 17.36 63.248 0.425 7.59 3.88 5.39
5/26/2022 11:00:00 PM 17.49 63.482 0.423 7.63 4.29 5.69
5/26/2022 11:15:00 PM 17.41 63.338 0.422 7.63 4.04 5.84
5/26/2022 11:30:00 PM 17.26 63.068 0.423 7.63 3.74 5.44
5/26/2022 11:45:00 PM 17.37 63.266 0.425 7.6 4.31 5.56
5/27/2022 12:00:00 AM 16.98 62.564 0.425 7.61 4.33 5.57
5/27/2022 12:15:00 AM 17.08 62.744 0.426 7.6 4.29 5.62
5/27/2022 12:30:00 AM 17.19 62.942 0.421 7.59 4.1 5.49
5/27/2022 12:45:00 AM 17.01 62.618 0.425 7.6 4.22 5.62
5/27/2022 1:00:00 AM 17.04 62.672 0.426 7.58 4.16 5.33
5/27/2022 1:15:00 AM 17.02 62.636 0.427 7.6 6.67 5.58
5/27/2022 1:30:00 AM 16.83 62.294 0.429 7.6 4.66 5.6
5/27/2022 1:45:00 AM 16.94 62.492 0.425 7.6 4.87 5.54
5/27/2022 2:00:00 AM 16.64 61.952 0.43 7.6 5.14 5.56
5/27/2022 2:15:00 AM 16.82 62.276 0.429 7.58 4.69 5.68
5/27/2022 2:30:00 AM 16.53 61.754 0.431 7.55 4.61 5.41
5/27/2022 2:45:00 AM 16.88 62.384 0.421 7.59 4.3 5.79
5/27/2022 3:00:00 AM 16.71 62.078 0.426 7.57 4.41 5.26
5/27/2022 3:15:00 AM 16.74 62.132 0.424 7.59 4.63 5.68
5/27/2022 3:30:00 AM 16.53 61.754 0.427 7.59 4.55 5.52
5/27/2022 3:45:00 AM 16.58 61.844 0.423 7.57 5.55 5.6
5/27/2022 4:00:00 AM 16.64 61.952 0.421 7.58 4.46 5.73
5/27/2022 4:15:00 AM 16.49 61.682 0.424 7.59 5.16 5.8
5/27/2022 4:30:00 AM 16.36 61.448 0.427 7.58 4.25 5.46
5/27/2022 4:45:00 AM 16.63 61.934 0.421 7.6 4.69 5.86
5/27/2022 5:00:00 AM 16.24 61.232 0.423 7.57 5.07 5.64
5/27/2022 5:15:00 AM 16.73 62.114 0.415 7.6 5 5.82
5/27/2022 5:30:00 AM 16.42 61.556 0.424 7.57 9.06 5.58
5/27/2022 5:45:00 AM 16.54 61.772 0.417 7.59 5.68 5.8
5/27/2022 6:00:00 AM 16.37 61.466 0.418 7.59 5.23 5.98
5/27/2022 6:15:00 AM 16.3 61.34 0.417 7.58 5.03 5.78
5/27/2022 6:30:00 AM 15.89 60.602 0.421 7.54 4.86 5.61
5/27/2022 6:45:00 AM 16.09 60.962 0.418 7.6 5.14 5.8
5/27/2022 7:00:00 AM 16.1 60.98 0.414 7.58 4.65 5.7
5/27/2022 7:15:00 AM 16.22 61.196 0.412 7.58 4.93 5.91
5/27/2022 7:30:00 AM 16.32 61.376 0.413 7.56 4.76 6.07
5/27/2022 7:45:00 AM 16.3 61.34 0.418 7.59 4.82 6.07
5/27/2022 8:00:00 AM 16.24 61.232 0.413 7.61 4.74 6.1
5/27/2022 8:15:00 AM 16.24 61.232 0.41 7.59 4.61 6.01
5/27/2022 8:30:00 AM 16.32 61.376 0.409 7.59 4.57 6.13
5/27/2022 8:45:00 AM 16.14 61.052 0.411 7.59 4.34 6.14
5/27/2022 9:00:00 AM 16.2 61.16 0.413 7.58 4.13 6.17
5/27/2022 9:15:00 AM 16.41 61.538 0.406 7.61 4.32 6.44
5/27/2022 9:30:00 AM 16.27 61.286 0.41 7.62 3.95 5.82
5/27/2022 9:45:00 AM 16.59 61.862 0.405 7.63 3.72 6.76
5/27/2022 10:00:00 AM 16.43 61.574 0.407 7.65 4.27 6.81
5/27/2022 10:15:00 AM 16.52 61.736 0.406 7.63 3.99 6.59
5/27/2022 10:30:00 AM 16.48 61.664 0.404 7.58 3.46 6.5
5/27/2022 10:45:00 AM 16.41 61.538 0.411 7.62 4.01 6.69
5/27/2022 11:00:00 AM 16.51 61.718 0.405 7.64 3.89 6.87
5/27/2022 11:15:00 AM 16.45 61.61 0.409 7.62 3.74 6.89
5/27/2022 11:30:00 AM 16.59 61.862 0.408 7.63 3.54 6.76
5/27/2022 11:45:00 AM 16.84 62.312 0.404 7.67 3.98 7.28
5/27/2022 12:00:00 PM 16.81 62.258 0.406 7.69 3.67 7.48
5/27/2022 12:15:00 PM 16.74 62.132 0.406 7.66 3.8 7.11
5/27/2022 12:30:00 PM 16.97 62.546 0.404 7.71 4.01 7.47
5/27/2022 12:45:00 PM 16.94 62.492 0.409 7.72 3.57 7.62
5/27/2022 1:00:00 PM 16.92 62.456 0.407 7.69 3.76 7.41
5/27/2022 1:15:00 PM 16.93 62.474 0.41 7.72 3.94 7.72
5/27/2022 1:30:00 PM 17 62.6 0.41 7.74 4.23 7.68
5/27/2022 1:45:00 PM 17.36 63.248 0.405 7.75 3.85 8.08
5/27/2022 2:00:00 PM 17.29 63.122 0.407 7.75 3.7 8.05
5/27/2022 2:15:00 PM 16.72 62.096 0.417 7.7 3.96 7.3
5/27/2022 2:30:00 PM 16.49 61.682 0.424 7.64 4.16 7.05
5/27/2022 2:45:00 PM 16.63 61.934 0.422 7.69 3.65 7.17
5/27/2022 3:00:00 PM 16.37 61.466 0.423 7.62 4.13 6.61
5/27/2022 3:15:00 PM 16.51 61.718 0.428 7.65 3.72 6.68
5/27/2022 3:30:00 PM 16.37 61.466 0.426 7.67 3.64 7.06
5/27/2022 3:45:00 PM 16.6 61.88 0.425 7.67 3.59 7.19
5/27/2022 4:00:00 PM 16.45 61.61 0.425 7.66 3.57 7.09
5/27/2022 4:15:00 PM 17.12 62.816 0.414 7.73 3.76 7.8
5/27/2022 4:30:00 PM 17.09 62.762 0.416 7.78 3.85 7.64
5/27/2022 4:45:00 PM 17.19 62.942 0.413 7.76 3.63 7.85
5/27/2022 5:00:00 PM 17.2 62.96 0.417 7.74 3.63 7.08
5/27/2022 5:15:00 PM 16.89 62.402 0.418 7.7 3.88 7.01
5/27/2022 5:30:00 PM 17.26 63.068 0.416 7.76 3.66 7.88
5/27/2022 5:45:00 PM 17.37 63.266 0.413 7.78 3.47 7.99
5/27/2022 6:00:00 PM 17.1 62.78 0.419 7.76 3.81 7.79
5/27/2022 6:15:00 PM 17.41 63.338 0.416 7.75 3.67 7.77
5/27/2022 6:30:00 PM 17.09 62.762 0.423 7.77 3.77 7.76
5/27/2022 6:45:00 PM 17.34 63.212 0.414 7.73 3.7 7.67
5/27/2022 7:00:00 PM 17.41 63.338 0.414 7.74 4.89 7.8
5/27/2022 7:15:00 PM 17.18 62.924 0.42 7.77 3.66 7.58
5/27/2022 7:30:00 PM 17.34 63.212 0.421 7.75 4.16 7.25
5/27/2022 7:45:00 PM 17.04 62.672 0.423 7.68 3.88 6.69
5/27/2022 8:00:00 PM 16.84 62.312 0.424 7.66 4.03 6.51
5/27/2022 8:15:00 PM 16.81 62.258 0.418 7.67 4.58 6.61
5/27/2022 8:30:00 PM 16.66 61.988 0.428 7.63 4.19 6.4
5/27/2022 8:45:00 PM 17.03 62.654 0.418 7.7 4.54 6.92
5/27/2022 9:00:00 PM 17.19 62.942 0.417 7.7 4.76 6.81
5/27/2022 9:15:00 PM 17.3 63.14 0.414 7.7 5.02 6.69
5/27/2022 9:30:00 PM 17.27 63.086 0.411 7.71 5.62 6.84
5/27/2022 9:45:00 PM 16.78 62.204 0.418 7.66 5.37 6.44
5/27/2022 10:00:00 PM 16.94 62.492 0.414 7.66 5.12 6.34
5/27/2022 10:15:00 PM 16.86 62.348 0.414 7.65 4.82 6.52
5/27/2022 10:30:00 PM 16.71 62.078 0.416 7.63 4.69 6.28
5/27/2022 10:45:00 PM 16.24 61.232 0.429 7.6 5.19 6.17
5/27/2022 11:00:00 PM 16.65 61.97 0.414 7.63 4.78 6.21
5/27/2022 11:15:00 PM 16.53 61.754 0.42 7.65 5.1 6.3
5/27/2022 11:30:00 PM 16.71 62.078 0.414 7.65 4.83 6.24
5/27/2022 11:45:00 PM 16.53 61.754 0.421 7.64 4.77 6.12
5/28/2022 12:00:00 AM 16.75 62.15 0.413 7.63 5.34 6.27
5/28/2022 12:15:00 AM 16.94 62.492 0.408 7.66 5.19 6.37
5/28/2022 12:30:00 AM 16.64 61.952 0.414 7.64 5.67 6.25
5/28/2022 12:45:00 AM 16.64 61.952 0.411 7.6 5.64 6.09
5/28/2022 1:00:00 AM 16.45 61.61 0.412 7.59 6.19 5.88
5/28/2022 1:15:00 AM 16.44 61.592 0.409 7.58 6.19 5.97
5/28/2022 1:30:00 AM 16.69 62.042 0.41 7.63 6.24 6.22
5/28/2022 1:45:00 AM 16.26 61.268 0.418 7.59 5.83 5.85
5/28/2022 2:00:00 AM 16.7 62.06 0.405 7.63 5.95 6.18
5/28/2022 2:15:00 AM 16.37 61.466 0.41 7.6 5.36 6
5/28/2022 2:30:00 AM 16.45 61.61 0.408 7.6 5.46 6.04
5/28/2022 2:45:00 AM 16.1 60.98 0.418 7.59 6.02 6.09
5/28/2022 3:00:00 AM 16.45 61.61 0.406 7.61 5.53 6.15
5/28/2022 3:15:00 AM 16.3 61.34 0.411 7.59 6.14 5.95
5/28/2022 3:30:00 AM 16.02 60.836 0.41 7.59 5.09 6.1
5/28/2022 3:45:00 AM 16.11 60.998 0.415 7.61 5.98 6.31
5/28/2022 4:00:00 AM 16.2 61.16 0.41 7.63 6.17 6.41
5/28/2022 4:15:00 AM 16.5 61.7 0.397 7.64 6.1 6.43
5/28/2022 4:30:00 AM 16.07 60.926 0.407 7.58 5.73 6.01
5/28/2022 4:45:00 AM 16.22 61.196 0.403 7.62 6.04 6.39
5/28/2022 5:00:00 AM 16.25 61.25 0.397 7.63 6.34 6.43
5/28/2022 5:15:00 AM 15.97 60.746 0.401 7.62 6.58 6.51
5/28/2022 5:30:00 AM 16.27 61.286 0.391 7.62 6.03 6.45
5/28/2022 5:45:00 AM 16.09 60.962 0.392 7.62 6.07 6.51
5/28/2022 6:00:00 AM 16.27 61.286 0.393 7.63 6.55 6.46
5/28/2022 6:15:00 AM 16.24 61.232 0.386 7.61 6.77 6.35
5/28/2022 6:30:00 AM 15.86 60.548 0.395 7.62 8.45 6.58
5/28/2022 6:45:00 AM 16.25 61.25 0.385 7.63 6.97 6.57
5/28/2022 7:00:00 AM 15.86 60.548 0.391 7.63 7.17 6.7
5/28/2022 7:15:00 AM 15.92 60.656 0.387 7.63 6.85 6.53
5/28/2022 7:30:00 AM 16.29 61.322 0.38 7.66 7.03 6.84
5/28/2022 7:45:00 AM 16.2 61.16 0.379 7.66 6.62 6.95
5/28/2022 8:00:00 AM 16.23 61.214 0.378 7.65 6.28 6.97
5/28/2022 8:15:00 AM 16.41 61.538 0.374 7.66 6.41 7.08
5/28/2022 8:30:00 AM 16.35 61.43 0.373 7.66 6.34 7.05
5/28/2022 8:45:00 AM 16.44 61.592 0.372 7.67 6.51 7.27
5/28/2022 9:00:00 AM 16.49 61.682 0.373 7.69 6.49 7.3
5/28/2022 9:15:00 AM 16.6 61.88 0.363 7.7 6.39 7.55
5/28/2022 9:30:00 AM 16.56 61.808 0.369 7.72 6.46 7.66
5/28/2022 9:45:00 AM 16.6 61.88 0.366 7.72 6.37 7.47
5/28/2022 10:00:00 AM 16.63 61.934 0.362 7.71 6.92 7.62
5/28/2022 10:15:00 AM 16.62 61.916 0.364 7.73 6.4 7.76
5/28/2022 10:30:00 AM 16.65 61.97 0.363 7.75 6.39 7.89
5/28/2022 10:45:00 AM 16.7 62.06 0.358 7.76 6.43 7.94
5/28/2022 11:00:00 AM 16.73 62.114 0.355 7.75 6.28 7.84
5/28/2022 11:15:00 AM 16.75 62.15 0.348 7.75 6.44 7.9
5/28/2022 11:30:00 AM 16.45 61.61 0.362 7.75 6.27 7.85
5/28/2022 11:45:00 AM 16.73 62.114 0.346 7.76 6.59 8.02
5/28/2022 12:00:00 PM 16.75 62.15 0.342 7.75 6.16 7.99
5/28/2022 12:15:00 PM 16.91 62.438 0.335 7.78 6.31 8.2
5/28/2022 12:30:00 PM 16.93 62.474 0.334 7.79 5.83 8.32
5/28/2022 12:45:00 PM 16.56 61.808 0.348 7.79 6.23 8.33
5/28/2022 1:00:00 PM 16.86 62.348 0.337 7.78 6.11 8.35
5/28/2022 1:15:00 PM 16.87 62.366 0.333 7.8 5.81 8.39
5/28/2022 1:30:00 PM 16.6 61.88 0.337 7.77 5.85 8.46
5/28/2022 1:45:00 PM 16.76 62.168 0.333 7.8 5.88 8.44
5/28/2022 2:00:00 PM 16.97 62.546 0.327 7.83 5.7 8.7
5/28/2022 2:15:00 PM 17.06 62.708 0.331 7.83 5.69 8.82
5/28/2022 2:30:00 PM 16.83 62.294 0.336 7.81 5.67 8.64
5/28/2022 2:45:00 PM 17.05 62.69 0.33 7.84 5.56 8.84
5/28/2022 3:00:00 PM 17.25 63.05 0.323 7.86 5.74 8.93
5/28/2022 3:15:00 PM 17.13 62.834 0.326 7.84 5.84 8.87
5/28/2022 3:30:00 PM 17.17 62.906 0.321 7.85 5.72 8.88
5/28/2022 3:45:00 PM 17.1 62.78 0.326 7.86 5.88 8.93
5/28/2022 4:00:00 PM 17.27 63.086 0.323 7.87 5.77 9.01
5/28/2022 4:15:00 PM 16.93 62.474 0.334 7.83 6.15 8.64
5/28/2022 4:30:00 PM 17.07 62.726 0.327 7.85 6.01 8.82
5/28/2022 4:45:00 PM 17.04 62.672 0.333 7.84 5.64 8.83
5/28/2022 5:00:00 PM 17.18 62.924 0.329 7.86 5.67 8.73
5/28/2022 5:15:00 PM 17.2 62.96 0.33 7.85 5.49 8.79
5/28/2022 5:30:00 PM 17.12 62.816 0.33 7.85 5.6 8.77
5/28/2022 5:45:00 PM 17.14 62.852 0.329 7.86 5.34 8.88
5/28/2022 6:00:00 PM 17.2 62.96 0.331 7.86 5.48 8.81
5/28/2022 6:15:00 PM 17.29 63.122 0.327 7.85 5.35 8.72
5/28/2022 6:30:00 PM 17.26 63.068 0.333 7.85 5.57 8.62
5/28/2022 6:45:00 PM 17.15 62.87 0.338 7.83 5.48 8.57
5/28/2022 7:00:00 PM 17.24 63.032 0.33 7.84 5.37 8.53
5/28/2022 7:15:00 PM 17.03 62.654 0.335 7.81 5.59 8.5
5/28/2022 7:30:00 PM 17.08 62.744 0.35 7.82 5.53 8.33
5/28/2022 7:45:00 PM 17 62.6 0.339 7.8 6.02 8.16
5/28/2022 8:00:00 PM 17.03 62.654 0.336 7.8 5.73 8.06
5/28/2022 8:15:00 PM 17.04 62.672 0.335 7.79 5.51 8.01
5/28/2022 8:30:00 PM 17.16 62.888 0.333 7.79 5.83 7.95
5/28/2022 8:45:00 PM 17.07 62.726 0.336 7.77 5.92 7.87
5/28/2022 9:00:00 PM 16.99 62.582 0.338 7.75 6.2 7.74
5/28/2022 9:15:00 PM 17 62.6 0.336 7.76 6.48 7.66
5/28/2022 9:30:00 PM 16.86 62.348 0.336 7.73 8.41 7.63
5/28/2022 9:45:00 PM 16.92 62.456 0.335 7.72 7.24 7.49
5/28/2022 10:00:00 PM 16.85 62.33 0.338 7.73 7.18 7.47
5/28/2022 10:15:00 PM 16.77 62.186 0.336 7.71 7.05 7.4
5/28/2022 10:30:00 PM 16.73 62.114 0.336 7.71 7.64 7.34
5/28/2022 10:45:00 PM 16.66 61.988 0.338 7.7 7.15 7.23
5/28/2022 11:00:00 PM 16.57 61.826 0.338 7.69 7.23 7.29
5/28/2022 11:15:00 PM 16.58 61.844 0.336 7.68 7.66 7.24
5/28/2022 11:30:00 PM 16.53 61.754 0.337 7.66 7.57 7.18
5/28/2022 11:45:00 PM 16.48 61.664 0.336 7.68 7.58 7.18
5/29/2022 12:00:00 AM 16.4 61.52 0.336 7.65 7.57 7.12
5/29/2022 12:15:00 AM 16.42 61.556 0.335 7.67 7.03 7.16
5/29/2022 12:30:00 AM 16.37 61.466 0.335 7.67 7.06 7.14
5/29/2022 12:45:00 AM 16.32 61.376 0.335 7.66 7.46 7.11
5/29/2022 1:00:00 AM 16.25 61.25 0.337 7.65 7.64 7.1
5/29/2022 1:15:00 AM 16.18 61.124 0.338 7.64 7.31 7.03
5/29/2022 1:30:00 AM 16.14 61.052 0.337 7.65 7.67 7.03
5/29/2022 1:45:00 AM 16.12 61.016 0.337 7.65 8 7.05
5/29/2022 2:00:00 AM 16.06 60.908 0.336 7.64 8.01 7.05
5/29/2022 2:15:00 AM 15.94 60.692 0.339 7.64 7.5 7.03
5/29/2022 2:30:00 AM 15.94 60.692 0.338 7.64 8.06 7.06
5/29/2022 2:45:00 AM 15.83 60.494 0.339 7.63 7.95 7.01
5/29/2022 3:00:00 AM 15.8 60.44 0.336 7.63 8.39 7.03
5/29/2022 3:15:00 AM 15.7 60.26 0.339 7.63 8.16 7.06
5/29/2022 3:30:00 AM 15.62 60.116 0.339 7.63 8.35 7.05
5/29/2022 3:45:00 AM 15.59 60.062 0.338 7.62 8.23 7.05
5/29/2022 4:00:00 AM 15.49 59.882 0.341 7.63 8.09 6.97
5/29/2022 4:15:00 AM 15.38 59.684 0.341 7.61 8.05 6.95
5/29/2022 4:30:00 AM 15.4 59.72 0.342 7.62 9.64 6.92
5/29/2022 4:45:00 AM 15.36 59.648 0.339 7.63 8.62 7.11
5/29/2022 5:00:00 AM 15.21 59.378 0.347 7.58 8.41 6.93
5/29/2022 5:15:00 AM 15.28 59.504 0.34 7.63 8.17 7.14
5/29/2022 5:30:00 AM 15.22 59.396 0.343 7.63 7.94 7.11
5/29/2022 5:45:00 AM 15 59 0.349 7.62 11.42 7.18
5/29/2022 6:00:00 AM 14.99 58.982 0.353 7.62 8.51 7.12
5/29/2022 6:15:00 AM 14.97 58.946 0.345 7.63 7.99 7.18
5/29/2022 6:30:00 AM 14.93 58.874 0.347 7.62 7.95 7.17
5/29/2022 6:45:00 AM 14.89 58.802 0.347 7.6 7.86 7.19
5/29/2022 7:00:00 AM 14.92 58.856 0.345 7.63 7.29 7.24
5/29/2022 7:15:00 AM 14.67 58.406 0.352 7.64 6.82 7.38
5/29/2022 7:30:00 AM 14.81 58.658 0.349 7.64 7.07 7.42
5/29/2022 7:45:00 AM 14.8 58.64 0.347 7.64 7.01 7.36
5/29/2022 8:00:00 AM 14.63 58.334 0.348 7.65 7.32 7.51
5/29/2022 8:15:00 AM 14.73 58.514 0.348 7.64 6.57 7.61
5/29/2022 8:30:00 AM 14.77 58.586 0.349 7.66 6.7 7.64
5/29/2022 8:45:00 AM 14.84 58.712 0.349 7.67 6.29 7.8
5/29/2022 9:00:00 AM 14.84 58.712 0.347 7.69 6.38 7.94
5/29/2022 9:15:00 AM 14.84 58.712 0.352 7.7 6.37 8.08
5/29/2022 9:30:00 AM 14.91 58.838 0.359 7.69 5.81 8.09
5/29/2022 9:45:00 AM 15.13 59.234 0.347 7.72 5.53 8.34
5/29/2022 10:00:00 AM 15.21 59.378 0.351 7.73 5.96 8.5
5/29/2022 10:15:00 AM 15.27 59.486 0.351 7.74 5.49 8.49
5/29/2022 10:30:00 AM 15.26 59.468 0.358 7.75 5.57 8.71
5/29/2022 10:45:00 AM 15.49 59.882 0.361 7.74 5.45 8.65
5/29/2022 11:00:00 AM 15.53 59.954 0.362 7.73 5.23 8.48
5/29/2022 11:15:00 AM 16.08 60.944 0.349 7.78 5.29 8.93
5/29/2022 11:30:00 AM 16.19 61.142 0.351 7.79 5.36 9.05
5/29/2022 11:45:00 AM 16.1 60.98 0.354 7.77 5.28 8.85
5/29/2022 12:00:00 PM 16.4 61.52 0.356 7.8 5.98 9.07
5/29/2022 12:15:00 PM 16.66 61.988 0.35 7.82 5.35 9.1
5/29/2022 12:30:00 PM 16.8 62.24 0.351 7.84 5.31 9.19
5/29/2022 12:45:00 PM 17.09 62.762 0.349 7.85 5.03 9.37
5/29/2022 1:00:00 PM 17.21 62.978 0.353 7.85 4.98 9.38
5/29/2022 1:15:00 PM 17.42 63.356 0.35 7.86 5.27 9.51
5/29/2022 1:30:00 PM 17.72 63.896 0.352 7.88 4.96 9.48
5/29/2022 1:45:00 PM 17.67 63.806 0.347 7.87 5.21 9.44
5/29/2022 2:00:00 PM 17.72 63.896 0.349 7.89 5.04 9.44
5/29/2022 2:15:00 PM 17.72 63.896 0.352 7.89 5.15 9.3
5/29/2022 2:30:00 PM 17.94 64.292 0.349 7.88 4.89 9.38
5/29/2022 2:45:00 PM 18.11 64.598 0.348 7.9 5.14 9.51
5/29/2022 3:00:00 PM 18.34 65.012 0.348 7.91 5.08 9.42
5/29/2022 3:15:00 PM 18.67 65.606 0.346 7.9 5.01 9.56
5/29/2022 3:30:00 PM 18.8 65.84 0.349 7.93 5.08 9.52
5/29/2022 3:45:00 PM 19.04 66.272 0.349 7.94 5.62 9.55
5/29/2022 4:00:00 PM 19.19 66.542 0.352 7.93 4.91 9.49
5/29/2022 4:15:00 PM 19.38 66.884 0.348 7.96 4.59 9.56
5/29/2022 4:30:00 PM 19.5 67.1 0.352 7.93 4.93 9.25
5/29/2022 4:45:00 PM 19.76 67.568 0.35 7.96 4.61 9.27
5/29/2022 5:00:00 PM 19.94 67.892 0.352 7.93 4.77 9.12
5/29/2022 5:15:00 PM 20.03 68.054 0.352 7.92 5.31 9.14
5/29/2022 5:30:00 PM 20.18 68.324 0.351 7.95 4.9 9.09
5/29/2022 5:45:00 PM 19.86 67.748 0.356 7.92 5.79 8.92
5/29/2022 6:00:00 PM 19.66 67.388 0.363 7.86 5.11 8.5
5/29/2022 6:15:00 PM 20.02 68.036 0.362 7.89 5.09 8.38
5/29/2022 6:30:00 PM 20.2 68.36 0.357 7.89 5.24 8.4
5/29/2022 6:45:00 PM 20.15 68.27 0.357 7.88 5.01 8.18
5/29/2022 7:00:00 PM 20.09 68.162 0.359 7.85 4.98 7.92
5/29/2022 7:15:00 PM 19.75 67.55 0.366 7.86 5.09 7.73
5/29/2022 7:30:00 PM 20.1 68.18 0.358 7.86 5.04 7.77
5/29/2022 7:45:00 PM 19.72 67.496 0.362 7.81 5.08 7.59
5/29/2022 8:00:00 PM 19.91 67.838 0.361 7.83 4.92 7.47
5/29/2022 8:15:00 PM 19.34 66.812 0.37 7.79 4.89 7.38
5/29/2022 8:30:00 PM 19.62 67.316 0.362 7.79 4.98 7.19
5/29/2022 8:45:00 PM 19.62 67.316 0.364 7.76 5.28 7.07
5/29/2022 9:00:00 PM 19.46 67.028 0.363 7.74 5.75 6.97
5/29/2022 9:15:00 PM 19.51 67.118 0.361 7.75 5.49 6.94
5/29/2022 9:30:00 PM 19.29 66.722 0.366 7.71 6.15 6.76
5/29/2022 9:45:00 PM 18.84 65.912 0.373 7.71 5.79 6.41
5/29/2022 10:00:00 PM 19.18 66.524 0.364 7.72 5.73 6.63
5/29/2022 10:15:00 PM 18.84 65.912 0.367 7.7 5.73 6.59
5/29/2022 10:30:00 PM 18.57 65.426 0.371 7.67 5.81 6.28
5/29/2022 10:45:00 PM 18.54 65.372 0.373 7.66 6.09 6.3
5/29/2022 11:00:00 PM 18.66 65.588 0.368 7.67 5.7 6.37
5/29/2022 11:15:00 PM 18.32 64.976 0.371 7.66 5.61 6.27
5/29/2022 11:30:00 PM 18.41 65.138 0.37 7.66 5.85 6.2
5/29/2022 11:45:00 PM 18.43 65.174 0.368 7.67 5.84 6.3
5/30/2022 12:00:00 AM 18.12 64.616 0.377 7.63 5.98 6.09
5/30/2022 12:15:00 AM 18.14 64.652 0.372 7.64 6.18 6.2
5/30/2022 12:30:00 AM 18.11 64.598 0.372 7.64 5.69 6.22
5/30/2022 12:45:00 AM 17.89 64.202 0.375 7.63 5.51 6.17
5/30/2022 1:00:00 AM 17.94 64.292 0.372 7.64 5.75 6.22
5/30/2022 1:15:00 AM 17.72 63.896 0.376 7.62 6.07 6.01
5/30/2022 1:30:00 AM 17.76 63.968 0.373 7.63 5.67 6.15
5/30/2022 1:45:00 AM 17.64 63.752 0.374 7.63 5.77 6.19
5/30/2022 2:00:00 AM 17.56 63.608 0.374 7.64 6.06 6.31
5/30/2022 2:15:00 AM 17.54 63.572 0.373 7.63 5.81 6.24
5/30/2022 2:30:00 AM 17.28 63.104 0.381 7.61 6.22 6.04
5/30/2022 2:45:00 AM 17.42 63.356 0.369 7.63 6.1 6.24
5/30/2022 3:00:00 AM 17.11 62.798 0.375 7.59 5.94 5.96
5/30/2022 3:15:00 AM 17.14 62.852 0.371 7.61 6.3 6.19
5/30/2022 3:30:00 AM 17.05 62.69 0.371 7.61 5.97 6.13
5/30/2022 3:45:00 AM 17.15 62.87 0.366 7.62 6.38 6.28
5/30/2022 4:00:00 AM 16.9 62.42 0.368 7.61 6.71 6.11
5/30/2022 4:15:00 AM 16.99 62.582 0.364 7.6 6.52 6.27
5/30/2022 4:30:00 AM 16.89 62.402 0.363 7.62 6.39 6.31
5/30/2022 4:45:00 AM 16.69 62.042 0.367 7.59 8.21 6.21
5/30/2022 5:00:00 AM 16.65 61.97 0.365 7.58 7.03 6.28
5/30/2022 5:15:00 AM 16.52 61.736 0.366 7.59 7.04 6.21
5/30/2022 5:30:00 AM 16.48 61.664 0.364 7.58 6.89 6.33
5/30/2022 5:45:00 AM 16.42 61.556 0.362 7.58 6.63 6.36
5/30/2022 6:00:00 AM 16.25 61.25 0.365 7.57 7.04 6.22
5/30/2022 6:15:00 AM 16.33 61.394 0.357 7.6 6.82 6.42
5/30/2022 6:30:00 AM 16.24 61.232 0.36 7.59 6.69 6.39
5/30/2022 6:45:00 AM 16.12 61.016 0.362 7.57 6.06 6.43
5/30/2022 7:00:00 AM 16.08 60.944 0.36 7.59 6.14 6.46
5/30/2022 7:15:00 AM 16.05 60.89 0.356 7.59 6.13 6.5
5/30/2022 7:30:00 AM 15.94 60.692 0.363 7.59 6.16 6.51
5/30/2022 7:45:00 AM 16.01 60.818 0.355 7.6 5.93 6.65
5/30/2022 8:00:00 AM 16.03 60.854 0.355 7.61 5.76 6.88
5/30/2022 8:15:00 AM 15.99 60.782 0.358 7.6 5.71 6.81
5/30/2022 8:30:00 AM 16 60.8 0.359 7.61 5.3 6.83
5/30/2022 8:45:00 AM 16.07 60.926 0.353 7.62 5.55 7.08
5/30/2022 9:00:00 AM 15.96 60.728 0.357 7.59 5.98 6.91
5/30/2022 9:15:00 AM 16.04 60.872 0.354 7.63 5.26 7.26
5/30/2022 9:30:00 AM 16.05 60.89 0.368 7.65 5.03 7.32
5/30/2022 9:45:00 AM 16.2 61.16 0.353 7.67 5.29 7.49
5/30/2022 10:00:00 AM 16.15 61.07 0.356 7.67 5.15 7.6
5/30/2022 10:15:00 AM 16.05 60.89 0.365 7.65 5.14 7.22
5/30/2022 10:30:00 AM 16.18 61.124 0.364 7.67 4.94 7.43
5/30/2022 10:45:00 AM 16.31 61.358 0.362 7.68 5.21 7.6
5/30/2022 11:00:00 AM 16.5 61.7 0.363 7.7 5.2 7.82
5/30/2022 11:15:00 AM 16.62 61.916 0.362 7.69 4.92 8.04
5/30/2022 11:30:00 AM 16.89 62.402 0.36 7.73 4.9 8.24
5/30/2022 11:45:00 AM 17.01 62.618 0.365 7.75 4.86 8.38
5/30/2022 12:00:00 PM 17.29 63.122 0.362 7.73 4.64 8.27
5/30/2022 12:15:00 PM 17.16 62.888 0.37 7.73 4.58 8.06
5/30/2022 12:30:00 PM 17.69 63.842 0.364 7.77 4.76 8.58
5/30/2022 12:45:00 PM 17.68 63.824 0.37 7.75 4.57 8.26
5/30/2022 1:00:00 PM 18.09 64.562 0.365 7.78 4.71 8.71
5/30/2022 1:15:00 PM 18.38 65.084 0.362 7.79 4.6 8.88
5/30/2022 1:30:00 PM 18.67 65.606 0.367 7.84 4.49 8.95
5/30/2022 1:45:00 PM 18.79 65.82201 0.367 7.81 4.55 8.78
5/30/2022 2:00:00 PM 19.27 66.686 0.363 7.86 4.57 9.15
5/30/2022 2:15:00 PM 19.25 66.65 0.369 7.82 4.56 8.86
5/30/2022 2:30:00 PM 19.24 66.632 0.374 7.81 4.51 8.45
5/30/2022 2:45:00 PM 19.47 67.046 0.375 7.84 4.32 8.66
5/30/2022 3:00:00 PM 19.82 67.676 0.37 7.86 4.65 8.79
5/30/2022 3:15:00 PM 20.05 68.09 0.371 7.84 4.73 8.95
5/30/2022 3:30:00 PM 19.89 67.802 0.377 7.83 5.44 8.44
5/30/2022 3:45:00 PM 20.07 68.126 0.377 7.79 4.91 8.46
5/30/2022 4:00:00 PM 20.01 68.018 0.379 7.83 4.9 8.51
5/30/2022 4:15:00 PM 20.33 68.594 0.376 7.85 4.58 8.85
5/30/2022 4:30:00 PM 20.35 68.63 0.375 7.86 4.83 8.83
5/30/2022 4:45:00 PM 20.65 69.17 0.374 7.89 4.57 8.81
5/30/2022 5:00:00 PM 20.47 68.846 0.375 7.83 4.47 8.01
5/30/2022 5:15:00 PM 20.47 68.846 0.381 7.84 4.96 8.14
5/30/2022 5:30:00 PM 20.74 69.332 0.377 7.86 4.4 8.33
5/30/2022 5:45:00 PM 20.81 69.458 0.377 7.89 4.64 8.31
5/30/2022 6:00:00 PM 20.73 69.314 0.383 7.85 4.99 7.96
5/30/2022 6:15:00 PM 20.81 69.458 0.377 7.84 4.37 8.12
5/30/2022 6:30:00 PM 20.81 69.458 0.378 7.82 4.25 7.84
5/30/2022 6:45:00 PM 20.76 69.368 0.38 7.83 4.23 7.61
5/30/2022 7:00:00 PM 20.75 69.35 0.384 7.79 4.62 7.53
5/30/2022 7:15:00 PM 21.02 69.836 0.378 7.8 4.23 7.28
5/30/2022 7:30:00 PM 20.88 69.584 0.38 7.81 4.41 7.25
5/30/2022 7:45:00 PM 20.92 69.656 0.378 7.77 4.5 7.1
5/30/2022 8:00:00 PM 20.7 69.26 0.381 7.74 4.55 6.56
5/30/2022 8:15:00 PM 20.35 68.63 0.387 7.71 4.66 6.36
5/30/2022 8:30:00 PM 20.71 69.278 0.383 7.73 4.98 6.59
5/30/2022 8:45:00 PM 20.83 69.494 0.381 7.73 5.04 6.71
5/30/2022 9:00:00 PM 20.58 69.044 0.385 7.68 5.11 6.28
5/30/2022 9:15:00 PM 20.41 68.738 0.387 7.68 5.53 6.25
5/30/2022 9:30:00 PM 20.42 68.756 0.386 7.65 5.78 6.02
5/30/2022 9:45:00 PM 20.51 68.918 0.385 7.68 5.66 6.19
5/30/2022 10:00:00 PM 20.41 68.738 0.386 7.66 5.79 5.97
5/30/2022 10:15:00 PM 20.25 68.45 0.389 7.66 5.7 5.89
5/30/2022 10:30:00 PM 20.4 68.72 0.384 7.67 5.88 6.01
5/30/2022 10:45:00 PM 20.28 68.504 0.385 7.63 5.59 5.7
5/30/2022 11:00:00 PM 20.07 68.126 0.387 7.63 5.45 5.68
5/30/2022 11:15:00 PM 19.8 67.64 0.39 7.62 5.21 5.61
5/30/2022 11:30:00 PM 19.85 67.73 0.393 7.63 5.36 5.5
5/30/2022 11:45:00 PM 19.82 67.676 0.392 7.63 5.51 5.66
5/31/2022 12:00:00 AM 19.69 67.442 0.391 7.62 5.11 5.58
5/31/2022 12:15:00 AM 19.38 66.884 0.398 7.6 5.22 5.43
5/31/2022 12:30:00 AM 19.37 66.866 0.395 7.6 5.2 5.38
5/31/2022 12:45:00 AM 19.06 66.308 0.398 7.6 5.61 5.45
5/31/2022 1:00:00 AM 19.26 66.668 0.394 7.59 5.74 5.51
5/31/2022 1:15:00 AM 18.9 66.02 0.405 7.59 5.57 5.43
5/31/2022 1:30:00 AM 19.01 66.218 0.395 7.59 5.36 5.58
5/31/2022 1:45:00 AM 19.03 66.254 0.394 7.58 5.56 5.45
5/31/2022 2:00:00 AM 18.87 65.966 0.395 7.58 14.31 5.56
5/31/2022 2:15:00 AM 18.73 65.714 0.399 7.57 6.37 5.49
5/31/2022 2:30:00 AM 18.51 65.318 0.398 7.56 6.39 5.43
5/31/2022 2:45:00 AM 18.77 65.786 0.395 7.6 6.03 5.63
5/31/2022 3:00:00 AM 18.78 65.804 0.39 7.6 6.51 5.6
5/31/2022 3:15:00 AM 18.68 65.624 0.393 7.57 5.87 5.65
5/31/2022 3:30:00 AM 18.57 65.426 0.393 7.58 5.98 5.52
5/31/2022 3:45:00 AM 18.2 64.76 0.401 7.58 6.45 5.07
5/31/2022 4:00:00 AM 18.39 65.102 0.393 7.58 6.82 5.64
5/31/2022 4:15:00 AM 18.31 64.958 0.393 7.58 6.62 5.74
5/31/2022 4:30:00 AM 18.2 64.76 0.391 7.58 6.79 5.74
5/31/2022 4:45:00 AM 18.17 64.706 0.392 7.57 7.05 5.68
5/31/2022 5:00:00 AM 18.03 64.454 0.394 7.56 9.7 5.43
5/31/2022 5:15:00 AM 17.83 64.094 0.392 7.56 6.79 5.59
5/31/2022 5:30:00 AM 17.85 64.13 0.391 7.57 6.95 5.63
5/31/2022 5:45:00 AM 17.48 63.464 0.397 7.55 7.4 5.47
5/31/2022 6:00:00 AM 17.79 64.022 0.388 7.56 6.43 5.64
5/31/2022 6:15:00 AM 17.7 63.86 0.387 7.56 6.43 5.63
5/31/2022 6:30:00 AM 17.76 63.968 0.384 7.57 6.17 5.86
5/31/2022 6:45:00 AM 17.54 63.572 0.388 7.56 6.51 5.61
5/31/2022 7:00:00 AM 17.29 63.122 0.393 7.53 6.32 5.65
5/31/2022 7:15:00 AM 17.6 63.68 0.384 7.56 6.6 5.97
5/31/2022 7:30:00 AM 17.45 63.41 0.382 7.56 7.1 5.91
5/31/2022 7:45:00 AM 17.65 63.77 0.382 7.58 6.37 6.22
5/31/2022 8:00:00 AM 17.72 63.896 0.377 7.58 6.38 6.35
5/31/2022 8:15:00 AM 17.34 63.212 0.384 7.57 6.09 5.99
5/31/2022 8:30:00 AM 17.75 63.95 0.375 7.59 5.84 6.45
5/31/2022 8:45:00 AM 17.62 63.716 0.377 7.59 6.06 6.49
5/31/2022 9:00:00 AM 17.66 63.788 0.378 7.59 5.7 6.38
5/31/2022 9:15:00 AM 17.81 64.058 0.38 7.61 5.14 6.58
5/31/2022 9:30:00 AM 17.96 64.328 0.377 7.62 5.24 6.74
5/31/2022 9:45:00 AM 18.21 64.778 0.37 7.64 5.45 7.04
5/31/2022 10:00:00 AM 18.32 64.976 0.374 7.65 6.37 7.14
5/31/2022 10:15:00 AM 18.21 64.778 0.383 7.63 5.59 7.02
5/31/2022 10:30:00 AM 18.24 64.832 0.382 7.63 5.24 6.9
5/31/2022 10:45:00 AM 18.49 65.282 0.383 7.67 5.3 7.19
5/31/2022 11:00:00 AM 18.42 65.156 0.386 7.62 5.25 6.74
5/31/2022 11:15:00 AM 18.38 65.084 0.389 7.65 5.02 6.98
5/31/2022 11:30:00 AM 18.68 65.624 0.384 7.67 5.44 7.44
5/31/2022 11:45:00 AM 18.84 65.912 0.383 7.68 5 7.25
5/31/2022 12:00:00 PM 18.78 65.804 0.387 7.68 4.63 6.79
5/31/2022 12:15:00 PM 19.39 66.902 0.379 7.71 4.78 7.76
5/31/2022 12:30:00 PM 19.73 67.514 0.378 7.74 4.17 8.19
5/31/2022 12:45:00 PM 19.46 67.028 0.388 7.73 4.22 7.59
5/31/2022 1:00:00 PM 19.65 67.37 0.386 7.72 4.49 7.55
5/31/2022 1:15:00 PM 19.7 67.46 0.391 7.7 4.75 7.45
5/31/2022 1:30:00 PM 19.99 67.982 0.388 7.74 4.39 8
5/31/2022 1:45:00 PM 20.08 68.144 0.387 7.78 4.63 8.01
5/31/2022 2:00:00 PM 20.43 68.774 0.387 7.79 4.41 8.34
5/31/2022 2:15:00 PM 20.46 68.828 0.391 7.79 4.66 7.98
5/31/2022 2:30:00 PM 21 69.8 0.384 7.82 4.69 8.4
5/31/2022 2:45:00 PM 20.86 69.548 0.384 7.8 4.53 8
5/31/2022 3:00:00 PM 21.14 70.052 0.386 7.8 4.31 8.23
5/31/2022 3:15:00 PM 21.07 69.926 0.388 7.78 4.48 8.34
5/31/2022 3:30:00 PM 21.18 70.124 0.391 7.8 4.37 8.01
5/31/2022 3:45:00 PM 21.37 70.466 0.385 7.77 4.41 7.68
5/31/2022 4:00:00 PM 21.55 70.79 0.4 7.76 4.36 7.96
5/31/2022 4:15:00 PM 21.03 69.854 0.406 7.78 4.83 7.89
5/31/2022 4:30:00 PM 21.41 70.538 0.404 7.78 4.44 7.76
5/31/2022 4:45:00 PM 21.76 71.168 0.399 7.78 4.54 7.93
5/31/2022 5:00:00 PM 21.7 71.06 0.402 7.8 4.56 7.64
5/31/2022 5:15:00 PM 21.86 71.348 0.401 7.8 4.67 7.77
5/31/2022 5:30:00 PM 21.7 71.06 0.402 7.81 4.5 7.64
5/31/2022 5:45:00 PM 21.65 70.97 0.404 7.78 4.68 7.35
5/31/2022 6:00:00 PM 21.61 70.898 0.407 7.77 4.34 7.43
5/31/2022 6:15:00 PM 22.02 71.636 0.403 7.81 4.21 7.43
5/31/2022 6:30:00 PM 21.73 71.114 0.403 7.78 4.47 7.11
5/31/2022 6:45:00 PM 21.86 71.348 0.401 7.77 4.43 6.96
5/31/2022 7:00:00 PM 21.38 70.484 0.407 7.73 4.55 6.44
5/31/2022 7:15:00 PM 21.71 71.078 0.401 7.75 4.71 6.89
5/31/2022 7:30:00 PM 21.34 70.412 0.408 7.74 4.84 6.51
5/31/2022 7:45:00 PM 21.87 71.366 0.405 7.72 4.74 6.74
5/31/2022 8:00:00 PM 21.75 71.15 0.403 7.69 5.02 6.27
5/31/2022 8:15:00 PM 21.62 70.916 0.404 7.7 4.98 6.42
5/31/2022 8:30:00 PM 21.48 70.664 0.404 7.68 4.82 5.97
5/31/2022 8:45:00 PM 21.83 71.294 0.403 7.69 5.37 6.05
5/31/2022 9:00:00 PM 21.36 70.448 0.405 7.69 5.4 6.17
5/31/2022 9:15:00 PM 20.96 69.728 0.407 7.65 5.42 5.77
5/31/2022 9:30:00 PM 20.9 69.62 0.41 7.63 5.82 5.61
5/31/2022 9:45:00 PM 20.71 69.278 0.408 7.62 5.77 5.31
5/31/2022 10:00:00 PM 21 69.8 0.404 7.63 5.9 5.47
5/31/2022 10:15:00 PM 20.77 69.386 0.409 7.62 6.03 5.3
5/31/2022 10:30:00 PM 20.84 69.512 0.406 7.61 6.25 5.47
5/31/2022 10:45:00 PM 20.91 69.638 0.405 7.61 5.92 5.37
5/31/2022 11:00:00 PM 20.63 69.134 0.407 7.61 5.67 5.33
5/31/2022 11:15:00 PM 20.35 68.63 0.408 7.57 5.99 5.08
5/31/2022 11:30:00 PM 20.15 68.27 0.406 7.56 5.97 5
5/31/2022 11:45:00 PM 20.02 68.036 0.409 7.56 6.19 5.01
6/1/2022 12:00:00 AM 20.26 68.468 0.403 7.58 6.21 5.22
6/1/2022 12:15:00 AM 19.94 67.892 0.409 7.57 6.1 5.05
6/1/2022 12:30:00 AM 19.8 67.64 0.408 7.57 6.02 4.9
6/1/2022 12:45:00 AM 19.87 67.766 0.405 7.57 6.12 5.11
6/1/2022 1:00:00 AM 19.47 67.046 0.413 7.54 6.11 4.69
6/1/2022 1:15:00 AM 19.38 66.884 0.414 7.56 6.35 4.91
6/1/2022 1:30:00 AM 19.37 66.866 0.411 7.56 6.19 5.06
6/1/2022 1:45:00 AM 19.37 66.866 0.413 7.55 6.08 5.01
6/1/2022 2:00:00 AM 19.19 66.542 0.41 7.54 6.24 5.04
6/1/2022 2:15:00 AM 19.62 67.316 0.404 7.56 6.02 5.15
6/1/2022 2:30:00 AM 19.17 66.506 0.408 7.53 6.32 4.99
6/1/2022 2:45:00 AM 19.29 66.722 0.406 7.56 6.37 5.1
6/1/2022 3:00:00 AM 19.13 66.434 0.409 7.55 6.52 5.04
6/1/2022 3:15:00 AM 19.28 66.704 0.405 7.54 6.77 5.11
6/1/2022 3:30:00 AM 18.83 65.894 0.406 7.55 6.91 5.07
6/1/2022 3:45:00 AM 18.8 65.84 0.407 7.54 6.6 5.03
6/1/2022 4:00:00 AM 18.59 65.462 0.412 7.54 7.07 5.11
6/1/2022 4:15:00 AM 18.47 65.246 0.41 7.53 6.68 4.85
6/1/2022 4:30:00 AM 18.58 65.444 0.408 7.54 6.71 4.98
6/1/2022 4:45:00 AM 18.53 65.354 0.409 7.55 6.97 4.98
6/1/2022 5:00:00 AM 18.05 64.49 0.42 7.52 6.51 4.93
6/1/2022 5:15:00 AM 18.64 65.552 0.404 7.55 6.88 5.2
6/1/2022 5:30:00 AM 18.43 65.174 0.407 7.55 6.75 5.17
6/1/2022 5:45:00 AM 17.95 64.31 0.415 7.51 6.66 4.72
6/1/2022 6:00:00 AM 18.13 64.634 0.409 7.53 6.62 4.88
6/1/2022 6:15:00 AM 18.17 64.706 0.404 7.54 7.26 5.18
6/1/2022 6:30:00 AM 17.99 64.382 0.406 7.53 8.18 5.21
6/1/2022 6:45:00 AM 18.15 64.67 0.403 7.53 6.93 5.23
6/1/2022 7:00:00 AM 17.94 64.292 0.406 7.54 7.17 5.25
6/1/2022 7:15:00 AM 17.81 64.058 0.409 7.53 6.89 5.18
6/1/2022 7:30:00 AM 18.05 64.49 0.399 7.55 7.19 5.51
6/1/2022 7:45:00 AM 17.85 64.13 0.405 7.53 6.62 5.45
6/1/2022 8:00:00 AM 17.92 64.256 0.402 7.56 6.07 5.41
6/1/2022 8:15:00 AM 17.99 64.382 0.407 7.55 5.43 5.72
6/1/2022 8:30:00 AM 17.77 63.986 0.405 7.56 5.69 5.63
6/1/2022 8:45:00 AM 17.43 63.374 0.412 7.52 5.78 5.43
6/1/2022 9:00:00 AM 17.52 63.536 0.408 7.54 5.62 5.59
6/1/2022 9:15:00 AM 17.34 63.212 0.411 7.53 7.46 5.53
6/1/2022 9:30:00 AM 17.86 64.148 0.4 7.52 5.88 5.73
6/1/2022 9:45:00 AM 17.83 64.094 0.407 7.57 5.66 5.87
6/1/2022 10:00:00 AM 18.14 64.652 0.401 7.57 5.64 6.15
6/1/2022 10:15:00 AM 18.58 65.444 0.397 7.63 5.48 6.55
6/1/2022 10:30:00 AM 17.94 64.292 0.408 7.59 5.01 6
6/1/2022 10:45:00 AM 18.54 65.372 0.398 7.61 4.78 6.12
6/1/2022 11:00:00 AM 18.68 65.624 0.401 7.62 5.2 6.6
6/1/2022 11:15:00 AM 18.88 65.984 0.397 7.63 6.97 7.09
6/1/2022 11:30:00 AM 19.28 66.704 0.39 7.66 5.71 7.32
6/1/2022 11:45:00 AM 19.42 66.956 0.39 7.69 5.39 7.39
6/1/2022 12:00:00 PM 19.24 66.632 0.393 7.68 4.92 7.31
6/1/2022 12:15:00 PM 19.04 66.272 0.397 7.65 4.9 6.98
6/1/2022 12:30:00 PM 19.09 66.362 0.395 7.66 4.99 7.29
6/1/2022 12:45:00 PM 19.42 66.956 0.396 7.7 5.04 7.38
6/1/2022 1:00:00 PM 19.59 67.262 0.391 7.68 4.83 7.11
6/1/2022 1:15:00 PM 19.62 67.316 0.397 7.69 4.93 7.21
6/1/2022 1:30:00 PM 19.74 67.532 0.395 7.72 4.73 7.77
6/1/2022 1:45:00 PM 20.16 68.288 0.387 7.73 4.82 7.81
6/1/2022 2:00:00 PM 20.07 68.126 0.394 7.71 4.8 7.81
6/1/2022 2:15:00 PM 20.2 68.36 0.392 7.71 4.72 7.72
6/1/2022 2:30:00 PM 20.09 68.162 0.393 7.75 4.86 7.7
6/1/2022 2:45:00 PM 20.1 68.18 0.395 7.74 4.92 7.6
6/1/2022 3:00:00 PM 20.15 68.27 0.389 7.7 4.9 7.6
6/1/2022 3:15:00 PM 19.99 67.982 0.394 7.74 4.91 7.38
6/1/2022 3:30:00 PM 20.11 68.198 0.389 7.7 5.08 6.8
6/1/2022 3:45:00 PM 20.16 68.288 0.389 7.68 5.2 7.2
6/1/2022 4:00:00 PM 20.03 68.054 0.393 7.7 4.98 7.21
6/1/2022 4:15:00 PM 20.5 68.9 0.39 7.74 4.88 7.57
6/1/2022 4:30:00 PM 20.28 68.504 0.395 7.74 4.81 7.51
6/1/2022 4:45:00 PM 20.16 68.288 0.396 7.72 5.01 7.33
6/1/2022 5:00:00 PM 20.42 68.756 0.39 7.74 5.11 7.13
6/1/2022 5:15:00 PM 20.16 68.288 0.396 7.68 4.76 7
6/1/2022 5:30:00 PM 20.43 68.774 0.392 7.68 4.78 7.01
6/1/2022 5:45:00 PM 20.47 68.846 0.394 7.67 4.99 7.13
6/1/2022 6:00:00 PM 20.4 68.72 0.39 7.65 5.13 6.42
6/1/2022 6:15:00 PM 20.04 68.07201 0.398 7.7 5.46 6.47
6/1/2022 6:30:00 PM 20.13 68.234 0.387 7.68 7 6.57
6/1/2022 6:45:00 PM 20.14 68.252 0.389 7.69 6.94 6.41
6/1/2022 7:00:00 PM 19.98 67.964 0.399 7.68 8.37 6.41
6/1/2022 7:15:00 PM 20.41 68.738 0.386 7.68 13.61 6.23
6/1/2022 7:30:00 PM 20.38 68.684 0.389 7.69 8.29 6.44
6/1/2022 7:45:00 PM 21.04 69.872 0.381 7.71 7.5 6.45
6/1/2022 8:00:00 PM 21.2 70.16 0.381 7.74 7.29 6.53
6/1/2022 8:15:00 PM 21.22 70.196 0.38 7.72 7.54 6.53
6/1/2022 8:30:00 PM 21.33 70.394 0.378 7.72 7.49 6.31
6/1/2022 8:45:00 PM 21.38 70.484 0.375 7.69 9.8 6.17
6/1/2022 9:00:00 PM 21.33 70.394 0.375 7.68 9.4 6.01
6/1/2022 9:15:00 PM 21.12 70.016 0.378 7.66 9.09 5.92
6/1/2022 9:30:00 PM 21.11 69.998 0.381 7.66 8.65 5.9
6/1/2022 9:45:00 PM 21.02 69.836 0.381 7.65 8.33 5.8
6/1/2022 10:00:00 PM 21.11 69.998 0.379 7.65 8.9 5.84
6/1/2022 10:15:00 PM 20.81 69.458 0.383 7.63 9.79 5.69
6/1/2022 10:30:00 PM 20.91 69.638 0.379 7.63 10.63 5.66
6/1/2022 10:45:00 PM 20.92 69.656 0.374 7.62 11.52 5.53
6/1/2022 11:00:00 PM 20.93 69.674 0.37 7.61 11.8 5.51
6/1/2022 11:15:00 PM 20.82 69.476 0.37 7.6 11.76 5.49
6/1/2022 11:30:00 PM 20.66 69.188 0.374 7.59 11.95 5.46
6/1/2022 11:45:00 PM 20.61 69.098 0.371 7.59 11.18 5.49
6/2/2022 12:00:00 AM 20.43 68.774 0.372 7.58 10.87 5.42
6/2/2022 12:15:00 AM 20.32 68.576 0.371 7.58 10.13 5.4
6/2/2022 12:30:00 AM 20.23 68.414 0.372 7.59 10.36 5.46
6/2/2022 12:45:00 AM 20.07 68.126 0.374 7.58 9.8 5.47
6/2/2022 1:00:00 AM 19.98 67.964 0.373 7.59 9.36 5.48
6/2/2022 1:15:00 AM 19.88 67.784 0.373 7.59 9.61 5.5
6/2/2022 1:30:00 AM 19.7 67.46 0.377 7.58 9.42 5.44
6/2/2022 1:45:00 AM 19.62 67.316 0.376 7.58 10.28 5.41
6/2/2022 2:00:00 AM 19.54 67.172 0.376 7.58 9.29 5.46
6/2/2022 2:15:00 AM 19.57 67.226 0.376 7.55 9.62 5.38
6/2/2022 2:30:00 AM 19.5 67.1 0.375 7.55 10.01 5.39
6/2/2022 2:45:00 AM 19.58 67.244 0.369 7.56 10.87 5.37
6/2/2022 3:00:00 AM 19.34 66.812 0.377 7.53 10.83 5.21
6/2/2022 3:15:00 AM 19.56 67.208 0.367 7.55 11.53 5.35
6/2/2022 3:30:00 AM 19.56 67.208 0.367 7.56 12.34 5.35
6/2/2022 3:45:00 AM 19.52 67.136 0.363 7.56 11.66 5.36
6/2/2022 4:00:00 AM 19.42 66.956 0.365 7.55 11.5 5.35
6/2/2022 4:15:00 AM 19.39 66.902 0.362 7.53 11.37 5.41
6/2/2022 4:30:00 AM 19.34 66.812 0.36 7.53 11.24 5.37
6/2/2022 4:45:00 AM 19.2 66.56 0.359 7.54 10.9 5.33
6/2/2022 5:00:00 AM 19.13 66.434 0.359 7.54 11.82 5.32
6/2/2022 5:15:00 AM 19.1 66.38 0.356 7.51 11.37 5.2
6/2/2022 5:30:00 AM 18.89 66.002 0.361 7.51 12.69 5.18
6/2/2022 5:45:00 AM 18.92 66.056 0.357 7.51 12.57 5.34
6/2/2022 6:00:00 AM 18.71 65.67799 0.363 7.51 11.83 5.18
6/2/2022 6:15:00 AM 18.94 66.092 0.35 7.54 18.63 5.45
6/2/2022 6:30:00 AM 18.61 65.498 0.354 7.52 12.1 5.35
6/2/2022 6:45:00 AM 18.77 65.786 0.349 7.54 12.89 5.57
6/2/2022 7:00:00 AM 18.39 65.102 0.357 7.51 11.4 5.32
6/2/2022 7:15:00 AM 18.4 65.12 0.351 7.5 11.64 5.19
6/2/2022 7:30:00 AM 18.41 65.138 0.352 7.52 11.61 5.46
6/2/2022 7:45:00 AM 18.41 65.138 0.352 7.51 11.8 5.6
6/2/2022 8:00:00 AM 18.31 64.958 0.35 7.51 10.9 5.37
6/2/2022 8:15:00 AM 18.3 64.94 0.348 7.52 11.27 5.7
6/2/2022 8:30:00 AM 18.22 64.796 0.35 7.51 11.99 5.61
6/2/2022 8:45:00 AM 18.3 64.94 0.346 7.54 11.72 5.91
6/2/2022 9:00:00 AM 18.18 64.724 0.356 7.54 11.07 5.91
6/2/2022 9:15:00 AM 18.41 65.138 0.342 7.55 10.64 6.18
6/2/2022 9:30:00 AM 18.38 65.084 0.345 7.56 10.25 6.29
6/2/2022 9:45:00 AM 18.33 64.994 0.349 7.57 9.33 6.32
6/2/2022 10:00:00 AM 18.19 64.742 0.355 7.56 9.58 6.23
6/2/2022 10:15:00 AM 18.18 64.724 0.359 7.57 9.7 6.47
6/2/2022 10:30:00 AM 18.42 65.156 0.355 7.59 9.06 6.69
6/2/2022 10:45:00 AM 18.56 65.408 0.354 7.61 8.79 6.94
6/2/2022 11:00:00 AM 18.54 65.372 0.356 7.63 8.96 7.04
6/2/2022 11:15:00 AM 18.66 65.588 0.356 7.62 9.06 7.1
6/2/2022 11:30:00 AM 18.69 65.642 0.36 7.65 8.47 6.94
6/2/2022 11:45:00 AM 18.91 66.038 0.356 7.65 7.84 7.32
6/2/2022 12:00:00 PM 18.89 66.002 0.361 7.7 8.36 7.5
6/2/2022 12:15:00 PM 19.02 66.236 0.359 7.68 7.98 7.77
6/2/2022 12:30:00 PM 19.17 66.506 0.36 7.71 7.88 7.8
6/2/2022 12:45:00 PM 19.16 66.488 0.366 7.72 7.75 7.69
6/2/2022 1:00:00 PM 19.32 66.776 0.365 7.71 7.62 7.83
6/2/2022 1:15:00 PM 19.5 67.1 0.365 7.73 7.27 7.75
6/2/2022 1:30:00 PM 19.56 67.208 0.367 7.74 7.2 8.08
6/2/2022 1:45:00 PM 19.71 67.478 0.367 7.75 7.24 7.71
6/2/2022 2:00:00 PM 19.8 67.64 0.367 7.8 6.93 8.1
6/2/2022 2:15:00 PM 19.89 67.802 0.368 7.79 6.44 8.2
6/2/2022 2:30:00 PM 19.73 67.514 0.374 7.77 6.25 7.61
6/2/2022 2:45:00 PM 19.88 67.784 0.365 7.79 6.97 8.16
6/2/2022 3:00:00 PM 19.77 67.586 0.371 7.77 6.63 7.89
6/2/2022 3:15:00 PM 19.77 67.586 0.373 7.8 6.43 8.21
6/2/2022 3:30:00 PM 20.06 68.108 0.372 7.82 6.69 8.53
6/2/2022 3:45:00 PM 20.1 68.18 0.374 7.84 5.62 8.31
6/2/2022 4:00:00 PM 20.53 68.954 0.371 7.85 6.28 8.55
6/2/2022 4:15:00 PM 20.37 68.666 0.374 7.84 6.15 8.23
6/2/2022 4:30:00 PM 20.26 68.468 0.375 7.84 6.18 8.18
6/2/2022 4:45:00 PM 19.99 67.982 0.383 7.79 6.39 7.54
6/2/2022 5:00:00 PM 20.17 68.306 0.381 7.81 6.2 7.97
6/2/2022 5:15:00 PM 20.27 68.486 0.385 7.83 6.01 8.04
6/2/2022 5:30:00 PM 20.36 68.648 0.381 7.82 6.51 7.87
6/2/2022 5:45:00 PM 20.35 68.63 0.383 7.82 5.56 7.86
6/2/2022 6:00:00 PM 20.56 69.008 0.379 7.83 6.16 7.57
6/2/2022 6:15:00 PM 20.37 68.666 0.386 7.83 11.29 7.69
6/2/2022 6:30:00 PM 20.25 68.45 0.386 7.81 5.82 7.6
6/2/2022 6:45:00 PM 20.25 68.45 0.386 7.74 6.1 7.42
6/2/2022 7:00:00 PM 20.42 68.756 0.383 7.82 6.16 7.52
6/2/2022 7:15:00 PM 20.47 68.846 0.382 7.8 6.1 7.46
6/2/2022 7:30:00 PM 20.41 68.738 0.382 7.78 6.29 7.17
6/2/2022 7:45:00 PM 20.27 68.486 0.385 7.76 6.48 7.11
6/2/2022 8:00:00 PM 20.22 68.396 0.385 7.76 6.85 7.05
6/2/2022 8:15:00 PM 20.05 68.09 0.386 7.71 7.06 6.64
6/2/2022 8:30:00 PM 20.19 68.342 0.381 7.75 6.34 6.77
6/2/2022 8:45:00 PM 19.91 67.838 0.384 7.73 7.6 6.54
6/2/2022 9:00:00 PM 20.05 68.09 0.381 7.7 6.54 6.36
6/2/2022 9:15:00 PM 19.51 67.118 0.391 7.7 6.47 6.28
6/2/2022 9:30:00 PM 19.55 67.19 0.391 7.7 6.35 6.13
6/2/2022 9:45:00 PM 19.71 67.478 0.385 7.7 7.1 6.22
6/2/2022 10:00:00 PM 19.48 67.064 0.391 7.67 6.56 6
6/2/2022 10:15:00 PM 19.66 67.388 0.385 7.68 6.87 6.18
6/2/2022 10:30:00 PM 19.45 67.01 0.389 7.66 7.14 5.9
6/2/2022 10:45:00 PM 19.21 66.578 0.393 7.64 6.68 5.64
6/2/2022 11:00:00 PM 19.25 66.65 0.393 7.64 6.68 5.75
6/2/2022 11:15:00 PM 18.93 66.074 0.397 7.61 7.54 5.47
6/2/2022 11:30:00 PM 19.18 66.524 0.393 7.65 7.14 5.79
6/2/2022 11:45:00 PM 19.2 66.56 0.391 7.64 7.04 5.75
6/3/2022 12:00:00 AM 19.1 66.38 0.394 7.61 7.04 5.69
6/3/2022 12:15:00 AM 19.06 66.308 0.389 7.63 7.24 5.67
6/3/2022 12:30:00 AM 18.9 66.02 0.391 7.62 7.58 5.63
6/3/2022 12:45:00 AM 18.38 65.084 0.398 7.59 7.59 5.44
6/3/2022 1:00:00 AM 18.49 65.282 0.395 7.6 7.26 5.53
6/3/2022 1:15:00 AM 18.54 65.372 0.395 7.59 7.27 5.52
6/3/2022 1:30:00 AM 18.54 65.372 0.395 7.6 7.19 5.64
6/3/2022 1:45:00 AM 18.49 65.282 0.394 7.6 7.08 5.49
6/3/2022 2:00:00 AM 18.31 64.958 0.4 7.6 7.34 5.42
6/3/2022 2:15:00 AM 18.23 64.814 0.399 7.6 7.92 5.28
6/3/2022 2:30:00 AM 17.95 64.31 0.402 7.57 6.87 5.39
6/3/2022 2:45:00 AM 18.23 64.814 0.398 7.59 7 5.52
6/3/2022 3:00:00 AM 18.15 64.67 0.395 7.58 7.51 5.58
6/3/2022 3:15:00 AM 17.94 64.292 0.399 7.57 7.21 5.38
6/3/2022 3:30:00 AM 18.1 64.58 0.395 7.6 9.36 5.68
6/3/2022 3:45:00 AM 17.62 63.716 0.402 7.57 7.69 5.4
6/3/2022 4:00:00 AM 17.56 63.608 0.404 7.56 7 5.27
6/3/2022 4:15:00 AM 17.81 64.058 0.398 7.58 7.61 5.61
6/3/2022 4:30:00 AM 17.83 64.094 0.396 7.6 8.02 5.68
6/3/2022 4:45:00 AM 17.42 63.356 0.404 7.57 7.55 5.49
6/3/2022 5:00:00 AM 17.44 63.392 0.4 7.55 7.95 5.54
6/3/2022 5:15:00 AM 17.29 63.122 0.401 7.58 8.29 5.58
6/3/2022 5:30:00 AM 17.37 63.266 0.397 7.57 7.83 5.68
6/3/2022 5:45:00 AM 16.58 61.844 0.408 7.55 8.47 5.39
6/3/2022 6:00:00 AM 16.98 62.564 0.403 7.57 8 5.43
6/3/2022 6:15:00 AM 17.02 62.636 0.399 7.57 7.73 5.5
6/3/2022 6:30:00 AM 16.45 61.61 0.407 7.53 7.81 5.19
6/3/2022 6:45:00 AM 16.64 61.952 0.402 7.57 7.46 5.52
6/3/2022 7:00:00 AM 16.78 62.204 0.402 7.59 7.7 5.91
6/3/2022 7:15:00 AM 16.6 61.88 0.399 7.55 8.13 5.77
6/3/2022 7:30:00 AM 16.64 61.952 0.397 7.58 8.01 5.74
6/3/2022 7:45:00 AM 16.5 61.7 0.398 7.56 7.5 5.86
6/3/2022 8:00:00 AM 16.33 61.394 0.403 7.54 6.7 5.31
6/3/2022 8:15:00 AM 16.44 61.592 0.398 7.58 7.27 5.87
6/3/2022 8:30:00 AM 16.07 60.926 0.41 7.56 7.46 5.89
6/3/2022 8:45:00 AM 16.22 61.196 0.397 7.58 8.93 5.6
6/3/2022 9:00:00 AM 16.04 60.872 0.408 7.56 7.32 5.97
6/3/2022 9:15:00 AM 15.98 60.764 0.408 7.54 6.22 5.52
6/3/2022 9:30:00 AM 16.16 61.088 0.411 7.58 5.67 6.34
6/3/2022 9:45:00 AM 16.48 61.664 0.402 7.59 5.69 6.37
6/3/2022 10:00:00 AM 16.36 61.448 0.406 7.56 5.68 6.19
6/3/2022 10:15:00 AM 16.55 61.79 0.403 7.57 5.72 5.72
6/3/2022 10:30:00 AM 16.72 62.096 0.402 7.59 5.77 6.36
6/3/2022 10:45:00 AM 16.46 61.628 0.401 7.56 5.67 6.45
6/3/2022 11:00:00 AM 16.89 62.402 0.404 7.58 5.92 6.83
6/3/2022 11:15:00 AM 16.8 62.24 0.406 7.6 6.57 6.76
6/3/2022 11:30:00 AM 16.8 62.24 0.406 7.59 5.16 6.79
6/3/2022 11:45:00 AM 17.34 63.212 0.4 7.61 5.29 7
6/3/2022 12:00:00 PM 17.31 63.158 0.398 7.64 6.63 7.17
6/3/2022 12:15:00 PM 17.69 63.842 0.393 7.68 5.34 7.47
6/3/2022 12:30:00 PM 17.6 63.68 0.402 7.63 5.18 7.03
6/3/2022 12:45:00 PM 17.56 63.608 0.4 7.62 5.33 7.19
6/3/2022 1:00:00 PM 17.95 64.31 0.393 7.7 5.03 7.61
6/3/2022 1:15:00 PM 17.99 64.382 0.4 7.65 5.05 7.43
6/3/2022 1:30:00 PM 18.28 64.904 0.394 7.7 4.75 7.73
6/3/2022 1:45:00 PM 18.19 64.742 0.399 7.71 4.95 7.71
6/3/2022 2:00:00 PM 18.26 64.868 0.399 7.67 4.75 7.38
6/3/2022 2:15:00 PM 18.19 64.742 0.399 7.67 5.65 7.46
6/3/2022 2:30:00 PM 18.41 65.138 0.397 7.64 4.29 7.47
6/3/2022 2:45:00 PM 18.2 64.76 0.402 7.74 4.88 7.42
6/3/2022 3:00:00 PM 18.43 65.174 0.402 7.64 4.62 7.04
6/3/2022 3:15:00 PM 18.52 65.336 0.396 7.74 4.78 7.62
6/3/2022 3:30:00 PM 18.31 64.958 0.398 7.65 4.53 7.25
6/3/2022 3:45:00 PM 18.49 65.282 0.403 7.72 4.64 7.51
6/3/2022 4:00:00 PM 18.79 65.82201 0.399 7.75 4.73 7.72
6/3/2022 4:15:00 PM 18.78 65.804 0.395 7.67 4.46 7.47
6/3/2022 4:30:00 PM 18.88 65.984 0.394 7.71 4.58 7.6
6/3/2022 4:45:00 PM 18.75 65.75 0.399 7.76 4.76 7.82
6/3/2022 5:00:00 PM 19.02 66.236 0.396 7.69 5.22 7.43
6/3/2022 5:15:00 PM 18.87 65.966 0.396 7.69 4.56 7.3
6/3/2022 5:30:00 PM 18.95 66.11 0.395 7.71 4.41 7.5
6/3/2022 5:45:00 PM 18.62 65.516 0.401 7.67 4.62 7.36
6/3/2022 6:00:00 PM 18.7 65.66 0.402 7.69 4.32 7.2
6/3/2022 6:15:00 PM 18.87 65.966 0.396 7.75 4.52 7.23
6/3/2022 6:30:00 PM 19.1 66.38 0.391 7.7 4.39 7.16
6/3/2022 6:45:00 PM 18.85 65.93 0.401 7.73 4.5 7.04
6/3/2022 7:00:00 PM 18.83 65.894 0.395 7.67 4.65 6.91
6/3/2022 7:15:00 PM 18.7 65.66 0.4 7.71 4.84 6.89
6/3/2022 7:30:00 PM 18.7 65.66 0.401 7.67 4.78 6.67
6/3/2022 7:45:00 PM 18.85 65.93 0.395 7.71 4.61 6.62
6/3/2022 8:00:00 PM 18.32 64.976 0.412 7.69 5.02 6.66
6/3/2022 8:15:00 PM 18.52 65.336 0.404 7.68 4.88 6.53
6/3/2022 8:30:00 PM 18.54 65.372 0.404 7.68 4.72 6.43
6/3/2022 8:45:00 PM 18.46 65.228 0.404 7.67 5.23 6.4
6/3/2022 9:00:00 PM 18.53 65.354 0.4 7.67 5.61 6.14
6/3/2022 9:15:00 PM 18.26 64.868 0.405 7.64 5.27 6.19
6/3/2022 9:30:00 PM 18.12 64.616 0.407 7.65 5.48 6.01
6/3/2022 9:45:00 PM 18.14 64.652 0.403 7.64 6.47 6.04
6/3/2022 10:00:00 PM 17.84 64.112 0.407 7.62 6.08 5.85
6/3/2022 10:15:00 PM 18.1 64.58 0.401 7.61 7.05 5.98
6/3/2022 10:30:00 PM 17.38 63.284 0.413 7.59 5.94 5.71
6/3/2022 10:45:00 PM 17.34 63.212 0.416 7.58 6.22 5.57
6/3/2022 11:00:00 PM 17.53 63.554 0.405 7.63 6.11 5.76
6/3/2022 11:15:00 PM 17.33 63.194 0.413 7.61 6.13 5.62
6/3/2022 11:30:00 PM 17.25 63.05 0.413 7.58 6.48 5.35
6/3/2022 11:45:00 PM 17.15 62.87 0.411 7.58 6.01 5.47
6/4/2022 12:00:00 AM 17.22 62.996 0.408 7.61 6.53 5.77
6/4/2022 12:15:00 AM 16.64 61.952 0.419 7.52 6.3 4.95
6/4/2022 12:30:00 AM 16.63 61.934 0.417 7.56 6.03 5.49
6/4/2022 12:45:00 AM 16.68 62.024 0.423 7.6 6.9 5.44
6/4/2022 1:00:00 AM 16.69 62.042 0.421 7.56 6.62 5.59
6/4/2022 1:15:00 AM 16.47 61.646 0.424 7.56 6.39 5.42
6/4/2022 1:30:00 AM 16.35 61.43 0.429 7.57 6.04 5.72
6/4/2022 1:45:00 AM 16 60.8 0.443 7.53 6.55 5.27
6/4/2022 2:00:00 AM 16.04 60.872 0.437 7.53 5.74 5.28
6/4/2022 2:15:00 AM 15.94 60.692 0.448 7.57 6.47 5.44
6/4/2022 2:30:00 AM 16.19 61.142 0.443 7.55 6.78 5.51
6/4/2022 2:45:00 AM 15.7 60.26 0.446 7.53 6.42 5.03
6/4/2022 3:00:00 AM 15.63 60.134 0.449 7.55 6.23 5.35
6/4/2022 3:15:00 AM 15.73 60.314 0.445 7.55 6.37 5.39
6/4/2022 3:30:00 AM 15.6 60.08 0.447 7.53 7.47 5.53
6/4/2022 3:45:00 AM 15.56 60.008 0.44 7.56 6.28 5.67
6/4/2022 4:00:00 AM 15.53 59.954 0.44 7.51 6.9 5.3
6/4/2022 4:15:00 AM 15.3 59.54 0.448 7.51 6.43 5.48
6/4/2022 4:30:00 AM 15.11 59.198 0.461 7.52 6.85 5.01
6/4/2022 4:45:00 AM 14.77 58.586 0.461 7.5 6.62 5.12
6/4/2022 5:00:00 AM 14.89 58.802 0.451 7.55 6.23 5.52
6/4/2022 5:15:00 AM 15.07 59.126 0.442 7.53 7.37 5.37
6/4/2022 5:30:00 AM 14.88 58.784 0.441 7.52 6.76 5.71
6/4/2022 5:45:00 AM 14.31 57.758 0.469 7.52 7.71 4.94
6/4/2022 6:00:00 AM 14.6 58.28 0.459 7.54 7.24 5.51
6/4/2022 6:15:00 AM 14.28 57.704 0.473 7.49 6.25 5.59
6/4/2022 6:30:00 AM 14.38 57.884 1.561 7.54 6.69 5.56
6/4/2022 6:45:00 AM 14.14 57.452 1.599 7.48 5.1 5.28
6/4/2022 7:00:00 AM 14.27 57.686 1.221 7.49 5.8 5.46
6/4/2022 7:15:00 AM 14.57 58.226 1.034 7.57 6.48 5.96
6/4/2022 7:30:00 AM 14.4 57.92 1.025 7.56 6.36 5.84
6/4/2022 7:45:00 AM 14.14 57.452 0.823 7.52 6.67 5.71
6/4/2022 8:00:00 AM 14.37 57.866 0.808 7.58 6.27 5.98
6/4/2022 8:15:00 AM 14.23 57.614 1.157 7.55 6.12 5.74
6/4/2022 8:30:00 AM 14.3 57.74 0.868 7.54 5.35 6.06
6/4/2022 8:45:00 AM 14.55 58.19 1.31 7.59 5.41 6.31
6/4/2022 9:00:00 AM 14.23 57.614 1.614 7.51 4.67 5.47
6/4/2022 9:15:00 AM 14.78 58.604 1.772 7.56 5.23 6.56
6/4/2022 9:30:00 AM 14.82 58.676 1.667 7.62 5.09 6.54
6/4/2022 9:45:00 AM 14.61 58.298 1.629 7.55 5 6.13
6/4/2022 10:00:00 AM 14.94 58.892 1.761 7.58 4.95 6.49
6/4/2022 10:15:00 AM 15.13 59.234 2.071 7.59 4.8 6.21
6/4/2022 10:30:00 AM 15.02 59.036 1.982 7.57 4.62 6.43
6/4/2022 10:45:00 AM 14.97 58.946 2.179 7.58 4.59 6.78
6/4/2022 11:00:00 AM 15.47 59.846 1.697 7.61 4.9 6.94
6/4/2022 11:15:00 AM 15.65 60.17 1.675 7.64 4.92 7.39
6/4/2022 11:30:00 AM 16.02 60.836 1.683 7.68 4.86 7.51
6/4/2022 11:45:00 AM 15.84 60.512 2.3 7.61 4.35 6.88
6/4/2022 12:00:00 PM 16.04 60.872 1.541 7.6 4.42 7.38
6/4/2022 12:15:00 PM 16.36 61.448 1.017 7.67 5.24 7.53
6/4/2022 12:30:00 PM 16.4 61.52 0.63 7.63 5.73 7.19
6/4/2022 12:45:00 PM 16.58 61.844 0.789 7.63 4.99 7.77
6/4/2022 1:00:00 PM 16.83 62.294 1.198 7.6 4.44 7.41
6/4/2022 1:15:00 PM 17.29 63.122 0.893 7.67 4.62 7.8
6/4/2022 1:30:00 PM 17.22 62.996 0.803 7.67 4.56 7.46
6/4/2022 1:45:00 PM 17.67 63.806 1.272 7.7 4.73 7.85
6/4/2022 2:00:00 PM 17.55 63.59 0.796 7.68 4.51 8
6/4/2022 2:15:00 PM 18 64.4 1.191 7.7 4.59 8.23
6/4/2022 2:30:00 PM 17.93 64.274 1.23 7.72 9.79 8.2
6/4/2022 2:45:00 PM 18.03 64.454 0.739 7.71 4.84 8.16
6/4/2022 3:00:00 PM 17.94 64.292 1.289 7.7 5.27 8.13
6/4/2022 3:15:00 PM 18.38 65.084 0.997 7.69 4.6 8.3
6/4/2022 3:30:00 PM 18.93 66.074 1.542 7.76 5.27 8.33
6/4/2022 3:45:00 PM 18.47 65.246 1.451 7.68 4.69 7.96
6/4/2022 4:00:00 PM 18.57 65.426 0.654 7.7 4.89 7.77
6/4/2022 4:15:00 PM 18.84 65.912 0.751 7.79 4.75 8.32
6/4/2022 4:30:00 PM 19.03 66.254 1.421 7.78 4.87 8.68
6/4/2022 4:45:00 PM 18.72 65.696 0.662 7.75 4.21 8.04
6/4/2022 5:00:00 PM 18.81 65.858 0.782 7.74 4.84 8.11
6/4/2022 5:15:00 PM 18.97 66.146 1.499 7.73 4.71 8.31
6/4/2022 5:30:00 PM 19.08 66.344 1.296 7.76 4.65 8.43
6/4/2022 5:45:00 PM 18.88 65.984 1.114 7.73 4.19 7.72
6/4/2022 6:00:00 PM 18.77 65.786 1.189 7.69 4.69 7.78
6/4/2022 6:15:00 PM 18.28 64.904 1.127 7.73 4.81 7.05
6/4/2022 6:30:00 PM 18.46 65.228 1.005 7.68 4.72 7.57
6/4/2022 6:45:00 PM 18.59 65.462 0.933 7.73 4.74 7.36
6/4/2022 7:00:00 PM 18.25 64.85 1.087 7.68 4.79 7.12
6/4/2022 7:15:00 PM 18.16 64.688 1.263 7.66 5.26 6.9
6/4/2022 7:30:00 PM 18.08 64.544 1.35 7.69 5.47 6.89
6/4/2022 7:45:00 PM 18.17 64.706 1.172 7.67 5.18 6.76
6/4/2022 8:00:00 PM 18.15 64.67 1.07 7.64 5.06 6.74
6/4/2022 8:15:00 PM 18.11 64.598 1.144 7.66 4.99 6.75
6/4/2022 8:30:00 PM 17.85 64.13 1.265 7.63 8.22 6.36
6/4/2022 8:45:00 PM 17.64 63.752 1 7.64 5.94 6.41
6/4/2022 9:00:00 PM 17.58 63.644 1.206 7.64 5.15 6.1
6/4/2022 9:15:00 PM 17.52 63.536 1.258 7.57 5.22 6.06
6/4/2022 9:30:00 PM 17.44 63.392 1.398 7.65 5.81 6.39
6/4/2022 9:45:00 PM 17.19 62.942 2.584 7.62 5.78 5.87
6/4/2022 10:00:00 PM 17.13 62.834 2.864 7.57 5.78 5.69
6/4/2022 10:15:00 PM 17.12 62.816 2.848 7.6 5.94 5.8
6/4/2022 10:30:00 PM 16.92 62.456 2.765 7.6 5.99 5.73
6/4/2022 10:45:00 PM 16.94 62.492 2.593 7.57 5.79 5.64
6/4/2022 11:00:00 PM 16.73 62.114 2.55 7.58 5.45 5.73
6/4/2022 11:15:00 PM 16.67 62.006 2.523 7.6 5.86 5.83
6/4/2022 11:30:00 PM 16.38 61.484 2.512 7.53 6.05 5.28
6/4/2022 11:45:00 PM 16.37 61.466 2.504 7.55 6.09 5.31
6/5/2022 12:00:00 AM 16.18 61.124 2.359 7.56 6.21 5.56
6/5/2022 12:15:00 AM 16.27 61.286 2.339 7.54 5.71 5.44
6/5/2022 12:30:00 AM 16.24 61.232 2.376 7.55 6.05 5.6
6/5/2022 12:45:00 AM 15.96 60.728 2.364 7.53 6.35 5.28
6/5/2022 1:00:00 AM 15.97 60.746 2.245 7.57 6.16 5.35
6/5/2022 1:15:00 AM 15.72 60.296 2.184 7.54 5.9 5.05
6/5/2022 1:30:00 AM 15.43 59.774 2.255 7.51 5.55 5.24
6/5/2022 1:45:00 AM 15.46 59.828 2.05 7.5 6.67 4.81
6/5/2022 2:00:00 AM 14.99 58.982 1.997 7.46 5.35 5.18
6/5/2022 2:15:00 AM 15.18 59.324 1.972 7.5 5.95 5.32
6/5/2022 2:30:00 AM 15.03 59.054 1.948 7.49 5.34 5.36
6/5/2022 2:45:00 AM 15.09 59.162 1.858 7.49 6.1 5.43
6/5/2022 3:00:00 AM 14.68 58.424 1.755 7.5 6.1 5.14
6/5/2022 3:15:00 AM 14.78 58.604 1.562 7.53 6.07 5.43
6/5/2022 3:30:00 AM 14.53 58.154 1.48 7.54 5.84 5.25
6/5/2022 3:45:00 AM 14.53 58.154 1.462 7.53 6.34 5.41
6/5/2022 4:00:00 AM 14.18 57.524 1.408 7.52 6.17 5.29
6/5/2022 4:15:00 AM 14.35 57.83 1.441 7.57 5.96 6.24
6/5/2022 4:30:00 AM 14.19 57.542 1.42 7.56 6.82 5.42
6/5/2022 4:45:00 AM 13.84 56.912 1.325 7.47 6.93 5.05
6/5/2022 5:00:00 AM 14.01 57.218 1.497 7.51 7.15 5.44
6/5/2022 5:15:00 AM 13.54 56.372 1.568 7.44 6.64 4.67
6/5/2022 5:30:00 AM 13.47 56.246 1.54 7.47 7.27 4.93
6/5/2022 5:45:00 AM 13.46 56.228 1.513 7.48 6.85 5.05
6/5/2022 6:00:00 AM 13.5 56.3 1.527 7.47 6.92 5.01
6/5/2022 6:15:00 AM 13.32 55.976 1.578 7.52 5.74 5.26
6/5/2022 6:30:00 AM 13.52 56.336 1.585 7.52 6.11 5.74
6/5/2022 6:45:00 AM 13.24 55.832 1.537 7.51 5.43 5.39
6/5/2022 7:00:00 AM 13.13 55.634 1.493 7.45 5.12 4.8
6/5/2022 7:15:00 AM 13.15 55.67 1.38 7.47 6.35 5.42
6/5/2022 7:30:00 AM 13.28 55.904 1.337 7.52 5.24 5.79
6/5/2022 7:45:00 AM 12.91 55.238 1.392 7.45 5.22 5.37
6/5/2022 8:00:00 AM 13.2 55.76 1.305 7.53 6.13 5.65
6/5/2022 8:15:00 AM 13.08 55.544 1.331 7.51 5.22 5.79
6/5/2022 8:30:00 AM 13.16 55.688 1.228 7.52 5.85 5.64
6/5/2022 8:45:00 AM 13.37 56.066 1.206 7.57 5.17 6.09
6/5/2022 9:00:00 AM 13.18 55.724 1.186 7.5 4.15 5.65
6/5/2022 9:15:00 AM 13.17 55.706 1.216 7.55 5.2 6.01
6/5/2022 9:30:00 AM 13.37 56.066 1.201 7.51 5.7 6.36
6/5/2022 9:45:00 AM 13.64 56.552 1.243 7.51 4.91 6.37
6/5/2022 10:00:00 AM 13.5 56.3 1.222 7.53 5.44 6.46
6/5/2022 10:15:00 AM 13.76 56.768 1.228 7.59 4.8 6.88
6/5/2022 10:30:00 AM 13.96 57.128 1.395 7.6 4.78 6.66
6/5/2022 10:45:00 AM 14.31 57.758 1.497 7.61 4.76 6.96
6/5/2022 11:00:00 AM 14.31 57.758 1.524 7.64 6.36 7.15
6/5/2022 11:15:00 AM 14.38 57.884 1.447 7.66 4.45 7.43
6/5/2022 11:30:00 AM 14.51 58.118 1.537 7.63 4.8 7.16
6/5/2022 11:45:00 AM 14.74 58.532 1.515 7.55 4.62 6.69
6/5/2022 12:00:00 PM 15.34 59.612 1.494 7.65 4.84 7.55
6/5/2022 12:15:00 PM 14.94 58.892 1.453 7.61 4.52 6.8
6/5/2022 12:30:00 PM 15.33 59.594 1.37 7.66 6.34 7.75
6/5/2022 12:45:00 PM 15.5 59.9 1.37 7.65 4.26 7.37
6/5/2022 1:00:00 PM 15.96 60.728 1.408 7.67 4.66 8.22
6/5/2022 1:15:00 PM 15.96 60.728 1.374 7.64 4.76 7.69
6/5/2022 1:30:00 PM 16.26 61.268 1.376 7.7 4.59 8.05
6/5/2022 1:45:00 PM 16.2 61.16 1.368 7.64 5.51 7.6
6/5/2022 2:00:00 PM 16.42 61.556 1.321 7.71 4.53 7
6/5/2022 2:15:00 PM 16.89 62.402 1.309 7.7 5.97 8
6/5/2022 2:30:00 PM 17.01 62.618 1.259 7.7 4.58 8.13
6/5/2022 2:45:00 PM 17.15 62.87 1.307 7.69 5 8.04
6/5/2022 3:00:00 PM 17.64 63.752 1.312 7.7 4.59 8.32
6/5/2022 3:15:00 PM 17.7 63.86 1.268 7.72 5.08 8.23
6/5/2022 3:30:00 PM 17.39 63.302 1.224 7.71 4.36 9.14
6/5/2022 3:45:00 PM 18.3 64.94 1.185 7.74 4.39 8.62
6/5/2022 4:00:00 PM 18.1 64.58 1.147 7.69 4.31 8.28
6/5/2022 4:15:00 PM 18.44 65.192 1.007 7.74 5.06 8.56
6/5/2022 4:30:00 PM 18.35 65.03 1.043 7.72 4.55 8.53
6/5/2022 4:45:00 PM 18.41 65.138 0.88 7.78 4.48 8.38
6/5/2022 5:00:00 PM 18.51 65.318 0.934 7.83 4.21 8.13
6/5/2022 5:15:00 PM 18.5 65.3 1.495 7.72 4.68 8.11
6/5/2022 5:30:00 PM 18.45 65.21 1.619 7.72 4.38 8.15
6/5/2022 5:45:00 PM 18.65 65.57 1.609 7.83 4.54 8.48
6/5/2022 6:00:00 PM 18.65 65.57 1.614 7.79 4.39 8.2
6/5/2022 6:15:00 PM 17.96 64.328 1.615 7.69 3.98 7.6
6/5/2022 6:30:00 PM 18.11 64.598 1.564 7.65 4.39 7.57
6/5/2022 6:45:00 PM 17.76 63.968 1.419 7.67 4.74 7.54
6/5/2022 7:00:00 PM 17.76 63.968 1.255 7.73 4.97 7.06
6/5/2022 7:15:00 PM 17.96 64.328 1.213 7.71 4.3 7.4
6/5/2022 7:30:00 PM 17.87 64.166 0.945 7.65 4.36 6.76
6/5/2022 7:45:00 PM 18.02 64.436 0.834 7.67 4.68 7.17
6/5/2022 8:00:00 PM 17.91 64.238 0.9 7.67 5.39 6.93
6/5/2022 8:15:00 PM 17.75 63.95 0.53 7.63 4.46 6.56
6/5/2022 8:30:00 PM 17.97 64.346 0.466 7.69 4.49 6.88
6/5/2022 8:45:00 PM 18.02 64.436 0.497 7.64 4.86 6.62
6/5/2022 9:00:00 PM 17.76 63.968 0.443 7.68 4.87 6.55
6/5/2022 9:15:00 PM 17.72 63.896 0.458 7.62 4.74 6.31
6/5/2022 9:30:00 PM 17.81 64.058 0.482 7.62 5.49 6.46
6/5/2022 9:45:00 PM 17.13 62.834 0.475 7.58 6.04 6.05
6/5/2022 10:00:00 PM 17.51 63.518 0.48 7.59 5.15 5.97
6/5/2022 10:15:00 PM 17.48 63.464 0.518 7.58 4.85 6.03
6/5/2022 10:30:00 PM 17.02 62.636 0.579 7.56 5.39 5.81
6/5/2022 10:45:00 PM 17.14 62.852 0.481 7.63 5.05 6.23
6/5/2022 11:00:00 PM 17.11 62.798 0.495 7.59 5.93 5.78
6/5/2022 11:15:00 PM 17.25 63.05 0.519 7.56 5.65 5.34
6/5/2022 11:30:00 PM 16.99 62.582 0.528 7.56 5.45 5.73
6/5/2022 11:45:00 PM 16.9 62.42 0.504 7.56 5.48 5.4
6/6/2022 12:00:00 AM 16.76 62.168 0.508 7.54 5.56 5.32
6/6/2022 12:15:00 AM 16.79 62.222 0.533 7.56 6.38 5.54
6/6/2022 12:30:00 AM 16.96 62.528 0.54 7.54 5.51 5.52
6/6/2022 12:45:00 AM 16.86 62.348 0.51 7.56 5.82 5.41
6/6/2022 1:00:00 AM 16.43 61.574 0.447 7.53 5.85 5.18
6/6/2022 1:15:00 AM 16.48 61.664 0.495 7.52 5.38 5.21
6/6/2022 1:30:00 AM 15.97 60.746 0.553 7.51 6.2 5.03
6/6/2022 1:45:00 AM 16.23 61.214 0.513 7.54 6.39 5.27
6/6/2022 2:00:00 AM 16.4 61.52 0.533 7.53 5.89 5.44
6/6/2022 2:15:00 AM 16.22 61.196 0.438 7.5 6.19 5.46
6/6/2022 2:30:00 AM 16.36 61.448 0.44 7.57 6.69 5.35
6/6/2022 2:45:00 AM 16.23 61.214 0.738 7.52 6.3 5.3
6/6/2022 3:00:00 AM 15.99 60.782 0.67 7.5 6.19 5.17
6/6/2022 3:15:00 AM 16.03 60.854 0.799 7.51 7.08 5.33
6/6/2022 3:30:00 AM 15.78 60.404 0.63 7.53 6.21 4.96
6/6/2022 3:45:00 AM 15.85 60.53 0.545 7.53 6.12 5.49
6/6/2022 4:00:00 AM 15.81 60.458 0.823 7.53 6.09 5.39
6/6/2022 4:15:00 AM 15.62 60.116 0.765 7.52 6.09 5.34
6/6/2022 4:30:00 AM 15.76 60.368 0.625 7.55 6.83 5.3
6/6/2022 4:45:00 AM 15.34 59.612 0.662 7.49 8.23 5.07
6/6/2022 5:00:00 AM 15.21 59.378 0.724 7.52 6.85 5.26
6/6/2022 5:15:00 AM 15.63 60.134 0.713 7.52 6.36 5.45
6/6/2022 5:30:00 AM 15.3 59.54 0.71 7.58 15.87 5.81
6/6/2022 5:45:00 AM 15.24 59.432 0.564 7.49 6.43 5.31
6/6/2022 6:00:00 AM 15.12 59.216 0.863 7.52 6.3 5.21
6/6/2022 6:15:00 AM 14.74 58.532 0.794 7.5 9.23 5.02
6/6/2022 6:30:00 AM 14.85 58.73 0.707 7.54 6.24 5.75
6/6/2022 6:45:00 AM 14.68 58.424 0.598 7.5 8.98 5.29
6/6/2022 7:00:00 AM 14.86 58.748 1.011 7.5 5.59 5.4
6/6/2022 7:15:00 AM 15.1 59.18 1.066 7.51 6.22 5.52
6/6/2022 7:30:00 AM 14.75 58.55 1.034 7.52 5.82 5.28
6/6/2022 7:45:00 AM 14.79 58.622 1.038 7.5 6.08 5.55
6/6/2022 8:00:00 AM 14.55 58.19 0.795 7.52 6.19 5.58
6/6/2022 8:15:00 AM 14.87 58.766 0.734 7.59 5.93 6.34
6/6/2022 8:30:00 AM 15.16 59.288 0.721 7.53 4.89 5.79
6/6/2022 8:45:00 AM 15.01 59.018 0.71 7.54 5.17 5.84
6/6/2022 9:00:00 AM 15.11 59.198 0.738 7.59 4.64 6.06
6/6/2022 9:15:00 AM 15.19 59.342 0.682 7.57 4.73 6.19
6/6/2022 9:30:00 AM 15.35 59.63 0.758 7.56 4.49 6.18
6/6/2022 9:45:00 AM 15.49 59.882 0.713 7.57 5.07 6.49
6/6/2022 10:00:00 AM 15.42 59.756 0.685 7.57 4.51 6.31
6/6/2022 10:15:00 AM 15.77 60.386 0.639 7.61 5.22 6.8
6/6/2022 10:30:00 AM 15.65 60.17 0.66 7.56 5.09 6.24
6/6/2022 10:45:00 AM 16.08 60.944 0.623 7.57 4.74 6.68
6/6/2022 11:00:00 AM 16.13 61.034 0.58 7.61 4.45 6.71
6/6/2022 11:15:00 AM 16.32 61.376 0.587 7.64 4.92 7.02
6/6/2022 11:30:00 AM 16.43 61.574 0.578 7.66 4.71 7.09
6/6/2022 11:45:00 AM 16.66 61.988 0.556 7.65 4.24 7.26
6/6/2022 12:00:00 PM 17.05 62.69 0.503 7.69 4.59 6.97
6/6/2022 12:15:00 PM 17.16 62.888 0.497 7.63 4.45 7.57
6/6/2022 12:30:00 PM 17.1 62.78 0.495 7.68 4.49 7.54
6/6/2022 12:45:00 PM 17.33 63.194 0.492 7.72 4.52 7.56
6/6/2022 1:00:00 PM 17.59 63.662 0.524 7.63 4.11 7.65
6/6/2022 1:15:00 PM 18.22 64.796 0.53 7.68 4.11 7.86
6/6/2022 1:30:00 PM 18.13 64.634 0.593 7.73 4.3 7.85
6/6/2022 1:45:00 PM 18.5 65.3 0.796 7.69 4.19 8.01
6/6/2022 2:00:00 PM 18.65 65.57 0.643 7.7 4.41 8.2
6/6/2022 2:15:00 PM 18.8 65.84 0.679 7.8 4.57 8.26
6/6/2022 2:30:00 PM 19.01 66.218 0.895 7.74 4.16 8.41
6/6/2022 2:45:00 PM 19.26 66.668 0.92 7.75 3.78 8.32
6/6/2022 3:00:00 PM 19.25 66.65 0.998 7.73 3.99 8.16
6/6/2022 3:15:00 PM 19.48 67.064 1.472 7.75 3.91 8.29
6/6/2022 3:30:00 PM 19.51 67.118 1.696 7.78 4.19 8.55
6/6/2022 3:45:00 PM 19.61 67.298 1.775 7.77 4.12 8.39
6/6/2022 4:00:00 PM 19.16 66.488 1.814 7.79 4.6 8.63
6/6/2022 4:15:00 PM 19.64 67.352 1.516 7.77 3.91 8.23
6/6/2022 4:30:00 PM 19.69 67.442 1.611 7.78 4.37 7.81
6/6/2022 4:45:00 PM 19.33 66.794 1.711 7.7 4.46 7.74
6/6/2022 5:00:00 PM 19.56 67.208 1.681 7.77 4.13 8.2
6/6/2022 5:15:00 PM 19.43 66.974 1.711 7.79 4.17 8.02
6/6/2022 5:30:00 PM 19.7 67.46 1.657 7.78 4.31 8.01
6/6/2022 5:45:00 PM 19.61 67.298 1.666 7.78 3.83 7.89
6/6/2022 6:00:00 PM 19.4 66.92 1.796 7.77 3.98 7.52
6/6/2022 6:15:00 PM 19.53 67.154 1.813 7.8 4.4 7.78
6/6/2022 6:30:00 PM 19.31 66.758 1.788 7.78 4.44 7.85
6/6/2022 6:45:00 PM 19.43 66.974 1.804 7.75 4.89 7.82
6/6/2022 7:00:00 PM 19.1 66.38 1.829 7.78 4.4 7.51
6/6/2022 7:15:00 PM 19.1 66.38 1.834 7.78 4.22 7.62
6/6/2022 7:30:00 PM 18.89 66.002 1.778 7.71 4.18 7.07
6/6/2022 7:45:00 PM 18.74 65.732 1.762 7.74 4.18 7.02
6/6/2022 8:00:00 PM 18.7 65.66 1.787 7.68 5.07 6.62
6/6/2022 8:15:00 PM 19.06 66.308 1.788 7.71 4.82 6.9
6/6/2022 8:30:00 PM 18.71 65.67799 1.789 7.73 4.83 7.12
6/6/2022 8:45:00 PM 18.38 65.084 1.817 7.65 4.85 6.21
6/6/2022 9:00:00 PM 18.91 66.038 1.787 7.67 5.18 6.33
6/6/2022 9:15:00 PM 18.56 65.408 1.754 7.69 5.29 6.34
6/6/2022 9:30:00 PM 18.57 65.426 1.744 7.69 5.23 6.48
6/6/2022 9:45:00 PM 18.67 65.606 1.694 7.65 5.33 5.81
6/6/2022 10:00:00 PM 18.38 65.084 1.657 7.65 6.03 5.98
6/6/2022 10:15:00 PM 18.94 66.092 1.627 7.66 5.27 6.14
6/6/2022 10:30:00 PM 18.64 65.552 1.655 7.64 5.44 6.01
6/6/2022 10:45:00 PM 18.63 65.534 1.617 7.68 6.12 5.95
6/6/2022 11:00:00 PM 18.41 65.138 1.632 7.61 5.81 5.77
6/6/2022 11:15:00 PM 18.36 65.048 1.595 7.62 5.55 5.68
6/6/2022 11:30:00 PM 18.55 65.39 1.55 7.63 5.78 5.65
6/6/2022 11:45:00 PM 18.46 65.228 1.585 7.64 5.73 5.6
6/7/2022 12:00:00 AM 18.36 65.048 1.589 7.62 6.03 5.57
6/7/2022 12:15:00 AM 17.94 64.292 1.595 7.59 5.85 5.16
6/7/2022 12:30:00 AM 18.11 64.598 1.565 7.61 4.93 5.46
6/7/2022 12:45:00 AM 17.82 64.076 1.545 7.6 5.6 5.33
6/7/2022 1:00:00 AM 17.84 64.112 1.614 7.59 5.62 5.27
6/7/2022 1:15:00 AM 17.64 63.752 1.611 7.57 5.65 5.24
6/7/2022 1:30:00 AM 17.42 63.356 1.542 7.57 5.3 5.11
6/7/2022 1:45:00 AM 17.81 64.058 1.43 7.57 5.62 5.29
6/7/2022 2:00:00 AM 17.48 63.464 1.448 7.58 7.28 5.21
6/7/2022 2:15:00 AM 17.49 63.482 1.422 7.56 5.81 5.19
6/7/2022 2:30:00 AM 17.41 63.338 1.412 7.56 5.6 5.2
6/7/2022 2:45:00 AM 17.18 62.924 1.35 7.56 5.97 5.08
6/7/2022 3:00:00 AM 17.01 62.618 1.269 7.55 5.19 5.24
6/7/2022 3:15:00 AM 17.09 62.762 1.276 7.55 5.6 5.1
6/7/2022 3:30:00 AM 17.11 62.798 1.258 7.55 5.9 5.23
6/7/2022 3:45:00 AM 17.11 62.798 1.257 7.56 5.97 5.1
6/7/2022 4:00:00 AM 16.98 62.564 1.199 7.58 6.48 5.31
6/7/2022 4:15:00 AM 16.91 62.438 1.162 7.55 6.29 5.3
6/7/2022 4:30:00 AM 16.81 62.258 1.177 7.54 6.99 5.16
6/7/2022 4:45:00 AM 16.61 61.898 1.125 7.53 6.62 4.89
6/7/2022 5:00:00 AM 16.7 62.06 1.079 7.53 7.59 5.06
6/7/2022 5:15:00 AM 16.26 61.268 1.123 7.54 7.52 4.91
6/7/2022 5:30:00 AM 16.17 61.106 1.106 7.51 6.91 4.96
6/7/2022 5:45:00 AM 16.11 60.998 1.145 7.55 7.38 4.98
6/7/2022 6:00:00 AM 16.18 61.124 1.217 7.53 7.64 4.8
6/7/2022 6:15:00 AM 16.27 61.286 1.22 7.56 7.03 5.36
6/7/2022 6:30:00 AM 16.04 60.872 1.189 7.55 6.7 5.38
6/7/2022 6:45:00 AM 16.02 60.836 1.176 7.54 7.84 5.15
6/7/2022 7:00:00 AM 16.18 61.124 1.137 7.56 7.41 5.48
6/7/2022 7:15:00 AM 16.18 61.124 1.068 7.57 6.26 5.59
6/7/2022 7:30:00 AM 16.26 61.268 1.085 7.57 6.23 5.66
6/7/2022 7:45:00 AM 16.07 60.926 1.121 7.54 6.31 5.63
6/7/2022 8:00:00 AM 16.07 60.926 1.096 7.54 6.05 5.45
6/7/2022 8:15:00 AM 15.99 60.782 1.137 7.59 6.26 5.79
6/7/2022 8:30:00 AM 16.04 60.872 1.153 7.59 5.85 5.58
6/7/2022 8:45:00 AM 15.9 60.62 1.161 7.59 6 5.83
6/7/2022 9:00:00 AM 16.15 61.07 1.117 7.57 5.83 5.92
6/7/2022 9:15:00 AM 16.21 61.178 1.113 7.58 4.96 5.89
6/7/2022 9:30:00 AM 16.14 61.052 1.091 7.64 5.78 6.37
6/7/2022 9:45:00 AM 16.06 60.908 1.096 7.58 5.02 5.95
6/7/2022 10:00:00 AM 15.93 60.674 1.098 7.55 4.85 5.88
6/7/2022 10:15:00 AM 16.28 61.304 1.085 7.62 4.83 6.59
6/7/2022 10:30:00 AM 16.3 61.34 1.091 7.61 6.42 6.68
6/7/2022 10:45:00 AM 16.23 61.214 1.043 7.62 5.32 7.02
6/7/2022 11:00:00 AM 16.25 61.25 1.041 7.63 4.6 6.73
6/7/2022 11:15:00 AM 16.22 61.196 1.05 7.66 4.72 7.02
6/7/2022 11:30:00 AM 16.48 61.664 1.054 7.67 4.64 7.03
6/7/2022 11:45:00 AM 16.51 61.718 0.999 7.68 4.2 7.28
6/7/2022 12:00:00 PM 16.48 61.664 1.045 7.67 5.42 7.29
6/7/2022 12:15:00 PM 16.36 61.448 0.98 7.66 4.44 7.24
6/7/2022 12:30:00 PM 16.32 61.376 1.046 7.64 4.32 7.25
6/7/2022 12:45:00 PM 16.34 61.412 1.189 7.67 4.65 7.09
6/7/2022 1:00:00 PM 16.33 61.394 1.178 7.63 5.07 6.65
6/7/2022 1:15:00 PM 16.4 61.52 1.201 7.68 4.38 7.31
6/7/2022 1:30:00 PM 16.23 61.214 1.185 7.7 4.48 6.42
6/7/2022 1:45:00 PM 16.15 61.07 1.187 7.61 4.41 6.87
6/7/2022 2:00:00 PM 16.37 61.466 1.189 7.69 4.6 7.52
6/7/2022 2:15:00 PM 16.39 61.502 1.152 7.68 4.86 7.11
6/7/2022 2:30:00 PM 16.46 61.628 1.146 7.67 5.11 7.27
6/7/2022 2:45:00 PM 16.07 60.926 1.144 7.65 4.78 7.26
6/7/2022 3:00:00 PM 16.6 61.88 1.104 7.67 4.64 7.35
6/7/2022 3:15:00 PM 16.44 61.592 1.073 7.67 4.12 7.25
6/7/2022 3:30:00 PM 16.41 61.538 1.125 7.69 3.58 7.03
6/7/2022 3:45:00 PM 16.58 61.844 1.121 7.71 3.97 7.28
6/7/2022 4:00:00 PM 16.36 61.448 1.047 7.7 3.67 6.91
6/7/2022 4:15:00 PM 16.41 61.538 1.041 7.69 4 6.57
6/7/2022 4:30:00 PM 16.49 61.682 1.028 7.7 4.4 7.25
6/7/2022 4:45:00 PM 16.58 61.844 0.994 7.65 4.65 6.33
6/7/2022 5:00:00 PM 16.22 61.196 0.931 7.62 4.45 6.42
6/7/2022 5:15:00 PM 16.27 61.286 0.949 7.71 4.95 7.1
6/7/2022 5:30:00 PM 16.47 61.646 0.939 7.67 3.94 6.93
6/7/2022 5:45:00 PM 16.68 62.024 0.915 7.7 4.33 6.64
6/7/2022 6:00:00 PM 16.41 61.538 0.887 7.68 4.17 6.88
6/7/2022 6:15:00 PM 16.5 61.7 0.839 7.68 3.71 6.57
6/7/2022 6:30:00 PM 16.54 61.772 0.878 7.66 3.74 6.79
6/7/2022 6:45:00 PM 16.24 61.232 0.924 7.69 4.3 6.55
6/7/2022 7:00:00 PM 16.32 61.376 0.91 7.69 4.34 6.65
6/7/2022 7:15:00 PM 16.61 61.898 0.844 7.69 3.97 6.07
6/7/2022 7:30:00 PM 16.62 61.916 0.806 7.68 4.77 5.99
6/7/2022 7:45:00 PM 16.55 61.79 0.814 7.64 4.74 6.19
6/7/2022 8:00:00 PM 16.37 61.466 0.856 7.63 4.17 6.11
6/7/2022 8:15:00 PM 16.59 61.862 0.838 7.62 4.87 6.06
6/7/2022 8:30:00 PM 16.39 61.502 0.823 7.63 4.74 5.72
6/7/2022 8:45:00 PM 16.46 61.628 0.75 7.6 5.14 6.03
6/7/2022 9:00:00 PM 16.56 61.808 0.717 7.62 5.16 6.01
6/7/2022 9:15:00 PM 16.39 61.502 0.747 7.61 5.48 6.08
6/7/2022 9:30:00 PM 16.38 61.484 0.719 7.61 4.98 5.98
6/7/2022 9:45:00 PM 16.33 61.394 0.726 7.62 5.58 5.78
6/7/2022 10:00:00 PM 16.27 61.286 0.788 7.59 5.71 5.6
6/7/2022 10:15:00 PM 16.11 60.998 2.036 7.61 6.41 6.3
6/7/2022 10:30:00 PM 16.41 61.538 1.86 7.57 6 5.73
6/7/2022 10:45:00 PM 16.36 61.448 1.8 7.56 7.22 5.69
6/7/2022 11:00:00 PM 16.44 61.592 1.787 7.54 6.79 5.61
6/7/2022 11:15:00 PM 16.44 61.592 1.666 7.57 6.76 5.78
6/7/2022 11:30:00 PM 16.22 61.196 1.551 7.59 6.77 5.72
6/7/2022 11:45:00 PM 16.39 61.502 1.487 7.59 6.8 5.73
6/8/2022 12:00:00 AM 16.28 61.304 1.428 7.55 5.91 5.5
6/8/2022 12:15:00 AM 16.11 60.998 1.445 7.53 7.09 5.54
6/8/2022 12:30:00 AM 16.34 61.412 1.42 7.58 6.01 5.6
6/8/2022 12:45:00 AM 16.16 61.088 1.343 7.57 5.8 5.56
6/8/2022 1:00:00 AM 16.18 61.124 1.255 7.55 6.13 5.49
6/8/2022 1:15:00 AM 16.05 60.89 1.23 7.55 5.85 5.41
6/8/2022 1:30:00 AM 16.23 61.214 1.012 7.56 5.65 5.59
6/8/2022 1:45:00 AM 15.89 60.602 1.026 7.52 5.85 5.18
6/8/2022 2:00:00 AM 15.58 60.044 1.085 7.52 6.16 4.75
6/8/2022 2:15:00 AM 15.81 60.458 1.07 7.55 6 5.32
6/8/2022 2:30:00 AM 15.99 60.782 1.022 7.57 6.17 5.25
6/8/2022 2:45:00 AM 15.9 60.62 0.953 7.57 5.92 5.39
6/8/2022 3:00:00 AM 16.01 60.818 0.904 7.57 6.57 5.6
6/8/2022 3:15:00 AM 15.8 60.44 0.942 7.54 5.98 5.35
6/8/2022 3:30:00 AM 15.74 60.332 0.931 7.55 6.74 5.51
6/8/2022 3:45:00 AM 15.84 60.512 0.874 7.56 7.29 5.64
6/8/2022 4:00:00 AM 15.58 60.044 0.851 7.56 7.67 5.36
6/8/2022 4:15:00 AM 15.88 60.584 0.853 7.59 7.72 5.77
6/8/2022 4:30:00 AM 15.58 60.044 0.842 7.57 7.22 5.58
6/8/2022 4:45:00 AM 15.63 60.134 0.882 7.58 7.93 5.37
6/8/2022 5:00:00 AM 15.61 60.098 0.903 7.56 6.64 5.55
6/8/2022 5:15:00 AM 15.48 59.864 0.914 7.57 7.25 5.54
6/8/2022 5:30:00 AM 15.27 59.486 0.893 7.54 7.12 5.55
6/8/2022 5:45:00 AM 15.44 59.792 0.883 7.59 7.4 5.77
6/8/2022 6:00:00 AM 15.02 59.036 0.902 7.51 7.21 5.15
6/8/2022 6:15:00 AM 15.17 59.306 0.88 7.56 7.16 5.7
6/8/2022 6:30:00 AM 15.26 59.468 0.895 7.57 6.74 5.9
6/8/2022 6:45:00 AM 15.23 59.414 0.924 7.59 7.43 5.83
6/8/2022 7:00:00 AM 15.28 59.504 0.908 7.59 6.18 5.91
6/8/2022 7:15:00 AM 15.11 59.198 0.94 7.58 6.35 5.88
6/8/2022 7:30:00 AM 14.84 58.712 0.938 7.52 6.76 5.23
6/8/2022 7:45:00 AM 15.04 59.072 0.938 7.55 6.39 5.47
6/8/2022 8:00:00 AM 15.11 59.198 0.935 7.6 6.92 6.04
6/8/2022 8:15:00 AM 15.09 59.162 0.901 7.59 7.3 5.93
6/8/2022 8:30:00 AM 15 59 0.898 7.6 7.23 5.78
6/8/2022 8:45:00 AM 14.6 58.28 0.878 7.57 6.6 5.52
6/8/2022 9:00:00 AM 15.23 59.414 0.844 7.62 6.34 6.44
6/8/2022 9:15:00 AM 14.88 58.784 0.85 7.56 6.99 6.1
6/8/2022 9:30:00 AM 15.07 59.126 0.888 7.64 6.65 6.48
6/8/2022 9:45:00 AM 15.36 59.648 0.864 7.66 5.89 7.1
6/8/2022 10:00:00 AM 15.02 59.036 0.907 7.55 4.87 6.16
6/8/2022 10:15:00 AM 15.49 59.882 0.881 7.66 8.37 6.88
6/8/2022 10:30:00 AM 15.62 60.116 0.924 7.67 5.33 6.81
6/8/2022 10:45:00 AM 15.57 60.026 0.922 7.61 5.15 6.7
6/8/2022 11:00:00 AM 15.5 59.9 0.94 7.7 4.87 6.63
6/8/2022 11:15:00 AM 15.33 59.594 0.965 7.64 5.05 6.85
6/8/2022 11:30:00 AM 16.04 60.872 0.938 7.68 5.36 7.46
6/8/2022 11:45:00 AM 16.06 60.908 0.928 7.7 5.23 7.61
6/8/2022 12:00:00 PM 15.75 60.35 0.951 7.71 6.03 7.56
6/8/2022 12:15:00 PM 16.17 61.106 0.907 7.74 4.79 7.81
6/8/2022 12:30:00 PM 16.48 61.664 0.888 7.74 4.8 7.81
6/8/2022 12:45:00 PM 16.68 62.024 0.915 7.78 4.53 7.82
6/8/2022 1:00:00 PM 16.84 62.312 0.926 7.82 4.54 8.61
6/8/2022 1:15:00 PM 16.87 62.366 0.893 7.81 5.04 7.96
6/8/2022 1:30:00 PM 16.72 62.096 0.935 7.79 4.76 8.07
6/8/2022 1:45:00 PM 16.95 62.51 0.882 7.84 4.85 8.45
6/8/2022 2:00:00 PM 17.04 62.672 0.87 7.84 4.72 8.45
6/8/2022 2:15:00 PM 16.86 62.348 0.868 7.79 4.76 7.8
6/8/2022 2:30:00 PM 17.43 63.374 0.795 7.8 4.93 8.08
6/8/2022 2:45:00 PM 17.55 63.59 0.671 7.85 5.35 8.72
6/8/2022 3:00:00 PM 17.56 63.608 0.655 7.85 4.56 8.49
6/8/2022 3:15:00 PM 17.77 63.986 0.647 7.86 4.41 8.48
6/8/2022 3:30:00 PM 17.96 64.328 0.674 7.87 4.85 8.6
6/8/2022 3:45:00 PM 17.79 64.022 0.641 7.82 4.7 8.51
6/8/2022 4:00:00 PM 17.88 64.184 0.618 7.89 4.92 8.16
6/8/2022 4:15:00 PM 17.93 64.274 1.341 7.85 4.37 7.86
6/8/2022 4:30:00 PM 18.05 64.49 0.91 7.85 5.25 8.69
6/8/2022 4:45:00 PM 17.69 63.842 0.863 7.82 4.82 8.5
6/8/2022 5:00:00 PM 17.93 64.274 0.632 7.84 4.29 8.29
6/8/2022 5:15:00 PM 18.22 64.796 0.717 7.89 4.69 8.66
6/8/2022 5:30:00 PM 18.02 64.436 0.707 7.85 4.38 8.26
6/8/2022 5:45:00 PM 18.03 64.454 0.69 7.85 4.77 7.89
6/8/2022 6:00:00 PM 18.48 65.264 0.677 7.9 4.56 8.29
6/8/2022 6:15:00 PM 18.34 65.012 0.699 7.85 4.72 8
6/8/2022 6:30:00 PM 18.62 65.516 0.703 7.9 4.67 8.05
6/8/2022 6:45:00 PM 18.23 64.814 0.673 7.83 4.82 7.6
6/8/2022 7:00:00 PM 18.5 65.3 0.63 7.81 4.77 7.92
6/8/2022 7:15:00 PM 18.28 64.904 0.638 7.81 4.4 6.97
6/8/2022 7:30:00 PM 18.27 64.886 0.625 7.79 5.11 7.02
6/8/2022 7:45:00 PM 18.34 65.012 0.622 7.81 4.98 7.31
6/8/2022 8:00:00 PM 18.38 65.084 0.629 7.77 4.97 7.41
6/8/2022 8:15:00 PM 18.39 65.102 0.639 7.81 4.85 7.17
6/8/2022 8:30:00 PM 18.42 65.156 0.65 7.8 4.57 7.34
6/8/2022 8:45:00 PM 18.17 64.706 0.663 7.73 5.12 6.94
6/8/2022 9:00:00 PM 18.16 64.688 0.638 7.77 4.73 6.76
6/8/2022 9:15:00 PM 18.3 64.94 0.609 7.76 5.73 6.77
6/8/2022 9:30:00 PM 18.15 64.67 0.59 7.72 5.54 6.69
6/8/2022 9:45:00 PM 18.05 64.49 0.572 7.69 5.46 6.34
6/8/2022 10:00:00 PM 17.88 64.184 0.586 7.72 5.74 6.55
6/8/2022 10:15:00 PM 17.85 64.13 0.586 7.71 5.82 6.39
6/8/2022 10:30:00 PM 18.22 64.796 0.664 7.73 5.69 6.38
6/8/2022 10:45:00 PM 18.04 64.472 0.672 7.69 5.99 6.22
6/8/2022 11:00:00 PM 18.09 64.562 0.714 7.68 6.09 6.04
6/8/2022 11:15:00 PM 17.9 64.22 0.726 7.65 5.52 5.95
6/8/2022 11:30:00 PM 17.75 63.95 0.736 7.67 6.76 5.71
6/8/2022 11:45:00 PM 17.67 63.806 0.733 7.66 6.02 5.81
6/9/2022 12:00:00 AM 17.52 63.536 0.779 7.64 6.02 5.49
6/9/2022 12:15:00 AM 17.52 63.536 0.754 7.65 6.06 5.62
6/9/2022 12:30:00 AM 17.49 63.482 0.727 7.6 6.09 5.25
6/9/2022 12:45:00 AM 17.26 63.068 0.736 7.6 5.72 5.29
6/9/2022 1:00:00 AM 17.49 63.482 0.716 7.57 6.31 5.52
6/9/2022 1:15:00 AM 17.36 63.248 0.718 7.61 6.29 5.35
6/9/2022 1:30:00 AM 17.48 63.464 0.684 7.61 6.91 5.58
6/9/2022 1:45:00 AM 17.01 62.618 0.724 7.59 7.23 5.27
6/9/2022 2:00:00 AM 16.88 62.384 0.728 7.59 7.22 5.43
6/9/2022 2:15:00 AM 17.15 62.87 0.711 7.62 7.39 5.78
6/9/2022 2:30:00 AM 17.13 62.834 0.658 7.62 10.74 5.8
6/9/2022 2:45:00 AM 17 62.6 0.636 7.61 10.69 5.75
6/9/2022 3:00:00 AM 17.09 62.762 0.628 7.64 10.96 6.07
6/9/2022 3:15:00 AM 17.13 62.834 0.639 7.68 13.03 6.45
6/9/2022 3:30:00 AM 17.12 62.816 0.615 7.69 13.22 6.51
6/9/2022 3:45:00 AM 17.32 63.176 0.622 7.71 14.28 6.65
6/9/2022 4:00:00 AM 17.27 63.086 0.601 7.68 18.36 6.52
6/9/2022 4:15:00 AM 17.26 63.068 0.459 7.7 14.54 6.8
6/9/2022 4:30:00 AM 16.99 62.582 0.429 7.69 15.39 6.9
6/9/2022 4:45:00 AM 16.94 62.492 0.459 7.67 16.86 6.67
6/9/2022 5:00:00 AM 16.89 62.402 0.346 7.66 16.04 6.64
6/9/2022 5:15:00 AM 16.82 62.276 0.347 7.64 15.09 6.56
6/9/2022 5:30:00 AM 16.8 62.24 0.342 7.65 15.64 6.76
6/9/2022 5:45:00 AM 16.72 62.096 0.342 7.63 19.81 6.62
6/9/2022 6:00:00 AM 16.62 61.916 0.83 7.62 14.88 6.61
6/9/2022 6:15:00 AM 16.66 61.988 0.742 7.63 14.57 6.62
6/9/2022 6:30:00 AM 16.64 61.952 0.857 7.61 14.72 6.59
6/9/2022 6:45:00 AM 16.62 61.916 0.844 7.59 18.19 6.66
6/9/2022 7:00:00 AM 16.78 62.204 0.788 7.6 14.95 6.81
6/9/2022 7:15:00 AM 16.88 62.384 0.795 7.62 24.32 6.92
6/9/2022 7:30:00 AM 16.92 62.456 0.953 7.62 25.09 6.95
6/9/2022 7:45:00 AM 16.92 62.456 1.111 7.63 22.98 7.04
6/9/2022 8:00:00 AM 16.99 62.582 1.092 7.63 21.36 7.07
6/9/2022 8:15:00 AM 17.2 62.96 1.005 7.64 22.82 7.12
6/9/2022 8:30:00 AM 17.38 63.284 0.862 7.65 29.39 7.17
6/9/2022 8:45:00 AM 17.53 63.554 0.812 7.66 27.49 7.2
6/9/2022 9:00:00 AM 17.65 63.77 0.801 7.65 40.72 7.35
6/9/2022 9:15:00 AM 17.53 63.554 0.714 7.63 53.66 7.49
6/9/2022 9:30:00 AM 17.24 63.032 0.715 7.61 68.09 7.65
6/9/2022 9:45:00 AM 16.92 62.456 0.669 7.59 65.07 7.74
6/9/2022 10:00:00 AM 16.73 62.114 0.593 7.56 84.47 7.83
6/9/2022 10:15:00 AM 16.57 61.826 0.51 7.54 83.12 7.81
6/9/2022 10:30:00 AM 16.49 61.682 0.492 7.52 61.34 7.84
6/9/2022 10:45:00 AM 16.45 61.61 0.467 7.51 62.67 7.82
6/9/2022 11:00:00 AM 16.5 61.7 0.525 7.5 66.53 7.82
6/9/2022 11:15:00 AM 16.55 61.79 0.583 7.5 68.98 7.78
6/9/2022 11:30:00 AM 16.58 61.844 0.658 7.5 51.92 7.79
6/9/2022 11:45:00 AM 16.61 61.898 0.635 7.5 56.79 7.75
6/9/2022 12:00:00 PM 16.63 61.934 0.669 7.5 57.83 7.75
6/9/2022 12:15:00 PM 16.71 62.078 0.644 7.5 56.12 7.81
6/9/2022 12:30:00 PM 16.71 62.078 0.629 7.5 53.26 7.74
6/9/2022 12:45:00 PM 16.7 62.06 0.637 7.51 55.98 7.76
6/9/2022 1:00:00 PM 16.72 62.096 0.635 7.51 49.37 7.75
6/9/2022 1:15:00 PM 16.72 62.096 0.623 7.52 68.99 7.74
6/9/2022 1:30:00 PM 16.77 62.186 0.572 7.5 50.55 7.75
6/9/2022 1:45:00 PM 16.77 62.186 0.471 7.51 54.99 7.8
6/9/2022 2:00:00 PM 16.89 62.402 0.381 7.52 51.18 7.92
6/9/2022 2:15:00 PM 16.89 62.402 0.422 7.52 42.04 7.91
6/9/2022 2:30:00 PM 16.91 62.438 0.372 7.53 45.92 7.95
6/9/2022 2:45:00 PM 16.91 62.438 0.378 7.53 42.82 8
6/9/2022 3:00:00 PM 16.95 62.51 0.379 7.53 43.98 8.03
6/9/2022 3:15:00 PM 16.95 62.51 0.379 7.53 39.18 8.03
6/9/2022 3:30:00 PM 17 62.6 0.386 7.53 39.23 8.04
6/9/2022 3:45:00 PM 16.96 62.528 0.505 7.54 34.04 8.04
6/9/2022 4:00:00 PM 17.03 62.654 0.497 7.53 36.87 8.07
6/9/2022 4:15:00 PM 17.09 62.762 0.51 7.54 37.96 8.07
6/9/2022 4:30:00 PM 17.18 62.924 0.521 7.56 35.83 8.1
6/9/2022 4:45:00 PM 17.19 62.942 0.477 7.55 34.38 8.08
6/9/2022 5:00:00 PM 17.18 62.924 0.445 7.55 34.91 8.09
6/9/2022 5:15:00 PM 17.14 62.852 0.426 7.55 33.67 8.09
6/9/2022 5:30:00 PM 17.14 62.852 0.475 7.55 32.27 8.08
6/9/2022 5:45:00 PM 17.19 62.942 0.453 7.56 27.59 8.08
6/9/2022 6:00:00 PM 17.2 62.96 0.446 7.56 27.39 8.06
6/9/2022 6:15:00 PM 17.15 62.87 0.43 7.55 32.68 7.98
6/9/2022 6:30:00 PM 17.13 62.834 0.353 7.55 36.12 7.96
6/9/2022 6:45:00 PM 17.12 62.816 0.32 7.56 26.8 7.93
6/9/2022 7:00:00 PM 17.17 62.906 0.321 7.56 25.44 8.01
6/9/2022 7:15:00 PM 17.12 62.816 0.339 7.56 29.91 7.97
6/9/2022 7:30:00 PM 17.09 62.762 0.349 7.56 31.44 7.94
6/9/2022 7:45:00 PM 17.04 62.672 0.361 7.55 27.46 7.83
6/9/2022 8:00:00 PM 17 62.6 0.351 7.55 52.03 7.91
6/9/2022 8:15:00 PM 16.99 62.582 0.292 7.55 24.02 7.88
6/9/2022 8:30:00 PM 16.93 62.474 0.251 7.55 26.41 7.87
6/9/2022 8:45:00 PM 16.84 62.312 0.271 7.55 27.96 7.84
6/9/2022 9:00:00 PM 16.82 62.276 0.267 7.54 31.46 7.81
6/9/2022 9:15:00 PM 16.78 62.204 0.292 7.55 32.93 7.79
6/9/2022 9:30:00 PM 16.71 62.078 0.267 7.54 28.89 7.76
6/9/2022 9:45:00 PM 16.66 61.988 0.29 7.54 30.69 7.75
6/9/2022 10:00:00 PM 16.62 61.916 0.28 7.54 31.01 7.74
6/9/2022 10:15:00 PM 16.57 61.826 0.315 7.54 31.58 7.71
6/9/2022 10:30:00 PM 16.53 61.754 0.313 7.54 27.43 7.69
6/9/2022 10:45:00 PM 16.49 61.682 0.254 7.55 29.82 7.66
6/9/2022 11:00:00 PM 16.47 61.646 0.248 7.56 29.43 7.65
6/9/2022 11:15:00 PM 16.41 61.538 0.274 7.55 27.59 7.63
6/9/2022 11:30:00 PM 16.4 61.52 0.268 7.56 30.56 7.64
6/9/2022 11:45:00 PM 16.36 61.448 0.27 7.55 28.66 7.62
6/10/2022 12:00:00 AM 16.31 61.358 0.31 7.54 28.53 7.59
6/10/2022 12:15:00 AM 16.27 61.286 0.332 7.55 28.69 7.6
6/10/2022 12:30:00 AM 16.22 61.196 0.328 7.55 28.31 7.6
6/10/2022 12:45:00 AM 16.15 61.07 0.278 7.55 28.13 7.61
6/10/2022 1:00:00 AM 16.08 60.944 0.276 7.55 26.91 7.61
6/10/2022 1:15:00 AM 16.02 60.836 0.284 7.55 26.65 7.61
6/10/2022 1:30:00 AM 15.96 60.728 0.254 7.55 28.64 7.61
6/10/2022 1:45:00 AM 15.9 60.62 0.228 7.55 27.12 7.63
6/10/2022 2:00:00 AM 15.81 60.458 0.263 7.55 27.32 7.6
6/10/2022 2:15:00 AM 15.79 60.422 0.258 7.57 30.36 7.63
6/10/2022 2:30:00 AM 15.71 60.278 0.246 7.57 25.91 7.58
6/10/2022 2:45:00 AM 15.66 60.188 0.249 7.55 25.93 7.62
6/10/2022 3:00:00 AM 15.62 60.116 0.231 7.55 26.05 7.61
6/10/2022 3:15:00 AM 15.59 60.062 0.228 7.56 26.08 7.63
6/10/2022 3:30:00 AM 15.54 59.972 0.336 7.56 26.21 7.63
6/10/2022 3:45:00 AM 15.5 59.9 0.417 7.56 25.23 7.66
6/10/2022 4:00:00 AM 15.42 59.756 0.39 7.56 25.46 7.64
6/10/2022 4:15:00 AM 15.39 59.702 0.358 7.56 23.78 7.61
6/10/2022 4:30:00 AM 15.3 59.54 0.405 7.57 25.58 7.68
6/10/2022 4:45:00 AM 15.28 59.504 0.401 7.57 24.8 7.67
6/10/2022 5:00:00 AM 15.22 59.396 0.373 7.58 22.88 7.67
6/10/2022 5:15:00 AM 15.14 59.252 0.33 7.56 24.2 7.68
6/10/2022 5:30:00 AM 15.09 59.162 0.29 7.57 22.83 7.69
6/10/2022 5:45:00 AM 15.01 59.018 0.275 7.57 24.64 7.69
6/10/2022 6:00:00 AM 14.98 58.964 0.271 7.58 23.6 7.73
6/10/2022 6:15:00 AM 14.92 58.856 0.27 7.57 23.26 7.73
6/10/2022 6:30:00 AM 14.87 58.766 0.271 7.58 21.96 7.75
6/10/2022 6:45:00 AM 14.83 58.694 0.291 7.58 22.12 7.78
6/10/2022 7:00:00 AM 14.8 58.64 0.26 7.6 20.25 7.78
6/10/2022 7:15:00 AM 14.78 58.604 0.25 7.59 20.79 7.81
6/10/2022 7:30:00 AM 14.76 58.568 0.307 7.59 20.17 7.79
6/10/2022 7:45:00 AM 14.77 58.586 0.317 7.58 19.27 7.85
6/10/2022 8:00:00 AM 14.79 58.622 0.306 7.59 19.01 7.9
6/10/2022 8:15:00 AM 14.78 58.604 0.257 7.59 18.49 7.89
6/10/2022 8:30:00 AM 14.83 58.694 0.254 7.6 18.05 7.97
6/10/2022 8:45:00 AM 14.87 58.766 0.254 7.6 17.85 8.01
6/10/2022 9:00:00 AM 14.93 58.874 0.255 7.62 17.81 8.07
6/10/2022 9:15:00 AM 15 59 0.256 7.63 16.79 8.13
6/10/2022 9:30:00 AM 15.09 59.162 0.272 7.64 15.65 8.22
6/10/2022 9:45:00 AM 15.18 59.324 0.272 7.64 16.17 8.26
6/10/2022 10:00:00 AM 15.3 59.54 0.273 7.65 16.2 8.36
6/10/2022 10:15:00 AM 15.39 59.702 0.281 7.66 15.36 8.43
6/10/2022 10:30:00 AM 15.53 59.954 0.271 7.67 14.82 8.44
6/10/2022 10:45:00 AM 15.67 60.206 0.262 7.67 14.4 8.55